Time,TemperatureF,DewpointF,PressureIn,WindDirection,WindDirectionDegrees,WindSpeedMPH,WindSpeedGustMPH,Humidity,HourlyPrecipIn,Conditions,Clouds,dailyrainin,SolarRadiationWatts/m^2,SoftwareType,DateUTC
2013-12-25 00:00:00,43.9,38.1,30.15,ENE,67,0.0,0.0,80,0.00,CLR,,0.00,0.0,WeatherDisplay:10.37,2013-12-24 23:00:00,
2013-12-25 00:01:00,43.9,38.1,30.15,ENE,67,0.0,0.0,80,0.00,CLR,,0.00,0.0,WeatherDisplay:10.37,2013-12-24 23:01:00,
2013-12-25 00:03:00,43.9,38.1,30.15,ENE,67,0.0,0.0,80,0.00,CLR,,0.00,0.0,WeatherDisplay:10.37,2013-12-24 23:03:00,
2013-12-25 00:04:00,43.9,38.1,30.15,ENE,67,0.0,0.0,80,0.00,CLR,,0.00,0.0,WeatherDisplay:10.37,2013-12-24 23:04:00,
2013-12-25 00:06:00,43.9,38.1,30.15,ENE,67,0.0,0.0,80,0.00,CLR,,0.00,0.0,WeatherDisplay:10.37,2013-12-24 23:06:00,
2013-12-25 00:07:00,43.9,38.1,30.15,ENE,67,1.2,1.2,80,0.00,CLR,,0.00,0.0,WeatherDisplay:10.37,2013-12-24 23:07:00,
2013-12-25 00:08:00,43.9,38.1,30.15,ENE,67,1.2,1.2,80,0.00,CLR,,0.00,0.0,WeatherDisplay:10.37,2013-12-24 23:08:00,
2013-12-25 00:09:00,44.0,38.2,30.15,ENE,67,1.2,1.2,80,0.00,CLR,,0.00,0.0,WeatherDisplay:10.37,2013-12-24 23:09:00,
2013-12-25 00:12:00,44.0,38.2,30.15,ENE,67,0.0,0.0,80,0.00,CLR,,0.00,0.0,WeatherDisplay:10.37,2013-12-24 23:12:00,
2013-12-25 00:13:00,44.1,38.3,30.15,ENE,67,0.0,0.0,80,0.00,CLR,,0.00,0.0,WeatherDisplay:10.37,2013-12-24 23:13:00,
2013-12-25 00:14:00,44.1,38.3,30.15,ENE,67,0.0,0.0,80,0.00,CLR,,0.00,0.0,WeatherDisplay:10.37,2013-12-24 23:14:00,
2013-12-25 00:17:00,44.1,38.3,30.15,ENE,67,0.0,0.0,80,0.00,CLR,,0.00,0.0,WeatherDisplay:10.37,2013-12-24 23:17:00,
2013-12-25 00:18:00,44.1,38.3,30.15,ENE,67,0.0,0.0,80,0.00,CLR,,0.00,0.0,WeatherDisplay:10.37,2013-12-24 23:18:00,
2013-12-25 00:19:00,44.1,38.3,30.15,ENE,67,0.0,0.0,80,0.00,CLR,,0.00,0.0,WeatherDisplay:10.37,2013-12-24 23:19:00,
2013-12-25 00:20:00,44.1,38.3,30.14,ENE,67,0.0,0.0,80,0.00,CLR,,0.00,0.0,WeatherDisplay:10.37,2013-12-24 23:20:00,
2013-12-25 00:22:00,44.1,38.3,30.14,ENE,67,0.0,0.0,80,0.00,CLR,,0.00,0.0,WeatherDisplay:10.37,2013-12-24 23:22:00,
2013-12-25 00:23:00,44.1,38.3,30.14,ENE,67,0.0,0.0,80,0.00,CLR,,0.00,0.0,WeatherDisplay:10.37,2013-12-24 23:23:00,
2013-12-25 00:24:00,44.1,38.3,30.14,ENE,67,0.0,0.0,80,0.00,CLR,,0.00,0.0,WeatherDisplay:10.37,2013-12-24 23:24:00,
2013-12-25 00:25:00,44.2,38.4,30.14,ENE,67,0.0,0.0,80,0.00,CLR,,0.00,0.0,WeatherDisplay:10.37,2013-12-24 23:25:00,
2013-12-25 00:26:00,44.1,38.3,30.14,ENE,67,0.0,0.0,80,0.00,CLR,,0.00,0.0,WeatherDisplay:10.37,2013-12-24 23:26:00,
2013-12-25 00:27:00,44.1,38.3,30.14,ENE,67,0.0,0.0,80,0.00,CLR,,0.00,0.0,WeatherDisplay:10.37,2013-12-24 23:27:00,
2013-12-25 00:29:00,44.1,38.0,30.14,ENE,67,0.0,0.0,79,0.00,CLR,,0.00,0.0,WeatherDisplay:10.37,2013-12-24 23:29:00,
2013-12-25 00:30:00,44.1,38.0,30.14,ENE,67,0.0,0.0,79,0.00,CLR,,0.00,0.0,WeatherDisplay:10.37,2013-12-24 23:30:00,
2013-12-25 00:31:00,44.1,38.0,30.14,ENE,67,0.0,0.0,79,0.00,CLR,,0.00,0.0,WeatherDisplay:10.37,2013-12-24 23:31:00,
2013-12-25 00:33:00,44.1,38.0,30.14,ENE,67,0.0,0.0,79,0.00,CLR,,0.00,0.0,WeatherDisplay:10.37,2013-12-24 23:33:00,
2013-12-25 00:34:00,44.1,38.0,30.14,ENE,67,0.0,0.0,79,0.00,CLR,,0.00,0.0,WeatherDisplay:10.37,2013-12-24 23:34:00,
2013-12-25 00:35:00,44.1,38.0,30.14,ENE,67,0.0,0.0,79,0.00,CLR,,0.00,0.0,WeatherDisplay:10.37,2013-12-24 23:35:00,
2013-12-25 00:36:00,44.1,38.0,30.14,ENE,67,0.0,0.0,79,0.00,CLR,,0.00,0.0,WeatherDisplay:10.37,2013-12-24 23:36:00,
2013-12-25 00:39:00,44.1,38.0,30.14,ENE,67,0.0,0.0,79,0.00,CLR,,0.00,0.0,WeatherDisplay:10.37,2013-12-24 23:39:00,
2013-12-25 00:40:00,44.0,37.9,30.14,ENE,67,0.0,0.0,79,0.00,CLR,,0.00,0.0,WeatherDisplay:10.37,2013-12-24 23:40:00,
2013-12-25 00:41:00,44.1,38.0,30.14,ENE,67,0.0,0.0,79,0.00,CLR,,0.00,0.0,WeatherDisplay:10.37,2013-12-24 23:41:00,
2013-12-25 00:44:00,44.1,38.3,30.14,ENE,67,2.3,2.3,80,0.00,CLR,,0.00,0.0,WeatherDisplay:10.37,2013-12-24 23:44:00,
2013-12-25 00:45:00,44.1,38.3,30.14,ENE,67,1.2,1.2,80,0.00,CLR,,0.00,0.0,WeatherDisplay:10.37,2013-12-24 23:45:00,
2013-12-25 00:46:00,44.1,38.0,30.14,ENE,67,0.0,0.0,79,0.00,CLR,,0.00,0.0,WeatherDisplay:10.37,2013-12-24 23:46:00,
2013-12-25 00:47:00,44.1,38.0,30.14,ENE,67,0.0,0.0,79,0.00,CLR,,0.00,0.0,WeatherDisplay:10.37,2013-12-24 23:47:00,
2013-12-25 00:50:00,44.0,37.9,30.14,ENE,67,0.0,0.0,79,0.00,CLR,,0.00,0.0,WeatherDisplay:10.37,2013-12-24 23:50:00,
2013-12-25 00:51:00,44.0,37.9,30.14,ENE,67,0.0,0.0,79,0.00,CLR,,0.00,0.0,WeatherDisplay:10.37,2013-12-24 23:51:00,
2013-12-25 00:52:00,44.0,37.9,30.14,ENE,67,0.0,0.0,79,0.00,CLR,,0.00,0.0,WeatherDisplay:10.37,2013-12-24 23:52:00,
2013-12-25 00:55:00,43.9,37.8,30.13,ENE,67,0.0,0.0,79,0.00,CLR,,0.00,0.0,WeatherDisplay:10.37,2013-12-24 23:55:00,
2013-12-25 00:56:00,43.9,37.8,30.13,ENE,67,0.0,0.0,79,0.00,CLR,,0.00,0.0,WeatherDisplay:10.37,2013-12-24 23:56:00,
2013-12-25 00:57:00,43.9,37.8,30.13,ENE,67,0.0,0.0,79,0.00,CLR,,0.00,0.0,WeatherDisplay:10.37,2013-12-24 23:57:00,
2013-12-25 00:58:00,43.9,37.8,30.13,ENE,67,0.0,0.0,79,0.00,CLR,,0.00,0.0,WeatherDisplay:10.37,2013-12-24 23:58:00,
2013-12-25 01:00:00,43.9,37.8,30.13,ENE,67,0.0,0.0,79,0.00,CLR,,0.00,0.0,WeatherDisplay:10.37,2013-12-25 00:00:00,
2013-12-25 01:02:00,43.8,37.7,30.13,ENE,67,0.0,0.0,79,0.00,CLR,,0.00,0.0,WeatherDisplay:10.37,2013-12-25 00:02:00,
2013-12-25 01:03:00,43.8,37.7,30.13,ENE,67,0.0,0.0,79,0.00,CLR,,0.00,0.0,WeatherDisplay:10.37,2013-12-25 00:03:00,
2013-12-25 01:05:00,43.7,37.6,30.13,ENE,67,0.0,0.0,79,0.00,CLR,,0.00,0.0,WeatherDisplay:10.37,2013-12-25 00:05:00,
2013-12-25 01:07:00,43.7,37.9,30.12,ENE,67,0.0,0.0,80,0.00,CLR,,0.00,0.0,WeatherDisplay:10.37,2013-12-25 00:07:00,
2013-12-25 01:08:00,43.7,37.9,30.12,ENE,67,0.0,0.0,80,0.00,CLR,,0.00,0.0,WeatherDisplay:10.37,2013-12-25 00:08:00,
2013-12-25 01:09:00,43.7,37.9,30.12,ENE,67,0.0,0.0,80,0.00,CLR,,0.00,0.0,WeatherDisplay:10.37,2013-12-25 00:09:00,
2013-12-25 01:10:00,43.7,37.9,30.13,ENE,67,0.0,0.0,80,0.00,CLR,,0.00,0.0,WeatherDisplay:10.37,2013-12-25 00:10:00,
2013-12-25 01:12:00,43.6,37.5,30.12,ENE,67,0.0,0.0,79,0.00,CLR,,0.00,0.0,WeatherDisplay:10.37,2013-12-25 00:12:00,
2013-12-25 01:13:00,43.6,37.5,30.12,ENE,67,0.0,0.0,79,0.00,CLR,,0.00,0.0,WeatherDisplay:10.37,2013-12-25 00:13:00,
2013-12-25 01:14:00,43.6,37.8,30.12,ENE,67,0.0,0.0,80,0.00,CLR,,0.00,0.0,WeatherDisplay:10.37,2013-12-25 00:14:00,
2013-12-25 01:15:00,43.6,37.8,30.12,ENE,67,0.0,0.0,80,0.00,CLR,,0.00,0.0,WeatherDisplay:10.37,2013-12-25 00:15:00,
2013-12-25 01:17:00,43.6,37.8,30.12,ENE,67,0.0,0.0,80,0.00,CLR,,0.00,0.0,WeatherDisplay:10.37,2013-12-25 00:17:00,
2013-12-25 01:18:00,43.6,37.8,30.12,ENE,67,0.0,0.0,80,0.00,CLR,,0.00,0.0,WeatherDisplay:10.37,2013-12-25 00:18:00,
2013-12-25 01:19:00,43.6,37.8,30.12,ENE,67,0.0,0.0,80,0.00,CLR,,0.00,0.0,WeatherDisplay:10.37,2013-12-25 00:19:00,
2013-12-25 01:21:00,43.6,37.8,30.12,ENE,67,1.2,1.2,80,0.00,CLR,,0.00,0.0,WeatherDisplay:10.37,2013-12-25 00:21:00,
2013-12-25 01:23:00,43.6,37.8,30.12,ENE,67,2.3,2.3,80,0.00,CLR,,0.00,0.0,WeatherDisplay:10.37,2013-12-25 00:23:00,
2013-12-25 01:24:00,43.6,37.8,30.12,ENE,67,2.3,2.3,80,0.00,CLR,,0.00,0.0,WeatherDisplay:10.37,2013-12-25 00:24:00,
2013-12-25 01:25:00,43.6,37.8,30.12,ENE,67,3.5,3.5,80,0.00,CLR,,0.00,0.0,WeatherDisplay:10.37,2013-12-25 00:25:00,
2013-12-25 01:26:00,43.6,37.8,30.12,ENE,73,3.5,3.5,80,0.00,CLR,,0.00,0.0,WeatherDisplay:10.37,2013-12-25 00:26:00,
2013-12-25 01:28:00,43.7,37.9,30.12,ENE,67,3.5,3.5,80,0.00,CLR,,0.00,0.0,WeatherDisplay:10.37,2013-12-25 00:28:00,
2013-12-25 01:29:00,43.7,37.9,30.12,ENE,66,3.5,3.5,80,0.00,CLR,,0.00,0.0,WeatherDisplay:10.37,2013-12-25 00:29:00,
2013-12-25 01:30:00,43.7,37.9,30.12,ENE,78,3.5,3.5,80,0.00,CLR,,0.00,0.0,WeatherDisplay:10.37,2013-12-25 00:30:00,
2013-12-25 01:32:00,43.7,37.9,30.12,ENE,69,3.5,3.5,80,0.00,CLR,,0.00,0.0,WeatherDisplay:10.37,2013-12-25 00:32:00,
2013-12-25 01:34:00,43.8,38.0,30.12,ENE,63,3.5,3.5,80,0.00,CLR,,0.00,0.0,WeatherDisplay:10.37,2013-12-25 00:34:00,
2013-12-25 01:35:00,43.8,38.0,30.12,ENE,63,3.5,3.5,80,0.00,CLR,,0.00,0.0,WeatherDisplay:10.37,2013-12-25 00:35:00,
2013-12-25 01:37:00,43.9,38.1,30.12,ENE,63,0.0,0.0,80,0.00,CLR,,0.00,0.0,WeatherDisplay:10.37,2013-12-25 00:37:00,
2013-12-25 01:38:00,43.9,38.1,30.12,ENE,63,0.0,0.0,80,0.00,CLR,,0.00,0.0,WeatherDisplay:10.37,2013-12-25 00:38:00,
2013-12-25 01:40:00,43.9,38.1,30.12,ENE,63,0.0,0.0,80,0.00,CLR,,0.00,0.0,WeatherDisplay:10.37,2013-12-25 00:40:00,
2013-12-25 01:42:00,43.9,38.1,30.12,ENE,63,0.0,0.0,80,0.00,CLR,,0.00,0.0,WeatherDisplay:10.37,2013-12-25 00:42:00,
2013-12-25 01:44:00,44.0,38.2,30.12,ENE,63,0.0,0.0,80,0.00,CLR,,0.00,0.0,WeatherDisplay:10.37,2013-12-25 00:44:00,
2013-12-25 01:45:00,44.0,38.2,30.12,ENE,63,0.0,0.0,80,0.00,CLR,,0.00,0.0,WeatherDisplay:10.37,2013-12-25 00:45:00,
2013-12-25 01:46:00,44.0,38.2,30.12,ENE,63,0.0,0.0,80,0.00,CLR,,0.00,0.0,WeatherDisplay:10.37,2013-12-25 00:46:00,
2013-12-25 01:47:00,44.0,38.2,30.12,ENE,63,0.0,0.0,80,0.00,CLR,,0.00,0.0,WeatherDisplay:10.37,2013-12-25 00:47:00,
2013-12-25 01:48:00,44.0,38.2,30.12,ENE,63,1.0,0.0,80,0.00,CLR,,0.00,0.0,WeatherDisplay:10.37,2013-12-25 00:48:00,
2013-12-25 01:49:00,44.0,38.2,30.12,ENE,63,2.3,2.3,80,0.00,CLR,,0.00,0.0,WeatherDisplay:10.37,2013-12-25 00:49:00,
2013-12-25 01:51:00,44.0,38.2,30.12,ENE,63,3.5,3.5,80,0.00,CLR,,0.00,0.0,WeatherDisplay:10.37,2013-12-25 00:51:00,
2013-12-25 01:52:00,44.0,38.2,30.12,ENE,63,3.5,3.5,80,0.00,CLR,,0.00,0.0,WeatherDisplay:10.37,2013-12-25 00:52:00,
2013-12-25 01:53:00,44.1,38.3,30.12,ENE,64,3.5,3.5,80,0.00,CLR,,0.00,0.0,WeatherDisplay:10.37,2013-12-25 00:53:00,
2013-12-25 01:54:00,44.1,38.3,30.12,ENE,64,3.5,3.5,80,0.00,CLR,,0.00,0.0,WeatherDisplay:10.37,2013-12-25 00:54:00,
2013-12-25 01:56:00,44.1,38.0,30.12,ENE,70,3.5,3.5,79,0.00,CLR,,0.00,0.0,WeatherDisplay:10.37,2013-12-25 00:56:00,
2013-12-25 01:57:00,44.2,38.1,30.12,ENE,70,3.5,3.5,79,0.00,CLR,,0.00,0.0,WeatherDisplay:10.37,2013-12-25 00:57:00,
2013-12-25 01:58:00,44.2,38.1,30.12,NE,52,3.5,3.5,79,0.00,CLR,,0.00,0.0,WeatherDisplay:10.37,2013-12-25 00:58:00,
2013-12-25 02:00:00,44.2,38.1,30.12,NE,52,0.0,0.0,79,0.00,CLR,,0.00,0.0,WeatherDisplay:10.37,2013-12-25 01:00:00,
2013-12-25 02:02:00,44.3,38.2,30.12,NE,52,0.0,0.0,79,0.00,CLR,,0.00,0.0,WeatherDisplay:10.37,2013-12-25 01:02:00,
2013-12-25 02:03:00,44.3,38.2,30.12,NE,53,0.0,0.0,79,0.00,CLR,,0.00,0.0,WeatherDisplay:10.37,2013-12-25 01:03:00,
2013-12-25 02:05:00,44.3,38.2,30.12,NE,53,0.0,0.0,79,0.00,CLR,,0.00,0.0,WeatherDisplay:10.37,2013-12-25 01:05:00,
2013-12-25 02:07:00,44.4,38.3,30.12,NE,52,0.0,0.0,79,0.00,CLR,,0.00,0.0,WeatherDisplay:10.37,2013-12-25 01:07:00,
2013-12-25 02:08:00,44.4,38.3,30.12,NE,52,0.0,0.0,79,0.00,CLR,,0.00,0.0,WeatherDisplay:10.37,2013-12-25 01:08:00,
2013-12-25 02:10:00,44.4,38.3,30.12,NE,53,0.0,0.0,79,0.00,CLR,,0.00,0.0,WeatherDisplay:10.37,2013-12-25 01:10:00,
2013-12-25 02:12:00,44.4,38.3,30.12,NE,52,0.0,0.0,79,0.00,CLR,,0.00,0.0,WeatherDisplay:10.37,2013-12-25 01:12:00,
2013-12-25 02:13:00,44.4,38.3,30.12,NE,52,0.0,0.0,79,0.00,CLR,,0.00,0.0,WeatherDisplay:10.37,2013-12-25 01:13:00,
2013-12-25 02:15:00,44.3,38.2,30.12,NE,52,0.0,0.0,79,0.00,CLR,,0.00,0.0,WeatherDisplay:10.37,2013-12-25 01:15:00,
2013-12-25 02:16:00,44.3,38.2,30.12,NE,52,0.0,0.0,79,0.00,CLR,,0.00,0.0,WeatherDisplay:10.37,2013-12-25 01:16:00,
2013-12-25 02:17:00,44.3,38.2,30.12,NE,52,0.0,0.0,79,0.00,CLR,,0.00,0.0,WeatherDisplay:10.37,2013-12-25 01:17:00,
2013-12-25 02:18:00,44.2,38.1,30.12,NE,52,0.0,0.0,79,0.00,CLR,,0.00,0.0,WeatherDisplay:10.37,2013-12-25 01:18:00,
2013-12-25 02:21:00,44.1,38.0,30.12,NE,52,0.0,0.0,79,0.00,CLR,,0.00,0.0,WeatherDisplay:10.37,2013-12-25 01:21:00,
2013-12-25 02:22:00,44.0,37.6,30.12,NE,52,0.0,0.0,78,0.00,CLR,,0.00,0.0,WeatherDisplay:10.37,2013-12-25 01:22:00,
2013-12-25 02:23:00,43.8,37.4,30.12,NE,52,0.0,0.0,78,0.00,CLR,,0.00,0.0,WeatherDisplay:10.37,2013-12-25 01:23:00,
2013-12-25 02:24:00,43.8,37.4,30.12,NE,52,0.0,0.0,78,0.00,CLR,,0.00,0.0,WeatherDisplay:10.37,2013-12-25 01:24:00,
2013-12-25 02:26:00,43.6,37.2,30.12,NE,52,0.0,0.0,78,0.00,CLR,,0.00,0.0,WeatherDisplay:10.37,2013-12-25 01:26:00,
2013-12-25 02:28:00,43.5,37.1,30.12,NE,52,0.0,0.0,78,0.00,CLR,,0.00,0.0,WeatherDisplay:10.37,2013-12-25 01:28:00,
2013-12-25 02:29:00,43.5,37.1,30.12,NE,52,0.0,0.0,78,0.00,CLR,,0.00,0.0,WeatherDisplay:10.37,2013-12-25 01:29:00,
2013-12-25 02:31:00,43.4,37.0,30.12,NE,52,0.0,0.0,78,0.00,CLR,,0.00,0.0,WeatherDisplay:10.37,2013-12-25 01:31:00,
2013-12-25 02:32:00,43.4,37.3,30.12,NE,52,0.0,0.0,79,0.00,CLR,,0.00,0.0,WeatherDisplay:10.37,2013-12-25 01:32:00,
2013-12-25 02:33:00,43.4,37.3,30.12,NE,52,0.0,0.0,79,0.00,CLR,,0.00,0.0,WeatherDisplay:10.37,2013-12-25 01:33:00,
2013-12-25 02:34:00,43.4,37.3,30.12,NE,52,0.0,0.0,79,0.00,CLR,,0.00,0.0,WeatherDisplay:10.37,2013-12-25 01:34:00,
2013-12-25 02:37:00,43.3,37.2,30.12,NE,52,0.0,0.0,79,0.00,CLR,,0.00,0.0,WeatherDisplay:10.37,2013-12-25 01:37:00,
2013-12-25 02:38:00,43.3,37.2,30.11,NE,52,0.0,0.0,79,0.00,CLR,,0.00,0.0,WeatherDisplay:10.37,2013-12-25 01:38:00,
2013-12-25 02:39:00,43.2,37.1,30.11,NE,52,0.0,0.0,79,0.00,CLR,,0.00,0.0,WeatherDisplay:10.37,2013-12-25 01:39:00,
2013-12-25 02:40:00,43.2,37.1,30.12,NE,52,0.0,0.0,79,0.00,CLR,,0.00,0.0,WeatherDisplay:10.37,2013-12-25 01:40:00,
2013-12-25 02:42:00,43.1,36.7,30.11,NE,52,0.0,0.0,78,0.00,CLR,,0.00,0.0,WeatherDisplay:10.37,2013-12-25 01:42:00,
2013-12-25 02:43:00,43.0,36.6,30.11,NE,52,0.0,0.0,78,0.00,CLR,,0.00,0.0,WeatherDisplay:10.37,2013-12-25 01:43:00,
2013-12-25 02:44:00,43.0,36.6,30.11,NE,52,0.0,0.0,78,0.00,CLR,,0.00,0.0,WeatherDisplay:10.37,2013-12-25 01:44:00,
2013-12-25 02:45:00,43.0,36.6,30.11,NE,52,0.0,0.0,78,0.00,CLR,,0.00,0.0,WeatherDisplay:10.37,2013-12-25 01:45:00,
2013-12-25 02:48:00,42.8,36.4,30.11,NE,52,0.0,0.0,78,0.00,CLR,,0.00,0.0,WeatherDisplay:10.37,2013-12-25 01:48:00,
2013-12-25 02:49:00,42.8,36.4,30.11,NE,52,0.0,0.0,78,0.00,CLR,,0.00,0.0,WeatherDisplay:10.37,2013-12-25 01:49:00,
2013-12-25 02:50:00,42.8,36.7,30.11,NE,52,0.0,0.0,79,0.00,CLR,,0.00,0.0,WeatherDisplay:10.37,2013-12-25 01:50:00,
2013-12-25 02:51:00,42.7,36.6,30.11,NE,52,0.0,0.0,79,0.00,CLR,,0.00,0.0,WeatherDisplay:10.37,2013-12-25 01:51:00,
2013-12-25 02:54:00,42.6,36.5,30.11,NE,52,0.0,0.0,79,0.00,CLR,,0.00,0.0,WeatherDisplay:10.37,2013-12-25 01:54:00,
2013-12-25 02:55:00,42.6,36.5,30.11,NE,52,0.0,0.0,79,0.00,CLR,,0.00,0.0,WeatherDisplay:10.37,2013-12-25 01:55:00,
2013-12-25 02:56:00,42.5,36.4,30.11,NE,52,0.0,0.0,79,0.00,CLR,,0.00,0.0,WeatherDisplay:10.37,2013-12-25 01:56:00,
2013-12-25 02:59:00,42.4,36.3,30.11,NE,52,0.0,0.0,79,0.00,CLR,,0.00,0.0,WeatherDisplay:10.37,2013-12-25 01:59:00,
2013-12-25 03:00:00,42.4,36.3,30.11,NE,52,0.0,0.0,79,0.00,CLR,,0.00,0.0,WeatherDisplay:10.37,2013-12-25 02:00:00,
2013-12-25 03:01:00,42.4,36.3,30.11,NE,52,0.0,0.0,79,0.00,CLR,,0.00,0.0,WeatherDisplay:10.37,2013-12-25 02:01:00,
2013-12-25 03:02:00,42.4,36.7,30.11,NE,52,0.0,0.0,80,0.00,CLR,,0.00,0.0,WeatherDisplay:10.37,2013-12-25 02:02:00,
2013-12-25 03:05:00,42.4,36.7,30.11,NE,52,0.0,0.0,80,0.00,CLR,,0.00,0.0,WeatherDisplay:10.37,2013-12-25 02:05:00,
2013-12-25 03:06:00,42.4,36.7,30.11,NE,52,0.0,0.0,80,0.00,CLR,,0.00,0.0,WeatherDisplay:10.37,2013-12-25 02:06:00,
2013-12-25 03:07:00,42.4,36.7,30.11,NE,52,0.0,0.0,80,0.00,CLR,,0.00,0.0,WeatherDisplay:10.37,2013-12-25 02:07:00,
2013-12-25 03:10:00,42.4,36.7,30.11,NE,52,0.0,0.0,80,0.00,CLR,,0.00,0.0,WeatherDisplay:10.37,2013-12-25 02:10:00,
2013-12-25 03:11:00,42.4,36.7,30.11,NE,52,0.0,0.0,80,0.00,CLR,,0.00,0.0,WeatherDisplay:10.37,2013-12-25 02:11:00,
2013-12-25 03:12:00,42.4,36.7,30.11,NE,52,0.0,0.0,80,0.00,CLR,,0.00,0.0,WeatherDisplay:10.37,2013-12-25 02:12:00,
2013-12-25 03:15:00,42.5,37.1,30.11,NE,52,0.0,0.0,81,0.00,CLR,,0.00,0.0,WeatherDisplay:10.37,2013-12-25 02:15:00,
2013-12-25 03:16:00,42.5,37.1,30.11,NE,52,0.0,0.0,81,0.00,CLR,,0.00,0.0,WeatherDisplay:10.37,2013-12-25 02:16:00,
2013-12-25 03:17:00,42.5,37.1,30.11,NE,52,0.0,0.0,81,0.00,CLR,,0.00,0.0,WeatherDisplay:10.37,2013-12-25 02:17:00,
2013-12-25 03:18:00,42.5,37.1,30.11,NE,52,0.0,0.0,81,0.00,CLR,,0.00,0.0,WeatherDisplay:10.37,2013-12-25 02:18:00,
2013-12-25 03:21:00,42.6,37.2,30.11,NE,52,0.0,0.0,81,0.00,CLR,,0.00,0.0,WeatherDisplay:10.37,2013-12-25 02:21:00,
2013-12-25 03:22:00,42.6,37.2,30.11,NE,52,0.0,0.0,81,0.00,CLR,,0.00,0.0,WeatherDisplay:10.37,2013-12-25 02:22:00,
2013-12-25 03:23:00,42.6,37.2,30.11,NE,52,0.0,0.0,81,0.00,CLR,,0.00,0.0,WeatherDisplay:10.37,2013-12-25 02:23:00,
2013-12-25 03:27:00,42.6,37.2,30.11,NE,52,0.0,0.0,81,0.00,CLR,,0.00,0.0,WeatherDisplay:10.37,2013-12-25 02:27:00,
2013-12-25 03:28:00,42.6,37.2,30.10,NE,52,0.0,0.0,81,0.00,CLR,,0.00,0.0,WeatherDisplay:10.37,2013-12-25 02:28:00,
2013-12-25 03:29:00,42.6,37.2,30.11,NE,52,0.0,0.0,81,0.00,CLR,,0.00,0.0,WeatherDisplay:10.37,2013-12-25 02:29:00,
2013-12-25 03:32:00,42.6,37.2,30.10,NE,52,0.0,0.0,81,0.00,CLR,,0.00,0.0,WeatherDisplay:10.37,2013-12-25 02:32:00,
2013-12-25 03:33:00,42.6,37.2,30.11,NE,52,0.0,0.0,81,0.00,CLR,,0.00,0.0,WeatherDisplay:10.37,2013-12-25 02:33:00,
2013-12-25 03:34:00,42.6,37.2,30.10,NE,52,0.0,0.0,81,0.00,CLR,,0.00,0.0,WeatherDisplay:10.37,2013-12-25 02:34:00,
2013-12-25 03:35:00,42.6,37.2,30.10,NE,52,0.0,0.0,81,0.00,CLR,,0.00,0.0,WeatherDisplay:10.37,2013-12-25 02:35:00,
2013-12-25 03:37:00,42.5,37.1,30.10,NE,52,0.0,0.0,81,0.00,CLR,,0.00,0.0,WeatherDisplay:10.37,2013-12-25 02:37:00,
2013-12-25 03:39:00,42.5,37.1,30.10,NE,52,0.0,0.0,81,0.00,CLR,,0.00,0.0,WeatherDisplay:10.37,2013-12-25 02:39:00,
2013-12-25 03:40:00,42.4,37.0,30.10,NE,52,0.0,0.0,81,0.00,CLR,,0.00,0.0,WeatherDisplay:10.37,2013-12-25 02:40:00,
2013-12-25 03:42:00,42.4,37.0,30.10,NE,52,0.0,0.0,81,0.00,CLR,,0.00,0.0,WeatherDisplay:10.37,2013-12-25 02:42:00,
2013-12-25 03:43:00,42.4,37.0,30.09,NE,52,0.0,0.0,81,0.00,CLR,,0.00,0.0,WeatherDisplay:10.37,2013-12-25 02:43:00,
2013-12-25 03:44:00,42.4,37.0,30.10,NE,52,0.0,0.0,81,0.00,CLR,,0.00,0.0,WeatherDisplay:10.37,2013-12-25 02:44:00,
2013-12-25 03:45:00,42.4,37.0,30.09,NE,52,0.0,0.0,81,0.00,CLR,,0.00,0.0,WeatherDisplay:10.37,2013-12-25 02:45:00,
2013-12-25 03:47:00,42.4,37.3,30.10,NE,52,2.3,2.3,82,0.00,CLR,,0.00,0.0,WeatherDisplay:10.37,2013-12-25 02:47:00,
2013-12-25 03:48:00,42.4,37.3,30.09,NE,52,2.3,2.3,82,0.00,CLR,,0.00,0.0,WeatherDisplay:10.37,2013-12-25 02:48:00,
2013-12-25 03:49:00,42.4,37.3,30.09,NE,52,2.3,2.3,82,0.00,CLR,,0.00,0.0,WeatherDisplay:10.37,2013-12-25 02:49:00,
2013-12-25 03:50:00,42.4,37.3,30.09,NE,52,0.0,0.0,82,0.00,CLR,,0.00,0.0,WeatherDisplay:10.37,2013-12-25 02:50:00,
2013-12-25 03:52:00,42.4,37.3,30.09,NE,52,0.0,0.0,82,0.00,CLR,,0.00,0.0,WeatherDisplay:10.37,2013-12-25 02:52:00,
2013-12-25 03:54:00,42.4,37.3,30.09,NE,52,0.0,0.0,82,0.00,CLR,,0.00,0.0,WeatherDisplay:10.37,2013-12-25 02:54:00,
2013-12-25 03:55:00,42.4,37.3,30.09,NE,52,0.0,0.0,82,0.00,CLR,,0.00,0.0,WeatherDisplay:10.37,2013-12-25 02:55:00,
2013-12-25 03:57:00,42.5,37.4,30.09,NE,52,0.0,0.0,82,0.00,CLR,,0.00,0.0,WeatherDisplay:10.37,2013-12-25 02:57:00,
2013-12-25 03:58:00,42.5,37.4,30.09,NE,52,0.0,0.0,82,0.00,CLR,,0.00,0.0,WeatherDisplay:10.37,2013-12-25 02:58:00,
2013-12-25 03:59:00,42.5,37.4,30.09,NE,52,0.0,0.0,82,0.00,CLR,,0.00,0.0,WeatherDisplay:10.37,2013-12-25 02:59:00,
2013-12-25 04:00:00,42.6,37.5,30.09,NE,52,0.0,0.0,82,0.00,CLR,,0.00,0.0,WeatherDisplay:10.37,2013-12-25 03:00:00,
2013-12-25 04:01:00,42.6,37.5,30.09,NE,52,0.0,0.0,82,0.00,CLR,,0.00,0.0,WeatherDisplay:10.37,2013-12-25 03:01:00,
2013-12-25 04:03:00,42.6,37.5,30.09,East,82,1.2,1.2,82,0.00,CLR,,0.00,0.0,WeatherDisplay:10.37,2013-12-25 03:03:00,
2013-12-25 04:05:00,42.7,37.6,30.09,East,82,0.0,0.0,82,0.00,CLR,,0.00,0.0,WeatherDisplay:10.37,2013-12-25 03:05:00,
2013-12-25 04:06:00,42.8,37.7,30.09,East,82,0.0,0.0,82,0.00,CLR,,0.00,0.0,WeatherDisplay:10.37,2013-12-25 03:06:00,
2013-12-25 04:08:00,42.8,37.7,30.09,East,82,0.0,0.0,82,0.00,CLR,,0.00,0.0,WeatherDisplay:10.37,2013-12-25 03:08:00,
2013-12-25 04:10:00,42.9,37.8,30.09,East,82,0.0,0.0,82,0.00,CLR,,0.00,0.0,WeatherDisplay:10.37,2013-12-25 03:10:00,
2013-12-25 04:11:00,42.9,37.8,30.09,East,82,0.0,0.0,82,0.00,CLR,,0.00,0.0,WeatherDisplay:10.37,2013-12-25 03:11:00,
2013-12-25 04:13:00,43.0,37.9,30.08,East,82,0.0,0.0,82,0.00,CLR,,0.00,0.0,WeatherDisplay:10.37,2013-12-25 03:13:00,
2013-12-25 04:14:00,43.0,37.9,30.08,East,82,0.0,0.0,82,0.00,CLR,,0.00,0.0,WeatherDisplay:10.37,2013-12-25 03:14:00,
2013-12-25 04:15:00,43.1,38.0,30.09,ENE,64,0.0,0.0,82,0.00,CLR,,0.00,0.0,WeatherDisplay:10.37,2013-12-25 03:15:00,
2013-12-25 04:16:00,43.1,38.0,30.08,ENE,64,0.0,0.0,82,0.00,CLR,,0.00,0.0,WeatherDisplay:10.37,2013-12-25 03:16:00,
2013-12-25 04:18:00,43.1,38.0,30.09,ENE,64,0.0,0.0,82,0.00,CLR,,0.00,0.0,WeatherDisplay:10.37,2013-12-25 03:18:00,
2013-12-25 04:19:00,43.1,38.0,30.09,ENE,64,0.0,0.0,82,0.00,CLR,,0.00,0.0,WeatherDisplay:10.37,2013-12-25 03:19:00,
2013-12-25 04:20:00,43.1,38.0,30.09,ENE,64,0.0,0.0,82,0.00,CLR,,0.00,0.0,WeatherDisplay:10.37,2013-12-25 03:20:00,
2013-12-25 04:22:00,43.1,38.0,30.08,ENE,64,0.0,0.0,82,0.00,CLR,,0.00,0.0,WeatherDisplay:10.37,2013-12-25 03:22:00,
2013-12-25 04:24:00,43.2,38.1,30.08,ENE,64,2.0,2.0,82,0.00,CLR,,0.00,0.0,WeatherDisplay:10.37,2013-12-25 03:24:00,
2013-12-25 04:25:00,43.2,38.1,30.08,ENE,69,2.3,2.3,82,0.00,CLR,,0.00,0.0,WeatherDisplay:10.37,2013-12-25 03:25:00,
2013-12-25 04:27:00,43.3,38.2,30.08,East,82,3.0,3.0,82,0.00,CLR,,0.00,0.0,WeatherDisplay:10.37,2013-12-25 03:27:00,
2013-12-25 04:28:00,43.3,38.2,30.08,East,82,3.5,3.5,82,0.00,CLR,,0.00,0.0,WeatherDisplay:10.37,2013-12-25 03:28:00,
2013-12-25 04:29:00,43.3,38.2,30.08,East,82,3.5,3.5,82,0.00,CLR,,0.00,0.0,WeatherDisplay:10.37,2013-12-25 03:29:00,
2013-12-25 04:30:00,43.3,38.2,30.08,East,82,3.5,3.5,82,0.00,CLR,,0.00,0.0,WeatherDisplay:10.37,2013-12-25 03:30:00,
2013-12-25 04:31:00,43.4,38.3,30.08,East,82,2.3,2.3,82,0.00,CLR,,0.00,0.0,WeatherDisplay:10.37,2013-12-25 03:31:00,
2013-12-25 04:32:00,43.4,38.3,30.08,East,82,3.5,3.5,82,0.00,CLR,,0.00,0.0,WeatherDisplay:10.37,2013-12-25 03:32:00,
2013-12-25 04:33:00,43.5,38.4,30.08,East,89,2.3,2.3,82,0.00,CLR,,0.00,0.0,WeatherDisplay:10.37,2013-12-25 03:33:00,
2013-12-25 04:34:00,43.5,38.4,30.08,East,89,3.5,3.5,82,0.00,CLR,,0.00,0.0,WeatherDisplay:10.37,2013-12-25 03:34:00,
2013-12-25 04:36:00,43.6,38.5,30.08,East,81,3.5,3.5,82,0.00,CLR,,0.00,0.0,WeatherDisplay:10.37,2013-12-25 03:36:00,
2013-12-25 04:37:00,43.6,38.5,30.08,East,81,2.3,0.0,82,0.00,CLR,,0.00,0.0,WeatherDisplay:10.37,2013-12-25 03:37:00,
2013-12-25 04:39:00,43.7,38.6,30.08,East,81,0.0,0.0,82,0.00,CLR,,0.00,0.0,WeatherDisplay:10.37,2013-12-25 03:39:00,
2013-12-25 04:41:00,43.7,38.6,30.08,East,96,0.0,0.0,82,0.00,CLR,,0.00,0.0,WeatherDisplay:10.37,2013-12-25 03:41:00,
2013-12-25 04:42:00,43.7,38.6,30.08,East,97,0.0,0.0,82,0.00,CLR,,0.00,0.0,WeatherDisplay:10.37,2013-12-25 03:42:00,
2013-12-25 04:44:00,43.7,38.6,30.08,ESE,117,3.5,3.5,82,0.00,CLR,,0.00,0.0,WeatherDisplay:10.37,2013-12-25 03:44:00,
2013-12-25 04:45:00,43.7,38.6,30.08,ESE,112,3.5,3.5,82,0.00,CLR,,0.00,0.0,WeatherDisplay:10.37,2013-12-25 03:45:00,
2013-12-25 04:47:00,43.8,38.7,30.07,East,94,3.5,3.5,82,0.00,CLR,,0.00,0.0,WeatherDisplay:10.37,2013-12-25 03:47:00,
2013-12-25 04:48:00,43.8,38.7,30.07,East,81,3.5,3.5,82,0.00,CLR,,0.00,0.0,WeatherDisplay:10.37,2013-12-25 03:48:00,
2013-12-25 04:49:00,43.8,38.7,30.07,East,90,3.5,3.5,82,0.00,CLR,,0.00,0.0,WeatherDisplay:10.37,2013-12-25 03:49:00,
2013-12-25 04:50:00,43.8,38.7,30.07,East,89,3.5,3.5,82,0.00,CLR,,0.00,0.0,WeatherDisplay:10.37,2013-12-25 03:50:00,
2013-12-25 04:52:00,43.9,38.8,30.07,East,82,3.5,3.5,82,0.00,CLR,,0.00,0.0,WeatherDisplay:10.37,2013-12-25 03:52:00,
2013-12-25 04:53:00,43.9,38.8,30.07,East,86,3.5,3.5,82,0.00,CLR,,0.00,0.0,WeatherDisplay:10.37,2013-12-25 03:53:00,
2013-12-25 04:54:00,43.9,38.8,30.08,East,98,3.5,3.5,82,0.00,CLR,,0.00,0.0,WeatherDisplay:10.37,2013-12-25 03:54:00,
2013-12-25 04:56:00,44.0,38.9,30.07,East,96,0.0,0.0,82,0.00,CLR,,0.00,0.0,WeatherDisplay:10.37,2013-12-25 03:56:00,
2013-12-25 04:57:00,44.0,38.9,30.07,East,81,2.3,2.3,82,0.00,CLR,,0.00,0.0,WeatherDisplay:10.37,2013-12-25 03:57:00,
2013-12-25 04:58:00,44.1,39.0,30.07,East,82,3.5,3.5,82,0.00,CLR,,0.00,0.0,WeatherDisplay:10.37,2013-12-25 03:58:00,
2013-12-25 04:59:00,44.1,39.0,30.07,East,82,3.5,3.5,82,0.00,CLR,,0.00,0.0,WeatherDisplay:10.37,2013-12-25 03:59:00,
2013-12-25 05:01:00,44.1,39.0,30.08,East,81,0.0,0.0,82,0.00,CLR,,0.00,0.0,WeatherDisplay:10.37,2013-12-25 04:01:00,
2013-12-25 05:03:00,44.2,39.1,30.08,NE,53,0.0,0.0,82,0.00,CLR,,0.00,0.0,WeatherDisplay:10.37,2013-12-25 04:03:00,
2013-12-25 05:04:00,44.2,39.1,30.08,NE,53,0.0,0.0,82,0.00,CLR,,0.00,0.0,WeatherDisplay:10.37,2013-12-25 04:04:00,
2013-12-25 05:07:00,44.1,39.0,30.08,NE,35,2.3,2.3,82,0.00,CLR,,0.00,0.0,WeatherDisplay:10.37,2013-12-25 04:07:00,
2013-12-25 05:08:00,44.1,38.6,30.08,NE,35,2.3,0.0,81,0.00,CLR,,0.00,0.0,WeatherDisplay:10.37,2013-12-25 04:08:00,
2013-12-25 05:09:00,44.1,38.6,30.08,NE,35,0.0,0.0,81,0.00,CLR,,0.00,0.0,WeatherDisplay:10.37,2013-12-25 04:09:00,
2013-12-25 05:10:00,44.1,38.6,30.08,NE,35,0.0,0.0,81,0.00,CLR,,0.00,0.0,WeatherDisplay:10.37,2013-12-25 04:10:00,
2013-12-25 05:12:00,44.0,38.5,30.08,NE,35,0.0,0.0,81,0.00,CLR,,0.00,0.0,WeatherDisplay:10.37,2013-12-25 04:12:00,
2013-12-25 05:14:00,44.0,38.5,30.08,NE,35,0.0,0.0,81,0.00,CLR,,0.00,0.0,WeatherDisplay:10.37,2013-12-25 04:14:00,
2013-12-25 05:15:00,43.9,38.4,30.08,NE,35,0.0,0.0,81,0.00,CLR,,0.00,0.0,WeatherDisplay:10.37,2013-12-25 04:15:00,
2013-12-25 05:16:00,43.9,38.4,30.08,NE,35,0.0,0.0,81,0.00,CLR,,0.00,0.0,WeatherDisplay:10.37,2013-12-25 04:16:00,
2013-12-25 05:17:00,43.8,38.3,30.08,NE,35,0.0,0.0,81,0.00,CLR,,0.00,0.0,WeatherDisplay:10.37,2013-12-25 04:17:00,
2013-12-25 05:18:00,43.7,38.3,30.08,NE,35,0.0,0.0,81,0.00,CLR,,0.00,0.0,WeatherDisplay:10.37,2013-12-25 04:18:00,
2013-12-25 05:19:00,43.7,38.3,30.08,NE,35,0.0,0.0,81,0.00,CLR,,0.00,0.0,WeatherDisplay:10.37,2013-12-25 04:19:00,
2013-12-25 05:20:00,43.7,38.3,30.07,NE,36,0.0,0.0,81,0.00,CLR,,0.00,0.0,WeatherDisplay:10.37,2013-12-25 04:20:00,
2013-12-25 05:22:00,43.7,38.3,30.08,NE,52,3.5,3.5,81,0.00,CLR,,0.00,0.0,WeatherDisplay:10.37,2013-12-25 04:22:00,
2013-12-25 05:23:00,43.7,38.3,30.08,NE,55,3.5,3.5,81,0.00,CLR,,0.00,0.0,WeatherDisplay:10.37,2013-12-25 04:23:00,
2013-12-25 05:24:00,43.7,38.3,30.08,ENE,59,3.5,3.5,81,0.00,CLR,,0.00,0.0,WeatherDisplay:10.37,2013-12-25 04:24:00,
2013-12-25 05:25:00,43.8,38.3,30.08,ENE,58,2.3,2.3,81,0.00,CLR,,0.00,0.0,WeatherDisplay:10.37,2013-12-25 04:25:00,
2013-12-25 05:28:00,43.9,38.8,30.07,ENE,65,0.0,0.0,82,0.00,CLR,,0.00,0.0,WeatherDisplay:10.37,2013-12-25 04:28:00,
2013-12-25 05:29:00,44.0,38.9,30.07,ENE,65,1.0,0.0,82,0.00,CLR,,0.00,0.0,WeatherDisplay:10.37,2013-12-25 04:29:00,
2013-12-25 05:30:00,44.0,38.9,30.07,NE,47,2.3,0.0,82,0.00,CLR,,0.00,0.0,WeatherDisplay:10.37,2013-12-25 04:30:00,
2013-12-25 05:31:00,44.1,39.0,30.07,NE,47,0.0,0.0,82,0.00,CLR,,0.00,0.0,WeatherDisplay:10.37,2013-12-25 04:31:00,
2013-12-25 05:33:00,44.2,39.1,30.07,NE,47,0.0,0.0,82,0.00,CLR,,0.00,0.0,WeatherDisplay:10.37,2013-12-25 04:33:00,
2013-12-25 05:34:00,44.2,39.1,30.07,NE,47,0.0,0.0,82,0.00,CLR,,0.00,0.0,WeatherDisplay:10.37,2013-12-25 04:34:00,
2013-12-25 05:35:00,44.3,39.2,30.07,NE,48,0.0,0.0,82,0.00,CLR,,0.00,0.0,WeatherDisplay:10.37,2013-12-25 04:35:00,
2013-12-25 05:36:00,44.3,39.2,30.07,NE,51,2.3,2.3,82,0.00,CLR,,0.00,0.0,WeatherDisplay:10.37,2013-12-25 04:36:00,
2013-12-25 05:38:00,44.6,39.4,30.07,NE,51,0.0,0.0,82,0.00,CLR,,0.00,0.0,WeatherDisplay:10.37,2013-12-25 04:38:00,
2013-12-25 05:39:00,44.6,39.4,30.07,NE,55,0.0,0.0,82,0.00,CLR,,0.00,0.0,WeatherDisplay:10.37,2013-12-25 04:39:00,
2013-12-25 05:40:00,44.7,39.5,30.07,NE,55,0.0,0.0,82,0.00,CLR,,0.00,0.0,WeatherDisplay:10.37,2013-12-25 04:40:00,
2013-12-25 05:41:00,44.9,39.7,30.07,East,87,2.0,2.0,82,0.00,CLR,,0.00,0.0,WeatherDisplay:10.37,2013-12-25 04:41:00,
2013-12-25 05:44:00,45.0,39.8,30.07,East,87,3.5,3.5,82,0.00,CLR,,0.00,0.0,WeatherDisplay:10.37,2013-12-25 04:44:00,
2013-12-25 05:45:00,45.0,39.8,30.07,East,87,2.3,2.3,82,0.00,CLR,,0.00,0.0,WeatherDisplay:10.37,2013-12-25 04:45:00,
2013-12-25 05:46:00,45.1,39.9,30.07,East,87,2.3,2.3,82,0.00,CLR,,0.00,0.0,WeatherDisplay:10.37,2013-12-25 04:46:00,
2013-12-25 05:49:00,45.2,40.0,30.07,East,87,0.0,0.0,82,0.00,CLR,,0.00,0.0,WeatherDisplay:10.37,2013-12-25 04:49:00,
2013-12-25 05:50:00,45.2,40.0,30.07,East,87,0.0,0.0,82,0.00,CLR,,0.00,0.0,WeatherDisplay:10.37,2013-12-25 04:50:00,
2013-12-25 05:51:00,45.3,40.1,30.07,East,87,0.0,0.0,82,0.00,CLR,,0.00,0.0,WeatherDisplay:10.37,2013-12-25 04:51:00,
2013-12-25 05:54:00,45.3,40.1,30.07,East,87,0.0,0.0,82,0.00,CLR,,0.00,0.0,WeatherDisplay:10.37,2013-12-25 04:54:00,
2013-12-25 05:55:00,45.3,40.1,30.07,East,87,0.0,0.0,82,0.00,CLR,,0.00,0.0,WeatherDisplay:10.37,2013-12-25 04:55:00,
2013-12-25 05:56:00,45.3,39.8,30.07,East,87,0.0,0.0,81,0.00,CLR,,0.00,0.0,WeatherDisplay:10.37,2013-12-25 04:56:00,
2013-12-25 05:57:00,45.4,40.2,30.07,East,87,0.0,0.0,82,0.00,CLR,,0.00,0.0,WeatherDisplay:10.37,2013-12-25 04:57:00,
2013-12-25 06:00:00,45.4,39.9,30.07,East,87,0.0,0.0,81,0.00,CLR,,0.00,0.0,WeatherDisplay:10.37,2013-12-25 05:00:00,
2013-12-25 06:01:00,45.4,39.9,30.07,East,87,0.0,0.0,81,0.00,CLR,,0.00,0.0,WeatherDisplay:10.37,2013-12-25 05:01:00,
2013-12-25 06:03:00,45.5,40.0,30.07,East,87,0.0,0.0,81,0.00,CLR,,0.00,0.0,WeatherDisplay:10.37,2013-12-25 05:03:00,
2013-12-25 06:06:00,45.5,40.0,30.07,East,87,0.0,0.0,81,0.00,CLR,,0.00,0.0,WeatherDisplay:10.37,2013-12-25 05:06:00,
2013-12-25 06:08:00,45.5,40.0,30.07,East,87,0.0,0.0,81,0.00,CLR,,0.00,0.0,WeatherDisplay:10.37,2013-12-25 05:08:00,
2013-12-25 06:10:00,45.5,40.0,30.07,East,87,0.0,0.0,81,0.00,CLR,,0.00,0.0,WeatherDisplay:10.37,2013-12-25 05:10:00,
2013-12-25 06:11:00,45.5,40.0,30.07,East,87,0.0,0.0,81,0.00,CLR,,0.00,0.0,WeatherDisplay:10.37,2013-12-25 05:11:00,
2013-12-25 06:12:00,45.5,40.0,30.07,East,87,0.0,0.0,81,0.00,CLR,,0.00,0.0,WeatherDisplay:10.37,2013-12-25 05:12:00,
2013-12-25 06:14:00,45.6,40.1,30.07,East,87,0.0,0.0,81,0.00,CLR,,0.00,0.0,WeatherDisplay:10.37,2013-12-25 05:14:00,
2013-12-25 06:16:00,45.6,40.1,30.07,East,87,2.0,2.0,81,0.00,CLR,,0.00,0.0,WeatherDisplay:10.37,2013-12-25 05:16:00,
2013-12-25 06:17:00,45.6,40.1,30.07,East,87,2.3,2.3,81,0.00,CLR,,0.00,0.0,WeatherDisplay:10.37,2013-12-25 05:17:00,
2013-12-25 06:18:00,45.6,40.1,30.07,East,87,2.3,2.3,81,0.00,CLR,,0.00,0.0,WeatherDisplay:10.37,2013-12-25 05:18:00,
2013-12-25 06:20:00,45.7,40.2,30.07,East,87,0.0,0.0,81,0.00,CLR,,0.00,0.0,WeatherDisplay:10.37,2013-12-25 05:20:00,
2013-12-25 06:21:00,45.7,40.2,30.07,East,87,0.0,0.0,81,0.00,CLR,,0.00,0.0,WeatherDisplay:10.37,2013-12-25 05:21:00,
2013-12-25 06:22:00,45.7,40.2,30.07,East,87,0.0,0.0,81,0.00,CLR,,0.00,0.0,WeatherDisplay:10.37,2013-12-25 05:22:00,
2013-12-25 06:23:00,45.8,40.3,30.07,East,87,0.0,0.0,81,0.00,CLR,,0.00,0.0,WeatherDisplay:10.37,2013-12-25 05:23:00,
2013-12-25 06:24:00,45.8,40.3,30.07,East,87,0.0,0.0,81,0.00,CLR,,0.00,0.0,WeatherDisplay:10.37,2013-12-25 05:24:00,
2013-12-25 06:25:00,45.8,40.3,30.07,East,87,0.0,0.0,81,0.00,CLR,,0.00,0.0,WeatherDisplay:10.37,2013-12-25 05:25:00,
2013-12-25 06:26:00,45.8,40.3,30.07,East,87,0.0,0.0,81,0.00,CLR,,0.00,0.0,WeatherDisplay:10.37,2013-12-25 05:26:00,
2013-12-25 06:27:00,45.8,40.3,30.07,East,87,0.0,0.0,81,0.00,CLR,,0.00,0.0,WeatherDisplay:10.37,2013-12-25 05:27:00,
2013-12-25 06:28:00,45.8,40.3,30.07,East,87,0.0,0.0,81,0.00,CLR,,0.00,0.0,WeatherDisplay:10.37,2013-12-25 05:28:00,
2013-12-25 06:30:00,45.8,40.3,30.07,East,87,0.0,0.0,81,0.00,CLR,,0.00,0.0,WeatherDisplay:10.37,2013-12-25 05:30:00,
2013-12-25 06:31:00,45.7,39.9,30.07,East,87,0.0,0.0,80,0.00,CLR,,0.00,0.0,WeatherDisplay:10.37,2013-12-25 05:31:00,
2013-12-25 06:32:00,45.6,39.8,30.07,East,87,0.0,0.0,80,0.00,CLR,,0.00,0.0,WeatherDisplay:10.37,2013-12-25 05:32:00,
2013-12-25 06:33:00,45.5,39.7,30.07,East,87,0.0,0.0,80,0.00,CLR,,0.00,0.0,WeatherDisplay:10.37,2013-12-25 05:33:00,
2013-12-25 06:35:00,45.4,39.6,30.07,East,87,0.0,0.0,80,0.00,CLR,,0.00,0.0,WeatherDisplay:10.37,2013-12-25 05:35:00,
2013-12-25 06:37:00,45.4,39.6,30.07,East,87,0.0,0.0,80,0.00,CLR,,0.00,0.0,WeatherDisplay:10.37,2013-12-25 05:37:00,
2013-12-25 06:39:00,45.3,39.5,30.07,East,87,0.0,0.0,80,0.00,CLR,,0.00,0.0,WeatherDisplay:10.37,2013-12-25 05:39:00,
2013-12-25 06:41:00,45.2,39.4,30.07,East,87,0.0,0.0,80,0.00,CLR,,0.00,0.0,WeatherDisplay:10.37,2013-12-25 05:41:00,
2013-12-25 06:42:00,45.2,39.4,30.07,East,87,0.0,0.0,80,0.00,CLR,,0.00,0.0,WeatherDisplay:10.37,2013-12-25 05:42:00,
2013-12-25 06:43:00,45.2,39.4,30.07,East,87,0.0,0.0,80,0.00,CLR,,0.00,0.0,WeatherDisplay:10.37,2013-12-25 05:43:00,
2013-12-25 06:44:00,45.1,39.3,30.07,East,87,0.0,0.0,80,0.00,CLR,,0.00,0.0,WeatherDisplay:10.37,2013-12-25 05:44:00,
2013-12-25 06:47:00,45.1,39.3,30.07,East,87,0.0,0.0,80,0.00,CLR,,0.00,0.0,WeatherDisplay:10.37,2013-12-25 05:47:00,
2013-12-25 06:48:00,45.0,39.2,30.07,East,87,0.0,0.0,80,0.00,CLR,,0.00,0.0,WeatherDisplay:10.37,2013-12-25 05:48:00,
2013-12-25 06:49:00,44.9,39.1,30.07,East,87,0.0,0.0,80,0.00,CLR,,0.00,0.0,WeatherDisplay:10.37,2013-12-25 05:49:00,
2013-12-25 06:52:00,44.8,39.0,30.07,East,87,0.0,0.0,80,0.00,CLR,,0.00,0.0,WeatherDisplay:10.37,2013-12-25 05:52:00,
2013-12-25 06:53:00,44.7,38.9,30.07,East,87,0.0,0.0,80,0.00,CLR,,0.00,0.0,WeatherDisplay:10.37,2013-12-25 05:53:00,
2013-12-25 06:54:00,44.7,38.9,30.07,East,87,0.0,0.0,80,0.00,CLR,,0.00,0.0,WeatherDisplay:10.37,2013-12-25 05:54:00,
2013-12-25 06:55:00,44.6,38.8,30.07,East,87,0.0,0.0,80,0.00,CLR,,0.00,0.0,WeatherDisplay:10.37,2013-12-25 05:55:00,
2013-12-25 06:57:00,44.5,38.7,30.07,East,87,0.0,0.0,80,0.00,CLR,,0.00,0.0,WeatherDisplay:10.37,2013-12-25 05:57:00,
2013-12-25 06:58:00,44.4,38.6,30.07,East,87,0.0,0.0,80,0.00,CLR,,0.00,0.0,WeatherDisplay:10.37,2013-12-25 05:58:00,
2013-12-25 06:59:00,44.4,38.6,30.07,East,87,0.0,0.0,80,0.00,CLR,,0.00,0.0,WeatherDisplay:10.37,2013-12-25 05:59:00,
2013-12-25 07:00:00,44.4,38.6,30.07,East,87,0.0,0.0,80,0.00,CLR,,0.00,0.0,WeatherDisplay:10.37,2013-12-25 06:00:00,
2013-12-25 07:02:00,44.4,38.9,30.07,East,87,3.5,3.5,81,0.00,CLR,,0.00,0.0,WeatherDisplay:10.37,2013-12-25 06:02:00,
2013-12-25 07:04:00,44.4,38.9,30.07,East,87,3.5,3.5,81,0.00,CLR,,0.00,0.0,WeatherDisplay:10.37,2013-12-25 06:04:00,
2013-12-25 07:06:00,44.5,39.0,30.07,East,88,2.3,2.3,81,0.00,CLR,,0.00,0.0,WeatherDisplay:10.37,2013-12-25 06:06:00,
2013-12-25 07:07:00,44.6,39.1,30.07,East,86,2.3,2.3,81,0.00,CLR,,0.00,0.0,WeatherDisplay:10.37,2013-12-25 06:07:00,
2013-12-25 07:08:00,44.6,39.1,30.07,East,86,0.0,0.0,81,0.00,CLR,,0.00,0.0,WeatherDisplay:10.37,2013-12-25 06:08:00,
2013-12-25 07:09:00,44.7,39.2,30.07,East,86,0.0,0.0,81,0.00,CLR,,0.00,0.0,WeatherDisplay:10.37,2013-12-25 06:09:00,
2013-12-25 07:10:00,44.7,39.5,30.07,East,86,0.0,0.0,82,0.00,CLR,,0.00,0.0,WeatherDisplay:10.37,2013-12-25 06:10:00,
2013-12-25 07:11:00,44.7,39.5,30.07,East,86,0.0,0.0,82,0.00,CLR,,0.00,0.0,WeatherDisplay:10.37,2013-12-25 06:11:00,
2013-12-25 07:12:00,44.8,39.6,30.07,ENE,66,3.5,0.0,82,0.00,CLR,,0.00,0.0,WeatherDisplay:10.37,2013-12-25 06:12:00,
2013-12-25 07:13:00,44.9,39.7,30.07,ENE,70,0.0,0.0,82,0.00,CLR,,0.00,0.0,WeatherDisplay:10.37,2013-12-25 06:13:00,
2013-12-25 07:14:00,44.9,39.7,30.07,East,84,3.0,3.0,82,0.00,CLR,,0.00,0.0,WeatherDisplay:10.37,2013-12-25 06:14:00,
2013-12-25 07:15:00,44.9,39.7,30.07,ENE,76,3.5,3.5,82,0.00,CLR,,0.00,0.0,WeatherDisplay:10.37,2013-12-25 06:15:00,
2013-12-25 07:17:00,45.1,39.9,30.07,ENE,73,3.5,3.5,82,0.00,CLR,,0.00,0.0,WeatherDisplay:10.37,2013-12-25 06:17:00,
2013-12-25 07:18:00,45.1,39.9,30.07,East,80,3.5,3.5,82,0.00,CLR,,0.00,0.0,WeatherDisplay:10.37,2013-12-25 06:18:00,
2013-12-25 07:19:00,45.2,40.0,30.07,ESE,119,3.5,0.0,82,0.00,CLR,,0.00,0.0,WeatherDisplay:10.37,2013-12-25 06:19:00,
2013-12-25 07:20:00,45.3,40.1,30.07,East,86,3.0,3.0,82,0.00,CLR,,0.00,0.0,WeatherDisplay:10.37,2013-12-25 06:20:00,
2013-12-25 07:22:00,45.5,40.3,30.07,ENE,65,4.6,4.6,82,0.00,CLR,,0.00,0.0,WeatherDisplay:10.37,2013-12-25 06:22:00,
2013-12-25 07:23:00,45.5,40.3,30.07,East,94,3.5,3.5,82,0.00,CLR,,0.00,0.0,WeatherDisplay:10.37,2013-12-25 06:23:00,
2013-12-25 07:24:00,45.7,40.5,30.07,East,80,3.5,3.5,82,0.00,CLR,,0.00,0.0,WeatherDisplay:10.37,2013-12-25 06:24:00,
2013-12-25 07:25:00,45.7,40.5,30.07,East,80,3.5,3.5,82,0.00,CLR,,0.00,0.0,WeatherDisplay:10.37,2013-12-25 06:25:00,
2013-12-25 07:26:00,45.8,40.6,30.06,ENE,74,3.5,3.5,82,0.00,CLR,,0.00,0.0,WeatherDisplay:10.37,2013-12-25 06:26:00,
2013-12-25 07:27:00,45.9,40.7,30.07,ENE,74,4.6,4.6,82,0.00,CLR,,0.00,0.0,WeatherDisplay:10.37,2013-12-25 06:27:00,
2013-12-25 07:29:00,46.0,40.8,30.06,ENE,74,3.5,3.5,82,0.00,CLR,,0.00,0.0,WeatherDisplay:10.37,2013-12-25 06:29:00,
2013-12-25 07:30:00,46.1,40.9,30.06,ENE,65,3.5,3.5,82,0.00,CLR,,0.00,0.0,WeatherDisplay:10.37,2013-12-25 06:30:00,
2013-12-25 07:31:00,46.2,41.0,30.06,ENE,59,3.5,3.5,82,0.00,CLR,,0.00,0.0,WeatherDisplay:10.37,2013-12-25 06:31:00,
2013-12-25 07:34:00,46.5,41.3,30.07,ENE,57,4.6,4.6,82,0.00,CLR,,0.00,0.0,WeatherDisplay:10.37,2013-12-25 06:34:00,
2013-12-25 07:35:00,46.6,41.4,30.07,ENE,57,4.6,4.6,82,0.00,CLR,,0.00,0.0,WeatherDisplay:10.37,2013-12-25 06:35:00,
2013-12-25 07:36:00,46.6,41.4,30.07,ENE,57,3.5,3.5,82,0.00,CLR,,0.00,0.0,WeatherDisplay:10.37,2013-12-25 06:36:00,
2013-12-25 07:37:00,46.7,41.5,30.07,ENE,57,0.0,0.0,82,0.00,BKN,,0.00,5.0,WeatherDisplay:10.37,2013-12-25 06:37:00,
2013-12-25 07:38:00,46.8,41.6,30.07,ENE,57,0.0,0.0,82,0.00,BKN,,0.00,5.0,WeatherDisplay:10.37,2013-12-25 06:38:00,
2013-12-25 07:40:00,46.8,41.6,30.07,ENE,57,0.0,0.0,82,0.00,BKN,,0.00,7.0,WeatherDisplay:10.37,2013-12-25 06:40:00,
2013-12-25 07:41:00,46.9,41.7,30.07,ENE,63,0.0,0.0,82,0.00,BKN,,0.00,7.0,WeatherDisplay:10.37,2013-12-25 06:41:00,
2013-12-25 07:44:00,47.1,41.9,30.07,ENE,61,0.0,0.0,82,0.00,BKN,,0.00,9.0,WeatherDisplay:10.37,2013-12-25 06:44:00,
2013-12-25 07:45:00,47.1,41.9,30.07,ENE,63,0.0,0.1,82,0.00,BKN,,0.00,9.0,WeatherDisplay:10.37,2013-12-25 06:45:00,
2013-12-25 07:46:00,47.1,41.9,30.07,ENE,67,3.0,3.0,82,0.00,BKN,,0.00,9.0,WeatherDisplay:10.37,2013-12-25 06:46:00,
2013-12-25 07:47:00,47.1,41.9,30.07,ENE,67,3.5,0.0,82,0.00,BKN,,0.00,11.0,WeatherDisplay:10.37,2013-12-25 06:47:00,
2013-12-25 07:49:00,47.2,42.0,30.07,ENE,76,0.0,0.0,82,0.00,BKN,,0.00,9.0,WeatherDisplay:10.37,2013-12-25 06:49:00,
2013-12-25 07:50:00,47.2,42.0,30.07,ESE,106,2.0,2.0,82,0.00,BKN,,0.00,9.0,WeatherDisplay:10.37,2013-12-25 06:50:00,
2013-12-25 07:51:00,47.2,42.0,30.07,East,88,4.6,4.6,82,0.00,BKN,,0.00,7.0,WeatherDisplay:10.37,2013-12-25 06:51:00,
2013-12-25 07:52:00,47.3,41.8,30.07,East,87,3.5,3.5,81,0.00,OVC,,0.00,5.0,WeatherDisplay:10.37,2013-12-25 06:52:00,
2013-12-25 07:55:00,47.3,41.8,30.07,East,82,3.0,3.0,81,0.00,OVC,,0.00,5.0,WeatherDisplay:10.37,2013-12-25 06:55:00,
2013-12-25 07:56:00,47.3,41.8,30.07,East,80,4.6,4.6,81,0.00,OVC,,0.00,5.0,WeatherDisplay:10.37,2013-12-25 06:56:00,
2013-12-25 07:57:00,47.3,41.8,30.07,East,80,3.5,3.5,81,0.00,OVC,,0.00,5.0,WeatherDisplay:10.37,2013-12-25 06:57:00,
2013-12-25 08:00:00,47.3,41.8,30.07,East,80,0.0,0.0,81,0.00,OVC,,0.00,5.0,WeatherDisplay:10.37,2013-12-25 07:00:00,
2013-12-25 08:01:00,47.3,41.8,30.07,East,80,0.0,0.0,81,0.00,OVC,,0.00,5.0,WeatherDisplay:10.37,2013-12-25 07:01:00,
2013-12-25 08:03:00,47.3,41.8,30.07,ENE,78,0.0,0.0,81,0.00,OVC,,0.00,5.0,WeatherDisplay:10.37,2013-12-25 07:03:00,
2013-12-25 08:04:00,47.3,41.8,30.07,ENE,78,0.0,0.0,81,0.00,OVC,,0.00,5.0,WeatherDisplay:10.37,2013-12-25 07:04:00,
2013-12-25 08:06:00,47.4,41.9,30.07,ENE,78,0.0,0.0,81,0.00,OVC,,0.00,0.0,WeatherDisplay:10.37,2013-12-25 07:06:00,
2013-12-25 08:07:00,47.4,41.9,30.07,ENE,78,0.0,0.0,81,0.00,OVC,,0.00,5.0,WeatherDisplay:10.37,2013-12-25 07:07:00,
2013-12-25 08:08:00,47.4,41.9,30.07,ENE,78,0.0,0.0,81,0.00,OVC,,0.00,5.0,WeatherDisplay:10.37,2013-12-25 07:08:00,
2013-12-25 08:10:00,47.4,41.9,30.07,ENE,77,4.6,4.6,81,0.00,OVC,,0.00,5.0,WeatherDisplay:10.37,2013-12-25 07:10:00,
2013-12-25 08:11:00,47.4,41.9,30.07,ENE,77,4.6,4.6,81,0.00,OVC,,0.00,5.0,WeatherDisplay:10.37,2013-12-25 07:11:00,
2013-12-25 08:12:00,47.4,41.9,30.07,ENE,77,2.3,0.0,81,0.00,OVC,,0.00,5.0,WeatherDisplay:10.37,2013-12-25 07:12:00,
2013-12-25 08:13:00,47.4,41.9,30.07,ENE,77,0.0,0.0,81,0.00,OVC,,0.00,5.0,WeatherDisplay:10.37,2013-12-25 07:13:00,
2013-12-25 08:14:00,47.4,41.9,30.07,ENE,77,0.0,0.0,81,0.00,OVC,,0.00,9.0,WeatherDisplay:10.37,2013-12-25 07:14:00,
2013-12-25 08:16:00,47.5,42.0,30.07,ENE,77,0.0,0.0,81,0.00,OVC,,0.00,11.0,WeatherDisplay:10.37,2013-12-25 07:16:00,
2013-12-25 08:17:00,47.5,42.0,30.07,ENE,77,0.0,0.0,81,0.00,OVC,,0.00,11.0,WeatherDisplay:10.37,2013-12-25 07:17:00,
2013-12-25 08:18:00,47.5,42.0,30.07,ENE,77,0.0,0.0,81,0.00,OVC,,0.00,11.0,WeatherDisplay:10.37,2013-12-25 07:18:00,
2013-12-25 08:19:00,47.5,42.0,30.07,ENE,77,0.0,0.0,81,0.00,OVC,,0.00,11.0,WeatherDisplay:10.37,2013-12-25 07:19:00,
2013-12-25 08:21:00,47.5,42.0,30.07,ENE,77,0.0,0.0,81,0.00,OVC,,0.00,11.0,WeatherDisplay:10.37,2013-12-25 07:21:00,
2013-12-25 08:22:00,47.6,42.1,30.07,ENE,77,0.0,0.0,81,0.00,OVC,,0.00,9.0,WeatherDisplay:10.37,2013-12-25 07:22:00,
2013-12-25 08:23:00,47.5,42.0,30.07,ENE,77,0.0,0.0,81,0.00,OVC,,0.00,11.0,WeatherDisplay:10.37,2013-12-25 07:23:00,
2013-12-25 08:24:00,47.5,42.0,30.07,ENE,77,0.0,0.0,81,0.00,OVC,,0.00,11.0,WeatherDisplay:10.37,2013-12-25 07:24:00,
2013-12-25 08:25:00,47.5,42.0,30.07,ENE,77,0.0,0.0,81,0.00,BKN,,0.00,16.0,WeatherDisplay:10.37,2013-12-25 07:25:00,
2013-12-25 08:26:00,47.5,41.6,30.07,ENE,77,0.0,0.0,80,0.00,BKN,,0.00,19.0,WeatherDisplay:10.37,2013-12-25 07:26:00,
2013-12-25 08:27:00,47.5,41.6,30.07,ENE,78,0.0,0.0,80,0.00,BKN,,0.00,21.0,WeatherDisplay:10.37,2013-12-25 07:27:00,
2013-12-25 08:28:00,47.5,41.6,30.07,East,80,0.0,0.0,80,0.00,BKN,,0.00,25.0,WeatherDisplay:10.37,2013-12-25 07:28:00,
2013-12-25 08:29:00,47.5,42.0,30.07,East,99,1.2,1.2,81,0.00,BKN,,0.00,25.0,WeatherDisplay:10.37,2013-12-25 07:29:00,
2013-12-25 08:30:00,47.5,42.0,30.07,East,99,2.3,2.3,81,0.00,BKN,,0.00,25.0,WeatherDisplay:10.37,2013-12-25 07:30:00,
2013-12-25 08:31:00,47.5,42.0,30.07,East,99,2.3,2.3,81,0.00,BKN,,0.00,30.0,WeatherDisplay:10.37,2013-12-25 07:31:00,
2013-12-25 08:32:00,47.6,42.1,30.07,East,88,2.3,2.3,81,0.00,BKN,,0.00,32.0,WeatherDisplay:10.37,2013-12-25 07:32:00,
2013-12-25 08:34:00,47.6,42.1,30.07,East,85,0.0,0.0,81,0.00,BKN,,0.00,33.0,WeatherDisplay:10.37,2013-12-25 07:34:00,
2013-12-25 08:35:00,47.7,42.2,30.07,East,85,0.0,0.0,81,0.00,BKN,,0.00,32.0,WeatherDisplay:10.37,2013-12-25 07:35:00,
2013-12-25 08:36:00,47.7,42.2,30.07,East,85,0.0,0.0,81,0.00,BKN,,0.00,32.0,WeatherDisplay:10.37,2013-12-25 07:36:00,
2013-12-25 08:37:00,47.7,42.2,30.07,East,85,0.0,0.0,81,0.00,BKN,,0.00,33.0,WeatherDisplay:10.37,2013-12-25 07:37:00,
2013-12-25 08:39:00,47.8,42.3,30.07,East,85,2.0,2.0,81,0.00,BKN,,0.00,39.0,WeatherDisplay:10.37,2013-12-25 07:39:00,
2013-12-25 08:40:00,47.8,42.3,30.07,East,85,2.0,2.0,81,0.00,BKN,,0.00,39.0,WeatherDisplay:10.37,2013-12-25 07:40:00,
2013-12-25 08:41:00,47.9,42.3,30.07,East,85,2.3,0.0,81,0.00,BKN,,0.00,39.0,WeatherDisplay:10.37,2013-12-25 07:41:00,
2013-12-25 08:43:00,47.9,42.3,30.07,East,85,0.0,0.0,81,0.00,BKN,,0.00,37.0,WeatherDisplay:10.37,2013-12-25 07:43:00,
2013-12-25 08:45:00,47.9,42.3,30.07,East,85,0.0,0.0,81,0.00,BKN,,0.00,35.0,WeatherDisplay:10.37,2013-12-25 07:45:00,
2013-12-25 08:46:00,47.9,42.3,30.07,East,85,0.0,0.0,81,0.00,BKN,,0.00,33.0,WeatherDisplay:10.37,2013-12-25 07:46:00,
2013-12-25 08:48:00,48.0,42.4,30.07,East,85,0.0,0.0,81,0.00,BKN,,0.00,33.0,WeatherDisplay:10.37,2013-12-25 07:48:00,
2013-12-25 08:51:00,48.0,42.4,30.07,East,85,0.0,0.0,81,0.00,BKN,,0.00,33.0,WeatherDisplay:10.37,2013-12-25 07:51:00,
2013-12-25 08:52:00,48.0,42.4,30.07,East,85,0.0,0.0,81,0.00,BKN,,0.00,33.0,WeatherDisplay:10.37,2013-12-25 07:52:00,
2013-12-25 08:53:00,48.0,42.4,30.07,East,85,1.0,0.0,81,0.00,BKN,,0.00,35.0,WeatherDisplay:10.37,2013-12-25 07:53:00,
2013-12-25 08:56:00,48.1,42.5,30.07,East,85,0.0,0.0,81,0.00,BKN,,0.00,39.0,WeatherDisplay:10.37,2013-12-25 07:56:00,
2013-12-25 08:57:00,48.1,42.5,30.07,East,85,0.0,0.0,81,0.00,BKN,,0.00,44.0,WeatherDisplay:10.37,2013-12-25 07:57:00,
2013-12-25 08:58:00,48.1,42.5,30.07,East,85,0.0,0.0,81,0.00,BKN,,0.00,44.0,WeatherDisplay:10.37,2013-12-25 07:58:00,
2013-12-25 08:59:00,48.2,42.6,30.07,East,85,0.0,0.0,81,0.00,BKN,,0.00,49.0,WeatherDisplay:10.37,2013-12-25 07:59:00,
2013-12-25 09:01:00,48.3,42.7,30.07,East,85,0.0,0.0,81,0.00,BKN,,0.00,58.0,WeatherDisplay:10.37,2013-12-25 08:01:00,
2013-12-25 09:03:00,48.4,42.8,30.06,East,85,0.0,0.0,81,0.00,BKN,,0.00,65.0,WeatherDisplay:10.37,2013-12-25 08:03:00,
2013-12-25 09:04:00,48.4,42.8,30.06,East,85,0.0,0.0,81,0.00,BKN,,0.00,65.0,WeatherDisplay:10.37,2013-12-25 08:04:00,
2013-12-25 09:06:00,48.5,42.9,30.06,East,85,0.0,0.0,81,0.00,BKN,,0.00,67.0,WeatherDisplay:10.37,2013-12-25 08:06:00,
2013-12-25 09:08:00,48.5,42.9,30.06,East,85,0.0,0.0,81,0.00,BKN,,0.00,70.0,WeatherDisplay:10.37,2013-12-25 08:08:00,
2013-12-25 09:09:00,48.6,43.0,30.07,East,85,0.0,0.0,81,0.00,BKN,,0.00,70.0,WeatherDisplay:10.37,2013-12-25 08:09:00,
2013-12-25 09:11:00,48.6,43.0,30.07,East,85,0.0,0.0,81,0.00,BKN,,0.00,70.0,WeatherDisplay:10.37,2013-12-25 08:11:00,
2013-12-25 09:13:00,48.7,43.1,30.07,East,85,0.0,0.0,81,0.00,BKN,,0.00,70.0,WeatherDisplay:10.37,2013-12-25 08:13:00,
2013-12-25 09:14:00,48.7,43.1,30.07,East,85,0.0,0.0,81,0.00,BKN,,0.00,70.0,WeatherDisplay:10.37,2013-12-25 08:14:00,
2013-12-25 09:15:00,48.8,43.2,30.07,East,85,0.0,0.0,81,0.00,BKN,,0.00,72.0,WeatherDisplay:10.37,2013-12-25 08:15:00,
2013-12-25 09:17:00,48.8,43.2,30.07,East,85,0.0,0.0,81,0.00,BKN,,0.00,74.0,WeatherDisplay:10.37,2013-12-25 08:17:00,
2013-12-25 09:19:00,48.8,43.2,30.07,East,84,0.0,0.0,81,0.00,BKN,,0.00,76.0,WeatherDisplay:10.37,2013-12-25 08:19:00,
2013-12-25 09:20:00,48.9,43.3,30.07,East,85,0.0,0.0,81,0.00,BKN,,0.00,76.0,WeatherDisplay:10.37,2013-12-25 08:20:00,
2013-12-25 09:21:00,48.9,43.3,30.07,East,85,0.0,0.0,81,0.00,BKN,,0.00,72.0,WeatherDisplay:10.37,2013-12-25 08:21:00,
2013-12-25 09:24:00,49.0,43.4,30.07,East,84,0.0,0.0,81,0.00,BKN,,0.00,83.0,WeatherDisplay:10.37,2013-12-25 08:24:00,
2013-12-25 09:25:00,49.0,43.4,30.07,East,85,0.0,0.0,81,0.00,BKN,,0.00,91.0,WeatherDisplay:10.37,2013-12-25 08:25:00,
2013-12-25 09:28:00,49.1,43.5,30.07,East,85,0.0,0.0,81,0.00,BKN,,0.00,105.0,WeatherDisplay:10.37,2013-12-25 08:28:00,
2013-12-25 09:29:00,49.1,43.5,30.07,East,85,0.0,0.0,81,0.00,BKN,,0.00,100.0,WeatherDisplay:10.37,2013-12-25 08:29:00,
2013-12-25 09:30:00,49.1,43.5,30.07,East,85,0.0,0.0,81,0.00,BKN,,0.00,97.0,WeatherDisplay:10.37,2013-12-25 08:30:00,
2013-12-25 09:31:00,49.2,43.6,30.07,East,85,0.0,0.0,81,0.00,BKN,,0.00,91.0,WeatherDisplay:10.37,2013-12-25 08:31:00,
2013-12-25 09:33:00,49.3,43.7,30.07,East,85,0.0,0.0,81,0.00,BKN,,0.00,88.0,WeatherDisplay:10.37,2013-12-25 08:33:00,
2013-12-25 09:34:00,49.3,44.0,30.07,East,85,0.0,0.0,82,0.00,BKN,,0.00,88.0,WeatherDisplay:10.37,2013-12-25 08:34:00,
2013-12-25 09:35:00,49.4,44.1,30.07,East,85,0.0,0.0,82,0.00,SCT,,0.00,86.0,WeatherDisplay:10.37,2013-12-25 08:35:00,
2013-12-25 09:36:00,49.4,43.8,30.07,East,85,0.0,0.0,81,0.00,BKN,,0.00,84.0,WeatherDisplay:10.37,2013-12-25 08:36:00,
2013-12-25 09:38:00,49.5,43.9,30.08,East,85,0.0,0.0,81,0.00,BKN,,0.00,88.0,WeatherDisplay:10.37,2013-12-25 08:38:00,
2013-12-25 09:39:00,49.5,43.9,30.08,East,85,0.0,0.0,81,0.00,BKN,,0.00,91.0,WeatherDisplay:10.37,2013-12-25 08:39:00,
2013-12-25 09:40:00,49.5,43.9,30.08,East,85,0.0,0.0,81,0.00,BKN,,0.00,91.0,WeatherDisplay:10.37,2013-12-25 08:40:00,
2013-12-25 09:41:00,49.6,44.0,30.08,East,85,0.0,0.0,81,0.00,BKN,,0.00,91.0,WeatherDisplay:10.37,2013-12-25 08:41:00,
2013-12-25 09:42:00,49.6,44.0,30.08,East,85,0.0,0.0,81,0.00,BKN,,0.00,97.0,WeatherDisplay:10.37,2013-12-25 08:42:00,
2013-12-25 09:44:00,49.7,44.1,30.08,East,85,0.0,0.0,81,0.00,BKN,,0.00,84.0,WeatherDisplay:10.37,2013-12-25 08:44:00,
2013-12-25 09:46:00,49.8,44.2,30.08,East,85,0.0,0.0,81,0.00,BKN,,0.00,77.0,WeatherDisplay:10.37,2013-12-25 08:46:00,
2013-12-25 09:47:00,49.8,44.2,30.08,East,85,0.0,0.0,81,0.00,BKN,,0.00,67.0,WeatherDisplay:10.37,2013-12-25 08:47:00,
2013-12-25 09:50:00,49.9,44.6,30.08,East,85,0.0,0.0,82,0.00,BKN,,0.00,60.0,WeatherDisplay:10.37,2013-12-25 08:50:00,
2013-12-25 09:51:00,50.0,44.7,30.08,East,85,0.0,0.0,82,0.00,BKN,,0.00,58.0,WeatherDisplay:10.37,2013-12-25 08:51:00,
2013-12-25 09:52:00,50.0,44.7,30.08,East,85,0.0,0.0,82,0.00,BKN,,0.00,58.0,WeatherDisplay:10.37,2013-12-25 08:52:00,
2013-12-25 09:55:00,50.2,44.9,30.08,East,85,0.0,0.0,82,0.00,BKN,,0.00,58.0,WeatherDisplay:10.37,2013-12-25 08:55:00,
2013-12-25 09:56:00,50.2,44.9,30.08,East,85,0.0,0.0,82,0.00,BKN,,0.00,58.0,WeatherDisplay:10.37,2013-12-25 08:56:00,
2013-12-25 09:57:00,50.3,45.0,30.08,East,85,0.0,0.0,82,0.00,BKN,,0.00,58.0,WeatherDisplay:10.37,2013-12-25 08:57:00,
2013-12-25 09:58:00,50.3,45.0,30.08,East,85,0.0,0.0,82,0.00,BKN,,0.00,44.0,WeatherDisplay:10.37,2013-12-25 08:58:00,
2013-12-25 10:00:00,50.3,45.0,30.08,East,85,0.0,0.0,82,0.00,BKN,,0.00,40.0,WeatherDisplay:10.37,2013-12-25 09:00:00,
2013-12-25 10:01:00,50.4,45.1,30.08,East,85,0.0,0.0,82,0.00,BKN,,0.00,39.0,WeatherDisplay:10.37,2013-12-25 09:01:00,
2013-12-25 10:02:00,50.4,45.1,30.08,East,85,0.0,0.0,82,0.00,BKN,,0.00,39.0,WeatherDisplay:10.37,2013-12-25 09:02:00,
2013-12-25 10:03:00,50.4,45.1,30.08,East,85,0.0,0.0,82,0.00,BKN,,0.00,37.0,WeatherDisplay:10.37,2013-12-25 09:03:00,
2013-12-25 10:04:00,50.5,45.2,30.08,East,85,0.0,0.0,82,0.00,BKN,,0.00,37.0,WeatherDisplay:10.37,2013-12-25 09:04:00,
2013-12-25 10:05:00,50.5,45.2,30.08,East,85,0.0,0.0,82,0.00,BKN,,0.00,37.0,WeatherDisplay:10.37,2013-12-25 09:05:00,
2013-12-25 10:06:00,50.5,45.2,30.08,East,85,0.0,0.0,82,0.00,BKN,,0.00,39.0,WeatherDisplay:10.37,2013-12-25 09:06:00,
2013-12-25 10:07:00,50.5,45.2,30.08,East,85,0.0,0.0,82,0.00,BKN,,0.00,39.0,WeatherDisplay:10.37,2013-12-25 09:07:00,
2013-12-25 10:09:00,50.6,45.3,30.08,East,85,0.0,0.0,82,0.00,BKN,,0.00,37.0,WeatherDisplay:10.37,2013-12-25 09:09:00,
2013-12-25 10:10:00,50.7,45.4,30.08,East,85,0.0,0.0,82,0.00,BKN,,0.00,37.0,WeatherDisplay:10.37,2013-12-25 09:10:00,
2013-12-25 10:11:00,50.7,45.4,30.08,East,85,0.0,0.0,82,0.00,BKN,,0.00,37.0,WeatherDisplay:10.37,2013-12-25 09:11:00,
2013-12-25 10:12:00,50.7,45.4,30.08,East,85,0.0,0.0,82,0.00,BKN,,0.00,37.0,WeatherDisplay:10.37,2013-12-25 09:12:00,
2013-12-25 10:14:00,50.8,45.5,30.08,East,85,0.0,0.0,82,0.00,BKN,,0.00,39.0,WeatherDisplay:10.37,2013-12-25 09:14:00,
2013-12-25 10:15:00,50.8,45.5,30.08,East,85,0.0,0.0,82,0.00,BKN,,0.00,42.0,WeatherDisplay:10.37,2013-12-25 09:15:00,
2013-12-25 10:17:00,50.8,45.5,30.08,East,85,0.0,0.0,82,0.00,BKN,,0.00,46.0,WeatherDisplay:10.37,2013-12-25 09:17:00,
2013-12-25 10:19:00,50.8,45.5,30.08,East,85,0.0,0.0,82,0.00,BKN,,0.00,47.0,WeatherDisplay:10.37,2013-12-25 09:19:00,
2013-12-25 10:20:00,50.9,45.6,30.08,East,85,0.0,0.0,82,0.00,BKN,,0.00,54.0,WeatherDisplay:10.37,2013-12-25 09:20:00,
2013-12-25 10:21:00,50.9,45.6,30.08,East,85,0.0,0.0,82,0.00,BKN,,0.00,54.0,WeatherDisplay:10.37,2013-12-25 09:21:00,
2013-12-25 10:22:00,50.9,45.6,30.08,East,85,0.0,0.0,82,0.00,BKN,,0.00,67.0,WeatherDisplay:10.37,2013-12-25 09:22:00,
2013-12-25 10:24:00,51.0,45.7,30.08,East,85,0.0,0.0,82,0.00,BKN,,0.00,67.0,WeatherDisplay:10.37,2013-12-25 09:24:00,
2013-12-25 10:26:00,51.0,45.7,30.08,East,87,0.0,0.0,82,0.00,BKN,,0.00,60.0,WeatherDisplay:10.37,2013-12-25 09:26:00,
2013-12-25 10:27:00,51.0,45.7,30.08,East,87,0.0,0.0,82,0.00,BKN,,0.00,58.0,WeatherDisplay:10.37,2013-12-25 09:27:00,
2013-12-25 10:28:00,51.0,45.7,30.08,East,87,0.0,0.0,82,0.00,BKN,,0.00,58.0,WeatherDisplay:10.37,2013-12-25 09:28:00,
2013-12-25 10:30:00,51.0,45.7,30.07,East,87,0.0,0.0,82,0.00,BKN,,0.00,60.0,WeatherDisplay:10.37,2013-12-25 09:30:00,
2013-12-25 10:31:00,51.0,45.7,30.08,East,87,0.0,0.0,82,0.00,BKN,,0.00,67.0,WeatherDisplay:10.37,2013-12-25 09:31:00,
2013-12-25 10:32:00,51.0,45.4,30.07,East,87,0.0,0.0,81,0.00,BKN,,0.00,67.0,WeatherDisplay:10.37,2013-12-25 09:32:00,
2013-12-25 10:33:00,50.9,45.3,30.07,East,86,2.0,2.0,81,0.00,BKN,,0.00,70.0,WeatherDisplay:10.37,2013-12-25 09:33:00,
2013-12-25 10:34:00,50.9,45.3,30.07,East,87,2.3,2.3,81,0.00,BKN,,0.00,70.0,WeatherDisplay:10.37,2013-12-25 09:34:00,
2013-12-25 10:35:00,50.9,45.3,30.07,East,87,2.3,2.3,81,0.00,BKN,,0.00,65.0,WeatherDisplay:10.37,2013-12-25 09:35:00,
2013-12-25 10:36:00,50.9,45.3,30.07,East,87,2.3,2.3,81,0.00,BKN,,0.00,63.0,WeatherDisplay:10.37,2013-12-25 09:36:00,
2013-12-25 10:37:00,50.9,45.3,30.07,East,86,1.2,0.0,81,0.00,BKN,,0.00,65.0,WeatherDisplay:10.37,2013-12-25 09:37:00,
2013-12-25 10:38:00,50.9,45.3,30.07,East,87,0.0,0.0,81,0.00,BKN,,0.00,65.0,WeatherDisplay:10.37,2013-12-25 09:38:00,
2013-12-25 10:39:00,50.9,45.3,30.07,East,87,1.2,0.0,81,0.00,BKN,,0.00,65.0,WeatherDisplay:10.37,2013-12-25 09:39:00,
2013-12-25 10:40:00,50.9,45.3,30.07,East,87,0.0,0.0,81,0.00,BKN,,0.00,65.0,WeatherDisplay:10.37,2013-12-25 09:40:00,
2013-12-25 10:41:00,50.9,45.3,30.07,East,87,0.0,0.0,81,0.00,BKN,,0.00,65.0,WeatherDisplay:10.37,2013-12-25 09:41:00,
2013-12-25 10:42:00,50.8,45.2,30.07,East,87,0.0,0.0,81,0.00,BKN,,0.00,62.0,WeatherDisplay:10.37,2013-12-25 09:42:00,
2013-12-25 10:43:00,50.8,44.9,30.06,East,87,0.0,0.0,80,0.00,BKN,,0.00,63.0,WeatherDisplay:10.37,2013-12-25 09:43:00,
2013-12-25 10:44:00,50.8,44.9,30.07,East,87,0.0,0.0,80,0.00,BKN,,0.00,63.0,WeatherDisplay:10.37,2013-12-25 09:44:00,
2013-12-25 10:45:00,50.8,44.9,30.07,East,87,0.0,0.0,80,0.00,BKN,,0.00,77.0,WeatherDisplay:10.37,2013-12-25 09:45:00,
2013-12-25 10:46:00,50.8,44.9,30.07,East,87,0.0,0.0,80,0.00,BKN,,0.00,91.0,WeatherDisplay:10.37,2013-12-25 09:46:00,
2013-12-25 10:47:00,50.8,44.9,30.07,East,87,1.2,1.2,80,0.00,BKN,,0.00,91.0,WeatherDisplay:10.37,2013-12-25 09:47:00,
2013-12-25 10:48:00,50.8,44.9,30.06,East,87,1.2,0.0,80,0.00,BKN,,0.00,142.0,WeatherDisplay:10.37,2013-12-25 09:48:00,
2013-12-25 10:49:00,50.8,44.9,30.06,East,87,0.0,0.0,80,0.00,BKN,,0.00,142.0,WeatherDisplay:10.37,2013-12-25 09:49:00,
2013-12-25 10:50:00,50.8,44.9,30.06,East,87,0.0,0.0,80,0.00,BKN,,0.00,165.0,WeatherDisplay:10.37,2013-12-25 09:50:00,
2013-12-25 10:52:00,51.0,45.0,30.05,East,87,0.0,0.0,80,0.00,BKN,,0.00,454.0,WeatherDisplay:10.37,2013-12-25 09:52:00,
2013-12-25 10:54:00,51.2,45.2,30.05,East,88,2.3,2.3,80,0.00,SCT,,0.00,213.0,WeatherDisplay:10.37,2013-12-25 09:54:00,
2013-12-25 10:55:00,51.3,45.3,30.05,East,81,2.3,2.3,80,0.00,SCT,,0.00,225.0,WeatherDisplay:10.37,2013-12-25 09:55:00,
2013-12-25 10:56:00,51.3,45.3,30.05,East,81,3.5,3.5,80,0.00,SCT,,0.00,253.0,WeatherDisplay:10.37,2013-12-25 09:56:00,
2013-12-25 10:57:00,51.4,45.1,30.05,East,81,1.2,1.2,79,0.00,SCT,,0.00,225.0,WeatherDisplay:10.37,2013-12-25 09:57:00,
2013-12-25 10:58:00,51.5,45.5,30.05,East,81,2.0,2.0,80,0.00,SCT,,0.00,213.0,WeatherDisplay:10.37,2013-12-25 09:58:00,
2013-12-25 10:59:00,51.5,45.2,30.05,East,81,2.3,2.3,79,0.00,SCT,,0.00,209.0,WeatherDisplay:10.37,2013-12-25 09:59:00,
2013-12-25 11:00:00,51.6,45.3,30.05,East,81,2.3,0.0,79,0.00,SCT,,0.00,211.0,WeatherDisplay:10.37,2013-12-25 10:00:00,
2013-12-25 11:01:00,51.6,45.3,30.05,East,81,0.0,0.0,79,0.00,SCT,,0.00,207.0,WeatherDisplay:10.37,2013-12-25 10:01:00,
2013-12-25 11:03:00,51.7,45.4,30.05,ENE,65,3.5,3.5,79,0.00,SCT,,0.00,197.0,WeatherDisplay:10.37,2013-12-25 10:03:00,
2013-12-25 11:04:00,51.7,45.4,30.05,ENE,65,2.3,2.3,79,0.00,SCT,,0.00,197.0,WeatherDisplay:10.37,2013-12-25 10:04:00,
2013-12-25 11:06:00,51.8,45.2,30.05,ENE,67,3.5,3.5,78,0.00,SCT,,0.00,220.0,WeatherDisplay:10.37,2013-12-25 10:06:00,
2013-12-25 11:07:00,51.9,45.6,30.05,ENE,67,3.5,3.5,79,0.00,SCT,,0.00,202.0,WeatherDisplay:10.37,2013-12-25 10:07:00,
2013-12-25 11:08:00,51.9,45.3,30.05,ENE,67,3.0,3.0,78,0.00,SCT,,0.00,209.0,WeatherDisplay:10.37,2013-12-25 10:08:00,
2013-12-25 11:09:00,51.9,45.3,30.04,ENE,67,3.5,3.5,78,0.00,SCT,,0.00,267.0,WeatherDisplay:10.37,2013-12-25 10:09:00,
2013-12-25 11:11:00,52.1,45.4,30.04,NE,55,3.0,3.0,78,0.00,SCT,,0.00,188.0,WeatherDisplay:10.37,2013-12-25 10:11:00,
2013-12-25 11:12:00,52.1,45.4,30.04,NE,55,3.5,3.5,78,0.00,SCT,,0.00,162.0,WeatherDisplay:10.37,2013-12-25 10:12:00,
2013-12-25 11:13:00,52.2,45.5,30.04,NE,55,3.5,0.0,78,0.00,SCT,,0.00,153.0,WeatherDisplay:10.37,2013-12-25 10:13:00,
2013-12-25 11:14:00,52.2,45.5,30.04,NE,55,0.0,0.0,78,0.00,SCT,,0.00,156.0,WeatherDisplay:10.37,2013-12-25 10:14:00,
2013-12-25 11:17:00,52.4,45.7,30.04,ENE,78,3.5,3.5,78,0.00,SCT,,0.00,229.0,WeatherDisplay:10.37,2013-12-25 10:17:00,
2013-12-25 11:18:00,52.5,45.8,30.04,ENE,70,3.5,3.5,78,0.00,SCT,,0.00,229.0,WeatherDisplay:10.37,2013-12-25 10:18:00,
2013-12-25 11:19:00,52.7,46.0,30.04,ENE,70,0.0,0.0,78,0.00,SCT,,0.00,454.0,WeatherDisplay:10.37,2013-12-25 10:19:00,
2013-12-25 11:21:00,53.0,46.0,30.04,ENE,70,3.5,3.5,77,0.00,SCT,,0.00,446.0,WeatherDisplay:10.37,2013-12-25 10:21:00,
2013-12-25 11:22:00,53.1,46.1,30.04,ENE,72,3.5,3.5,77,0.00,SCT,,0.00,404.0,WeatherDisplay:10.37,2013-12-25 10:22:00,
2013-12-25 11:23:00,53.2,46.2,30.04,ENE,57,3.5,3.5,77,0.00,SCT,,0.00,338.0,WeatherDisplay:10.37,2013-12-25 10:23:00,
2013-12-25 11:24:00,53.3,46.3,30.04,NE,51,3.5,3.5,77,0.00,FEW,,0.00,345.0,WeatherDisplay:10.37,2013-12-25 10:24:00,
2013-12-25 11:26:00,53.8,46.8,30.04,East,85,3.5,3.5,77,0.00,FEW,,0.00,443.0,WeatherDisplay:10.37,2013-12-25 10:26:00,
2013-12-25 11:28:00,54.1,46.7,30.04,East,94,2.3,0.0,76,0.00,CLR,,0.00,311.0,WeatherDisplay:10.37,2013-12-25 10:28:00,
2013-12-25 11:29:00,54.2,46.8,30.04,East,94,0.0,0.0,76,0.00,CLR,,0.00,311.0,WeatherDisplay:10.37,2013-12-25 10:29:00,
2013-12-25 11:30:00,54.3,46.9,30.04,East,94,0.0,0.0,76,0.00,CLR,,0.00,364.0,WeatherDisplay:10.37,2013-12-25 10:30:00,
2013-12-25 11:32:00,54.8,47.0,30.04,East,93,0.0,0.0,75,0.00,CLR,,0.00,378.0,WeatherDisplay:10.37,2013-12-25 10:32:00,
2013-12-25 11:33:00,55.0,47.2,30.04,East,92,0.0,0.0,75,0.00,CLR,,0.00,378.0,WeatherDisplay:10.37,2013-12-25 10:33:00,
2013-12-25 11:34:00,55.1,47.3,30.04,East,92,0.0,0.0,75,0.00,CLR,,0.00,378.0,WeatherDisplay:10.37,2013-12-25 10:34:00,
2013-12-25 11:35:00,55.3,47.5,30.04,ESE,114,3.5,3.5,75,0.00,CLR,,0.00,378.0,WeatherDisplay:10.37,2013-12-25 10:35:00,
2013-12-25 11:38:00,55.5,47.3,30.03,East,90,3.5,3.5,74,0.00,FEW,,0.00,283.0,WeatherDisplay:10.37,2013-12-25 10:38:00,
2013-12-25 11:39:00,55.6,47.4,30.03,East,91,5.8,5.8,74,0.00,FEW,,0.00,257.0,WeatherDisplay:10.37,2013-12-25 10:39:00,
2013-12-25 11:40:00,55.7,47.5,30.03,ESE,115,3.5,3.5,74,0.00,FEW,,0.00,211.0,WeatherDisplay:10.37,2013-12-25 10:40:00,
2013-12-25 11:41:00,55.7,47.5,30.03,East,87,3.5,3.5,74,0.00,FEW,,0.00,190.0,WeatherDisplay:10.37,2013-12-25 10:41:00,
2013-12-25 11:43:00,55.8,47.3,30.03,ESE,105,0.0,0.0,73,0.00,SCT,,0.00,190.0,WeatherDisplay:10.37,2013-12-25 10:43:00,
2013-12-25 11:44:00,55.9,47.4,30.03,East,101,2.3,2.3,73,0.00,SCT,,0.00,190.0,WeatherDisplay:10.37,2013-12-25 10:44:00,
2013-12-25 11:45:00,56.0,47.5,30.03,ESE,118,3.5,3.5,73,0.00,SCT,,0.00,190.0,WeatherDisplay:10.37,2013-12-25 10:45:00,
2013-12-25 11:47:00,56.3,48.1,30.02,SSE,149,4.6,4.6,74,0.00,SCT,,0.00,408.0,WeatherDisplay:10.37,2013-12-25 10:47:00,
2013-12-25 11:48:00,56.5,47.9,30.02,ESE,121,4.6,4.6,73,0.00,SCT,,0.00,403.0,WeatherDisplay:10.37,2013-12-25 10:48:00,
2013-12-25 11:49:00,56.6,48.0,30.02,SE,144,4.6,4.6,73,0.00,SCT,,0.00,343.0,WeatherDisplay:10.37,2013-12-25 10:49:00,
2013-12-25 11:50:00,56.6,48.0,30.02,SE,144,4.6,4.6,73,0.00,SCT,,0.00,343.0,WeatherDisplay:10.37,2013-12-25 10:50:00,
2013-12-25 11:51:00,56.8,48.2,30.02,SE,144,4.6,4.6,73,0.00,FEW,,0.00,478.0,WeatherDisplay:10.37,2013-12-25 10:51:00,
2013-12-25 11:52:00,56.9,48.3,30.02,SSE,151,2.3,2.3,73,0.00,FEW,,0.00,411.0,WeatherDisplay:10.37,2013-12-25 10:52:00,
2013-12-25 11:53:00,57.0,48.4,30.02,SSE,151,0.0,0.0,73,0.00,FEW,,0.00,348.0,WeatherDisplay:10.37,2013-12-25 10:53:00,
2013-12-25 11:54:00,57.1,48.2,30.02,SSE,150,0.0,0.0,72,0.00,FEW,,0.00,485.0,WeatherDisplay:10.37,2013-12-25 10:54:00,
2013-12-25 11:55:00,57.2,48.3,30.02,SSE,150,0.0,0.0,72,0.00,FEW,,0.00,485.0,WeatherDisplay:10.37,2013-12-25 10:55:00,
2013-12-25 11:56:00,57.4,48.4,30.02,SSE,157,1.2,1.2,72,0.00,CLR,,0.00,515.0,WeatherDisplay:10.37,2013-12-25 10:56:00,
2013-12-25 11:57:00,57.5,48.5,30.02,SSE,157,0.0,0.0,72,0.00,CLR,,0.00,515.0,WeatherDisplay:10.37,2013-12-25 10:57:00,
2013-12-25 11:58:00,57.6,48.6,30.02,SSE,157,0.0,0.0,72,0.00,CLR,,0.00,515.0,WeatherDisplay:10.37,2013-12-25 10:58:00,
2013-12-25 12:00:00,57.7,48.7,30.02,SSE,154,0.0,0.0,72,0.00,CLR,,0.00,515.0,WeatherDisplay:10.37,2013-12-25 11:00:00,
2013-12-25 12:01:00,57.9,48.9,30.02,SSE,154,0.0,0.0,72,0.00,CLR,,0.00,199.0,WeatherDisplay:10.37,2013-12-25 11:01:00,
2013-12-25 12:02:00,58.0,49.0,30.02,SSE,153,3.5,3.5,72,0.00,CLR,,0.00,230.0,WeatherDisplay:10.37,2013-12-25 11:02:00,
2013-12-25 12:03:00,58.1,49.1,30.02,SE,144,3.5,3.5,72,0.00,CLR,,0.00,239.0,WeatherDisplay:10.37,2013-12-25 11:03:00,
2013-12-25 12:04:00,58.2,48.8,30.02,SE,144,3.5,3.5,71,0.00,CLR,,0.00,504.0,WeatherDisplay:10.37,2013-12-25 11:04:00,
2013-12-25 12:05:00,58.3,48.9,30.02,WNW,283,0.0,0.0,71,0.00,CLR,,0.00,504.0,WeatherDisplay:10.37,2013-12-25 11:05:00,
2013-12-25 12:06:00,58.3,48.9,30.02,WNW,283,0.0,0.0,71,0.00,CLR,,0.00,541.0,WeatherDisplay:10.37,2013-12-25 11:06:00,
2013-12-25 12:07:00,58.4,49.0,30.02,SW,220,5.0,5.0,71,0.00,CLR,,0.00,264.0,WeatherDisplay:10.37,2013-12-25 11:07:00,
2013-12-25 12:09:00,58.5,48.7,30.02,SSW,196,8.1,8.1,70,0.00,FEW,,0.00,264.0,WeatherDisplay:10.37,2013-12-25 11:09:00,
2013-12-25 12:10:00,58.5,48.7,30.02,SSW,196,3.5,3.5,70,0.00,FEW,,0.00,264.0,WeatherDisplay:10.37,2013-12-25 11:10:00,
2013-12-25 12:11:00,58.5,48.7,30.02,SSE,167,4.6,4.6,70,0.00,FEW,,0.00,264.0,WeatherDisplay:10.37,2013-12-25 11:11:00,
2013-12-25 12:12:00,58.6,49.2,30.02,SSE,166,4.6,4.6,71,0.00,FEW,,0.00,264.0,WeatherDisplay:10.37,2013-12-25 11:12:00,
2013-12-25 12:15:00,58.6,48.8,30.02,WSW,253,4.6,4.6,70,0.00,FEW,,0.00,450.0,WeatherDisplay:10.37,2013-12-25 11:15:00,
2013-12-25 12:16:00,58.9,49.5,30.02,SW,219,4.6,4.6,71,0.00,FEW,,0.00,418.0,WeatherDisplay:10.37,2013-12-25 11:16:00,
2013-12-25 12:17:00,58.9,49.1,30.02,SW,217,4.6,4.6,70,0.00,FEW,,0.00,418.0,WeatherDisplay:10.37,2013-12-25 11:17:00,
2013-12-25 12:20:00,58.9,49.1,30.02,South,181,5.8,5.8,70,0.00,CLR,,0.00,418.0,WeatherDisplay:10.37,2013-12-25 11:20:00,
2013-12-25 12:21:00,58.9,49.1,30.01,SSW,213,9.2,9.2,70,0.00,CLR,,0.00,213.0,WeatherDisplay:10.37,2013-12-25 11:21:00,
2013-12-25 12:22:00,58.9,49.1,30.01,SSW,200,8.1,8.1,70,0.00,CLR,,0.00,283.0,WeatherDisplay:10.37,2013-12-25 11:22:00,
2013-12-25 12:23:00,58.9,49.1,30.01,SSW,207,9.2,9.2,70,0.00,CLR,,0.00,225.0,WeatherDisplay:10.37,2013-12-25 11:23:00,
2013-12-25 12:26:00,58.6,48.8,30.01,SSW,194,5.8,5.8,70,0.00,FEW,,0.00,163.0,WeatherDisplay:10.37,2013-12-25 11:26:00,
2013-12-25 12:27:00,58.5,48.7,30.01,South,171,5.8,5.8,70,0.00,FEW,,0.00,172.0,WeatherDisplay:10.37,2013-12-25 11:27:00,
2013-12-25 12:28:00,58.5,48.7,30.01,South,190,6.9,6.9,70,0.00,SCT,,0.00,174.0,WeatherDisplay:10.37,2013-12-25 11:28:00,
2013-12-25 12:31:00,58.4,49.0,30.01,South,190,5.8,5.8,71,0.00,SCT,,0.00,274.0,WeatherDisplay:10.37,2013-12-25 11:31:00,
2013-12-25 12:32:00,58.4,49.0,30.01,SSW,208,6.9,6.9,71,0.00,SCT,,0.00,294.0,WeatherDisplay:10.37,2013-12-25 11:32:00,
2013-12-25 12:33:00,58.5,49.1,30.01,SSW,209,7.0,7.0,71,0.00,SCT,,0.00,294.0,WeatherDisplay:10.37,2013-12-25 11:33:00,
2013-12-25 12:35:00,58.4,49.0,30.01,SSW,209,6.9,6.9,71,0.00,SCT,,0.00,153.0,WeatherDisplay:10.37,2013-12-25 11:35:00,
2013-12-25 12:37:00,58.4,49.0,30.01,SW,226,4.6,4.6,71,0.00,SCT,,0.00,141.0,WeatherDisplay:10.37,2013-12-25 11:37:00,
2013-12-25 12:38:00,58.4,49.0,30.00,SSW,194,5.0,5.0,71,0.00,SCT,,0.00,141.0,WeatherDisplay:10.37,2013-12-25 11:38:00,
2013-12-25 12:39:00,58.4,49.0,30.00,SSW,202,5.0,5.0,71,0.00,SCT,,0.00,132.0,WeatherDisplay:10.37,2013-12-25 11:39:00,
2013-12-25 12:40:00,58.4,49.0,30.00,South,169,4.6,4.6,71,0.00,SCT,,0.00,137.0,WeatherDisplay:10.37,2013-12-25 11:40:00,
2013-12-25 12:42:00,58.3,48.9,30.00,SSE,165,4.6,4.6,71,0.00,SCT,,0.00,130.0,WeatherDisplay:10.37,2013-12-25 11:42:00,
2013-12-25 12:43:00,58.4,49.0,30.00,SE,138,4.6,4.6,71,0.00,SCT,,0.00,114.0,WeatherDisplay:10.37,2013-12-25 11:43:00,
2013-12-25 12:44:00,58.3,48.9,30.00,South,187,3.5,0.0,71,0.00,SCT,,0.00,109.0,WeatherDisplay:10.37,2013-12-25 11:44:00,
2013-12-25 12:45:00,58.4,49.0,30.00,South,182,0.0,0.0,71,0.00,BKN,,0.00,118.0,WeatherDisplay:10.37,2013-12-25 11:45:00,
2013-12-25 12:48:00,58.4,49.0,30.00,South,181,6.0,6.0,71,0.00,BKN,,0.00,144.0,WeatherDisplay:10.37,2013-12-25 11:48:00,
2013-12-25 12:49:00,58.4,49.0,30.00,South,190,8.0,8.0,71,0.00,BKN,,0.00,144.0,WeatherDisplay:10.37,2013-12-25 11:49:00,
2013-12-25 12:50:00,58.4,49.0,29.99,SW,229,8.1,8.1,71,0.00,BKN,,0.00,134.0,WeatherDisplay:10.37,2013-12-25 11:50:00,
2013-12-25 12:52:00,58.4,49.4,29.99,WSW,242,3.5,3.5,72,0.00,BKN,,0.00,91.0,WeatherDisplay:10.37,2013-12-25 11:52:00,
2013-12-25 12:54:00,58.4,49.4,29.99,WSW,252,0.0,0.0,72,0.00,BKN,,0.00,90.0,WeatherDisplay:10.37,2013-12-25 11:54:00,
2013-12-25 12:55:00,58.4,49.4,29.99,SSE,148,6.9,6.9,72,0.00,BKN,,0.00,90.0,WeatherDisplay:10.37,2013-12-25 11:55:00,
2013-12-25 12:57:00,58.3,49.3,29.99,SSE,155,10.4,10.4,72,0.00,BKN,,0.00,67.0,WeatherDisplay:10.37,2013-12-25 11:57:00,
2013-12-25 12:59:00,58.3,49.3,29.99,South,169,9.2,9.2,72,0.00,BKN,,0.00,58.0,WeatherDisplay:10.37,2013-12-25 11:59:00,
2013-12-25 13:00:00,58.2,49.2,29.99,South,191,9.2,9.2,72,0.00,BKN,,0.00,47.0,WeatherDisplay:10.37,2013-12-25 12:00:00,
2013-12-25 13:01:00,58.2,49.2,29.99,SSW,196,5.8,5.8,72,0.00,BKN,,0.00,47.0,WeatherDisplay:10.37,2013-12-25 12:01:00,
2013-12-25 13:03:00,58.2,49.2,29.99,South,180,13.8,13.8,72,0.00,BKN,,0.00,49.0,WeatherDisplay:10.37,2013-12-25 12:03:00,
2013-12-25 13:04:00,58.1,49.1,29.99,South,172,9.2,9.2,72,0.00,BKN,,0.00,49.0,WeatherDisplay:10.37,2013-12-25 12:04:00,
2013-12-25 13:05:00,58.1,49.1,29.99,SSW,192,9.2,9.2,72,0.00,BKN,,0.00,51.0,WeatherDisplay:10.37,2013-12-25 12:05:00,
2013-12-25 13:06:00,58.1,49.1,29.99,SE,142,8.1,8.1,72,0.00,BKN,,0.00,51.0,WeatherDisplay:10.37,2013-12-25 12:06:00,
2013-12-25 13:08:00,58.0,49.0,29.99,SSW,207,7.0,7.0,72,0.00,BKN,,0.00,62.0,WeatherDisplay:10.37,2013-12-25 12:08:00,
2013-12-25 13:10:00,58.0,49.0,29.99,SSW,209,9.2,9.2,72,0.00,BKN,,0.00,88.0,WeatherDisplay:10.37,2013-12-25 12:10:00,
2013-12-25 13:11:00,58.0,49.0,29.99,SSW,205,13.8,13.8,72,0.00,BKN,,0.00,134.0,WeatherDisplay:10.37,2013-12-25 12:11:00,
2013-12-25 13:13:00,58.0,49.0,29.99,South,186,10.4,10.4,72,0.00,BKN,,0.00,116.0,WeatherDisplay:10.37,2013-12-25 12:13:00,
2013-12-25 13:15:00,58.0,49.4,29.99,South,179,6.9,6.9,73,0.00,BKN,,0.00,118.0,WeatherDisplay:10.37,2013-12-25 12:15:00,
2013-12-25 13:16:00,58.0,49.4,29.99,South,184,9.2,9.2,73,0.00,BKN,,0.00,125.0,WeatherDisplay:10.37,2013-12-25 12:16:00,
2013-12-25 13:17:00,58.0,49.4,29.99,SSW,197,10.4,10.4,73,0.00,BKN,,0.00,125.0,WeatherDisplay:10.37,2013-12-25 12:17:00,
2013-12-25 13:18:00,58.0,49.4,29.99,South,178,13.8,13.8,73,0.00,BKN,,0.00,123.0,WeatherDisplay:10.37,2013-12-25 12:18:00,
2013-12-25 13:20:00,58.0,49.4,29.99,South,182,14.0,14.0,73,0.00,BKN,,0.00,125.0,WeatherDisplay:10.37,2013-12-25 12:20:00,
2013-12-25 13:22:00,57.9,49.3,29.99,South,190,15.0,15.0,73,0.00,BKN,,0.00,123.0,WeatherDisplay:10.37,2013-12-25 12:22:00,
2013-12-25 13:23:00,57.9,49.3,29.99,SSW,196,15.0,15.0,73,0.00,BKN,,0.00,128.0,WeatherDisplay:10.37,2013-12-25 12:23:00,
2013-12-25 13:24:00,57.9,49.3,29.98,SSW,192,12.7,12.7,73,0.00,BKN,,0.00,128.0,WeatherDisplay:10.37,2013-12-25 12:24:00,
2013-12-25 13:25:00,57.9,49.3,29.98,South,190,11.0,11.0,73,0.00,BKN,,0.00,128.0,WeatherDisplay:10.37,2013-12-25 12:25:00,
2013-12-25 13:26:00,57.8,49.2,29.98,SSW,198,13.8,13.8,73,0.00,BKN,,0.00,149.0,WeatherDisplay:10.37,2013-12-25 12:26:00,
2013-12-25 13:27:00,57.8,49.2,29.98,SSW,194,11.5,11.5,73,0.00,BKN,,0.00,149.0,WeatherDisplay:10.37,2013-12-25 12:27:00,
2013-12-25 13:28:00,57.8,49.2,29.98,SSW,196,11.5,11.5,73,0.00,BKN,,0.00,148.0,WeatherDisplay:10.37,2013-12-25 12:28:00,
2013-12-25 13:29:00,57.8,49.2,29.98,SW,227,6.9,6.9,73,0.00,BKN,,0.00,148.0,WeatherDisplay:10.37,2013-12-25 12:29:00,
2013-12-25 13:31:00,57.9,49.3,29.98,SW,214,10.0,10.0,73,0.00,SCT,,0.00,114.0,WeatherDisplay:10.37,2013-12-25 12:31:00,
2013-12-25 13:32:00,57.9,49.3,29.98,South,188,11.5,11.5,73,0.00,SCT,,0.00,105.0,WeatherDisplay:10.37,2013-12-25 12:32:00,
2013-12-25 13:33:00,57.9,49.7,29.98,South,190,11.5,11.5,74,0.00,BKN,,0.00,84.0,WeatherDisplay:10.37,2013-12-25 12:33:00,
2013-12-25 13:34:00,57.9,49.7,29.98,SSW,204,8.1,8.1,74,0.00,BKN,,0.00,84.0,WeatherDisplay:10.37,2013-12-25 12:34:00,
2013-12-25 13:35:00,57.9,49.7,29.98,SW,215,8.1,8.1,74,0.00,BKN,,0.00,72.0,WeatherDisplay:10.37,2013-12-25 12:35:00,
2013-12-25 13:36:00,57.9,49.7,29.98,SSW,196,6.0,6.0,74,0.00,BKN,,0.00,47.0,WeatherDisplay:10.37,2013-12-25 12:36:00,
2013-12-25 13:37:00,57.9,49.7,29.98,SW,228,8.1,8.1,74,0.00,BKN,,0.00,47.0,WeatherDisplay:10.37,2013-12-25 12:37:00,
2013-12-25 13:39:00,57.9,49.7,29.98,SSW,199,6.9,6.9,74,0.00,BKN,,0.00,47.0,WeatherDisplay:10.37,2013-12-25 12:39:00,
2013-12-25 13:41:00,57.9,49.7,29.98,SSW,205,6.9,6.9,74,0.00,BKN,,0.00,39.0,WeatherDisplay:10.37,2013-12-25 12:41:00,
2013-12-25 13:42:00,57.9,49.7,29.98,South,191,9.2,9.2,74,0.00,BKN,,0.00,62.0,WeatherDisplay:10.37,2013-12-25 12:42:00,
2013-12-25 13:43:00,57.9,49.7,29.98,SSW,196,10.4,10.4,74,0.00,BKN,,0.00,76.0,WeatherDisplay:10.37,2013-12-25 12:43:00,
2013-12-25 13:44:00,57.8,49.6,29.98,SSW,201,8.1,8.1,74,0.00,BKN,,0.00,90.0,WeatherDisplay:10.37,2013-12-25 12:44:00,
2013-12-25 13:45:00,57.8,49.6,29.98,South,178,8.1,8.1,74,0.00,BKN,,0.00,102.0,WeatherDisplay:10.37,2013-12-25 12:45:00,
2013-12-25 13:46:00,57.8,49.6,29.98,SSW,192,11.5,11.5,74,0.00,BKN,,0.00,141.0,WeatherDisplay:10.37,2013-12-25 12:46:00,
2013-12-25 13:48:00,57.8,49.6,29.98,SSW,192,8.1,8.1,74,0.00,BKN,,0.00,141.0,WeatherDisplay:10.37,2013-12-25 12:48:00,
2013-12-25 13:49:00,57.8,49.6,29.98,SSW,211,11.5,11.5,74,0.00,BKN,,0.00,141.0,WeatherDisplay:10.37,2013-12-25 12:49:00,
2013-12-25 13:51:00,57.7,49.5,29.98,SW,223,11.5,11.5,74,0.00,BKN,,0.00,132.0,WeatherDisplay:10.37,2013-12-25 12:51:00,
2013-12-25 13:53:00,57.7,49.5,29.98,SSW,205,8.1,8.1,74,0.00,SCT,,0.00,132.0,WeatherDisplay:10.37,2013-12-25 12:53:00,
2013-12-25 13:55:00,57.8,49.6,29.98,SSW,209,9.2,9.2,74,0.00,SCT,,0.00,163.0,WeatherDisplay:10.37,2013-12-25 12:55:00,
2013-12-25 13:57:00,57.8,49.6,29.98,SSW,198,8.1,8.1,74,0.00,SCT,,0.00,204.0,WeatherDisplay:10.37,2013-12-25 12:57:00,
2013-12-25 13:58:00,57.9,49.7,29.98,SW,221,10.4,10.4,74,0.00,SCT,,0.00,204.0,WeatherDisplay:10.37,2013-12-25 12:58:00,
2013-12-25 14:00:00,57.9,49.7,29.98,SW,236,6.9,6.9,74,0.00,SCT,,0.00,216.0,WeatherDisplay:10.37,2013-12-25 13:00:00,
2013-12-25 14:03:00,58.1,49.9,29.97,SW,219,8.1,8.1,74,0.00,SCT,,0.00,162.0,WeatherDisplay:10.37,2013-12-25 13:03:00,
2013-12-25 14:04:00,58.1,49.9,29.97,SW,216,6.9,6.9,74,0.00,SCT,,0.00,158.0,WeatherDisplay:10.37,2013-12-25 13:04:00,
2013-12-25 14:07:00,58.3,50.0,29.97,WSW,245,8.1,8.1,74,0.00,SCT,,0.00,162.0,WeatherDisplay:10.37,2013-12-25 13:07:00,
2013-12-25 14:08:00,58.3,50.0,29.98,South,180,8.0,8.0,74,0.00,SCT,,0.00,162.0,WeatherDisplay:10.37,2013-12-25 13:08:00,
2013-12-25 14:09:00,58.3,50.0,29.98,SSW,201,11.5,11.5,74,0.00,SCT,,0.00,162.0,WeatherDisplay:10.37,2013-12-25 13:09:00,
2013-12-25 14:10:00,58.3,50.0,29.97,SSW,200,11.5,11.5,74,0.00,SCT,,0.00,162.0,WeatherDisplay:10.37,2013-12-25 13:10:00,
2013-12-25 14:13:00,58.3,49.7,29.97,SSW,198,11.5,11.5,73,0.00,SCT,,0.00,139.0,WeatherDisplay:10.37,2013-12-25 13:13:00,
2013-12-25 14:14:00,58.3,49.7,29.97,South,190,9.2,9.2,73,0.00,SCT,,0.00,125.0,WeatherDisplay:10.37,2013-12-25 13:14:00,
2013-12-25 14:15:00,58.3,49.7,29.97,SW,215,9.2,9.2,73,0.00,SCT,,0.00,118.0,WeatherDisplay:10.37,2013-12-25 13:15:00,
2013-12-25 14:18:00,58.2,49.6,29.97,SSW,213,12.7,12.7,73,0.00,SCT,,0.00,104.0,WeatherDisplay:10.37,2013-12-25 13:18:00,
2013-12-25 14:19:00,58.1,49.5,29.97,South,181,8.1,8.1,73,0.00,SCT,,0.00,104.0,WeatherDisplay:10.37,2013-12-25 13:19:00,
2013-12-25 14:20:00,58.1,49.5,29.97,South,188,9.2,9.2,73,0.00,SCT,,0.00,95.0,WeatherDisplay:10.37,2013-12-25 13:20:00,
2013-12-25 14:23:00,58.1,49.5,29.97,SSW,197,8.1,8.1,73,0.00,SCT,,0.00,88.0,WeatherDisplay:10.37,2013-12-25 13:23:00,
2013-12-25 14:24:00,58.1,49.5,29.97,SSW,205,6.9,6.9,73,0.00,SCT,,0.00,91.0,WeatherDisplay:10.37,2013-12-25 13:24:00,
2013-12-25 14:26:00,58.1,49.5,29.97,SSW,200,10.4,10.4,73,0.00,BKN,,0.00,90.0,WeatherDisplay:10.37,2013-12-25 13:26:00,
2013-12-25 14:28:00,58.0,49.4,29.97,SW,219,8.1,8.1,73,0.00,BKN,,0.00,98.0,WeatherDisplay:10.37,2013-12-25 13:28:00,
2013-12-25 14:30:00,58.0,49.4,29.97,WSW,240,10.4,10.4,73,0.00,BKN,,0.00,102.0,WeatherDisplay:10.37,2013-12-25 13:30:00,
2013-12-25 14:31:00,58.0,49.4,29.96,WSW,238,6.9,6.9,73,0.00,BKN,,0.00,105.0,WeatherDisplay:10.37,2013-12-25 13:31:00,
2013-12-25 14:33:00,57.9,49.3,29.97,WSW,240,6.9,6.9,73,0.00,SCT,,0.00,109.0,WeatherDisplay:10.37,2013-12-25 13:33:00,
2013-12-25 14:35:00,57.9,49.3,29.97,SW,230,11.5,11.5,73,0.00,SCT,,0.00,109.0,WeatherDisplay:10.37,2013-12-25 13:35:00,
2013-12-25 14:36:00,57.9,49.3,29.97,SW,225,13.0,13.0,73,0.00,SCT,,0.00,109.0,WeatherDisplay:10.37,2013-12-25 13:36:00,
2013-12-25 14:38:00,57.8,49.2,29.97,WSW,240,10.4,10.4,73,0.00,SCT,,0.00,88.0,WeatherDisplay:10.37,2013-12-25 13:38:00,
2013-12-25 14:39:00,57.8,49.2,29.97,SSW,201,9.2,9.2,73,0.00,SCT,,0.00,88.0,WeatherDisplay:10.37,2013-12-25 13:39:00,
2013-12-25 14:40:00,57.8,49.2,29.97,West,260,6.9,6.9,73,0.00,SCT,,0.00,83.0,WeatherDisplay:10.37,2013-12-25 13:40:00,
2013-12-25 14:41:00,57.8,49.2,29.97,West,261,4.6,4.6,73,0.00,SCT,,0.00,83.0,WeatherDisplay:10.37,2013-12-25 13:41:00,
2013-12-25 14:44:00,57.7,49.1,29.97,WSW,240,10.4,10.4,73,0.00,SCT,,0.00,91.0,WeatherDisplay:10.37,2013-12-25 13:44:00,
2013-12-25 14:45:00,57.6,49.0,29.96,WSW,242,9.0,9.0,73,0.00,SCT,,0.00,81.0,WeatherDisplay:10.37,2013-12-25 13:45:00,
2013-12-25 14:46:00,57.6,49.0,29.96,WSW,246,9.2,9.2,73,0.00,SCT,,0.00,76.0,WeatherDisplay:10.37,2013-12-25 13:46:00,
2013-12-25 14:47:00,57.5,48.9,29.97,WSW,242,8.1,8.1,73,0.00,SCT,,0.00,76.0,WeatherDisplay:10.37,2013-12-25 13:47:00,
2013-12-25 14:49:00,57.4,48.8,29.96,WSW,248,5.8,5.8,73,0.00,SCT,,0.00,76.0,WeatherDisplay:10.37,2013-12-25 13:49:00,
2013-12-25 14:50:00,57.3,48.7,29.96,WSW,252,6.0,6.0,73,0.00,SCT,,0.00,77.0,WeatherDisplay:10.37,2013-12-25 13:50:00,
2013-12-25 14:51:00,57.3,48.7,29.96,WSW,239,6.0,6.0,73,0.00,SCT,,0.00,77.0,WeatherDisplay:10.37,2013-12-25 13:51:00,
2013-12-25 14:52:00,57.3,49.1,29.96,WSW,238,6.9,6.9,74,0.00,SCT,,0.00,77.0,WeatherDisplay:10.37,2013-12-25 13:52:00,
2013-12-25 14:53:00,57.2,49.0,29.96,SW,229,6.9,6.9,74,0.00,SCT,,0.00,77.0,WeatherDisplay:10.37,2013-12-25 13:53:00,
2013-12-25 14:54:00,57.2,49.0,29.96,WSW,250,3.5,3.5,74,0.00,SCT,,0.00,83.0,WeatherDisplay:10.37,2013-12-25 13:54:00,
2013-12-25 14:56:00,57.2,49.0,29.96,West,262,3.0,3.0,74,0.00,SCT,,0.00,77.0,WeatherDisplay:10.37,2013-12-25 13:56:00,
2013-12-25 14:57:00,57.2,49.0,29.96,West,265,3.5,3.5,74,0.00,SCT,,0.00,74.0,WeatherDisplay:10.37,2013-12-25 13:57:00,
2013-12-25 14:58:00,57.1,48.9,29.96,WSW,246,2.3,0.0,74,0.00,SCT,,0.00,72.0,WeatherDisplay:10.37,2013-12-25 13:58:00,
2013-12-25 14:59:00,57.1,48.9,29.96,WSW,250,3.5,3.5,74,0.00,SCT,,0.00,76.0,WeatherDisplay:10.37,2013-12-25 13:59:00,
2013-12-25 15:01:00,57.1,48.9,29.96,SSW,203,4.6,4.6,74,0.00,SCT,,0.00,83.0,WeatherDisplay:10.37,2013-12-25 14:01:00,
2013-12-25 15:03:00,57.1,48.9,29.97,WSW,241,2.3,2.3,74,0.00,SCT,,0.00,83.0,WeatherDisplay:10.37,2013-12-25 14:03:00,
2013-12-25 15:05:00,57.0,48.8,29.96,West,263,3.5,3.5,74,0.00,SCT,,0.00,83.0,WeatherDisplay:10.37,2013-12-25 14:05:00,
2013-12-25 15:06:00,57.0,48.8,29.96,SW,229,3.5,0.0,74,0.00,SCT,,0.00,77.0,WeatherDisplay:10.37,2013-12-25 14:06:00,
2013-12-25 15:08:00,57.0,48.8,29.96,SW,226,0.0,0.0,74,0.00,SCT,,0.00,76.0,WeatherDisplay:10.37,2013-12-25 14:08:00,
2013-12-25 15:09:00,57.0,48.8,29.96,SW,234,0.0,0.0,74,0.00,SCT,,0.00,77.0,WeatherDisplay:10.37,2013-12-25 14:09:00,
2013-12-25 15:10:00,57.1,48.9,29.96,SW,214,5.0,5.0,74,0.00,SCT,,0.00,79.0,WeatherDisplay:10.37,2013-12-25 14:10:00,
2013-12-25 15:14:00,57.1,48.9,29.96,SW,220,4.6,4.6,74,0.00,SCT,,0.00,90.0,WeatherDisplay:10.37,2013-12-25 14:14:00,
2013-12-25 15:15:00,57.1,48.9,29.96,SW,227,4.6,4.6,74,0.00,SCT,,0.00,90.0,WeatherDisplay:10.37,2013-12-25 14:15:00,
2013-12-25 15:19:00,57.3,49.1,29.96,SSW,212,5.8,5.8,74,0.00,SCT,,0.00,86.0,WeatherDisplay:10.37,2013-12-25 14:19:00,
2013-12-25 15:20:00,57.3,49.1,29.96,WSW,237,7.0,7.0,74,0.00,SCT,,0.00,86.0,WeatherDisplay:10.37,2013-12-25 14:20:00,
2013-12-25 15:21:00,57.3,49.1,29.96,SW,225,6.9,6.9,74,0.00,SCT,,0.00,77.0,WeatherDisplay:10.37,2013-12-25 14:21:00,
2013-12-25 15:22:00,57.3,49.1,29.96,SSW,204,4.6,4.6,74,0.00,SCT,,0.00,76.0,WeatherDisplay:10.37,2013-12-25 14:22:00,
2013-12-25 15:25:00,57.4,49.2,29.96,SSW,204,8.1,8.1,74,0.00,SCT,,0.00,67.0,WeatherDisplay:10.37,2013-12-25 14:25:00,
2013-12-25 15:26:00,57.4,49.2,29.96,SW,236,6.9,6.9,74,0.00,SCT,,0.00,67.0,WeatherDisplay:10.37,2013-12-25 14:26:00,
2013-12-25 15:28:00,57.5,49.3,29.96,SSW,205,8.0,8.0,74,0.00,SCT,,0.00,56.0,WeatherDisplay:10.37,2013-12-25 14:28:00,
2013-12-25 15:30:00,57.5,49.3,29.96,SW,218,6.9,7.4,74,0.00,SCT,,0.00,53.0,WeatherDisplay:10.37,2013-12-25 14:30:00,
2013-12-25 15:31:00,57.5,49.3,29.96,SSW,211,10.4,10.4,74,0.00,SCT,,0.00,53.0,WeatherDisplay:10.37,2013-12-25 14:31:00,
2013-12-25 15:32:00,57.5,48.9,29.96,SSW,196,11.5,11.5,73,0.00,SCT,,0.00,58.0,WeatherDisplay:10.37,2013-12-25 14:32:00,
2013-12-25 15:33:00,57.5,48.9,29.96,SW,230,11.5,11.5,73,0.00,SCT,,0.00,53.0,WeatherDisplay:10.37,2013-12-25 14:33:00,
2013-12-25 15:36:00,57.5,48.9,29.96,South,188,6.9,6.9,73,0.00,SCT,,0.00,53.0,WeatherDisplay:10.37,2013-12-25 14:36:00,
2013-12-25 15:37:00,57.5,48.9,29.96,SSW,202,6.9,6.9,73,0.00,SCT,,0.00,46.0,WeatherDisplay:10.37,2013-12-25 14:37:00,
2013-12-25 15:38:00,57.4,48.8,29.96,South,189,6.9,6.9,73,0.00,SCT,,0.00,46.0,WeatherDisplay:10.37,2013-12-25 14:38:00,
2013-12-25 15:41:00,57.4,48.8,29.96,SW,234,6.9,6.9,73,0.00,BKN,,0.00,33.0,WeatherDisplay:10.37,2013-12-25 14:41:00,
2013-12-25 15:42:00,57.4,48.8,29.96,SW,215,6.9,6.9,73,0.00,BKN,,0.00,28.0,WeatherDisplay:10.37,2013-12-25 14:42:00,
2013-12-25 15:43:00,57.4,48.8,29.96,SW,223,5.8,5.8,73,0.00,BKN,,0.00,26.0,WeatherDisplay:10.37,2013-12-25 14:43:00,
2013-12-25 15:46:00,57.4,49.2,29.96,SSW,210,5.8,5.8,74,0.00,BKN,,0.00,25.0,WeatherDisplay:10.37,2013-12-25 14:46:00,
2013-12-25 15:47:00,57.3,49.1,29.96,SW,229,4.6,4.6,74,0.00,BKN,,0.00,25.0,WeatherDisplay:10.37,2013-12-25 14:47:00,
2013-12-25 15:48:00,57.3,49.1,29.96,SW,226,3.5,3.5,74,0.00,BKN,,0.00,25.0,WeatherDisplay:10.37,2013-12-25 14:48:00,
2013-12-25 15:52:00,57.3,49.1,29.96,SW,229,0.0,0.0,74,0.00,BKN,,0.00,25.0,WeatherDisplay:10.37,2013-12-25 14:52:00,
2013-12-25 15:53:00,57.3,49.1,29.96,SW,229,0.0,0.0,74,0.00,BKN,,0.00,25.0,WeatherDisplay:10.37,2013-12-25 14:53:00,
2013-12-25 15:54:00,57.2,49.0,29.95,WSW,238,0.0,0.0,74,0.00,BKN,,0.00,25.0,WeatherDisplay:10.37,2013-12-25 14:54:00,
2013-12-25 15:57:00,57.2,49.0,29.95,WSW,242,4.6,4.6,74,0.00,BKN,,0.00,32.0,WeatherDisplay:10.37,2013-12-25 14:57:00,
2013-12-25 15:58:00,57.2,49.0,29.96,WSW,256,5.0,5.0,74,0.00,BKN,,0.00,32.0,WeatherDisplay:10.37,2013-12-25 14:58:00,
2013-12-25 15:59:00,57.1,48.9,29.96,WSW,257,4.6,4.6,74,0.00,BKN,,0.00,30.0,WeatherDisplay:10.37,2013-12-25 14:59:00,
2013-12-25 16:02:00,57.0,48.8,29.96,SW,223,5.8,5.8,74,0.00,BKN,,0.00,32.0,WeatherDisplay:10.37,2013-12-25 15:02:00,
2013-12-25 16:03:00,57.0,48.8,29.96,SW,227,4.6,4.6,74,0.00,BKN,,0.00,30.0,WeatherDisplay:10.37,2013-12-25 15:03:00,
2013-12-25 16:04:00,57.0,48.8,29.96,WSW,240,4.6,4.6,74,0.00,BKN,,0.00,30.0,WeatherDisplay:10.37,2013-12-25 15:04:00,
2013-12-25 16:05:00,56.9,48.7,29.96,WSW,238,4.6,4.6,74,0.00,BKN,,0.00,30.0,WeatherDisplay:10.37,2013-12-25 15:05:00,
2013-12-25 16:07:00,56.8,48.6,29.95,WSW,246,3.5,3.5,74,0.00,BKN,,0.00,30.0,WeatherDisplay:10.37,2013-12-25 15:07:00,
2013-12-25 16:08:00,56.8,48.6,29.95,SW,232,4.6,4.6,74,0.00,BKN,,0.00,32.0,WeatherDisplay:10.37,2013-12-25 15:08:00,
2013-12-25 16:09:00,56.8,48.6,29.95,WSW,242,3.0,3.0,74,0.00,BKN,,0.00,32.0,WeatherDisplay:10.37,2013-12-25 15:09:00,
2013-12-25 16:10:00,56.8,48.6,29.95,WSW,247,4.6,4.6,74,0.00,BKN,,0.00,32.0,WeatherDisplay:10.37,2013-12-25 15:10:00,
2013-12-25 16:12:00,56.7,48.5,29.95,WSW,244,1.0,0.0,74,0.00,BKN,,0.00,32.0,WeatherDisplay:10.37,2013-12-25 15:12:00,
2013-12-25 16:13:00,56.7,48.9,29.95,WSW,241,3.0,3.0,75,0.00,BKN,,0.00,30.0,WeatherDisplay:10.37,2013-12-25 15:13:00,
2013-12-25 16:15:00,56.7,48.9,29.95,SW,225,3.5,0.0,75,0.00,BKN,,0.00,25.0,WeatherDisplay:10.37,2013-12-25 15:15:00,
2013-12-25 16:16:00,56.7,48.9,29.95,SW,225,0.0,0.0,75,0.00,BKN,,0.00,25.0,WeatherDisplay:10.37,2013-12-25 15:16:00,
2013-12-25 16:17:00,56.6,48.8,29.95,WSW,247,0.0,0.4,75,0.00,BKN,,0.00,23.0,WeatherDisplay:10.37,2013-12-25 15:17:00,
2013-12-25 16:18:00,56.6,48.8,29.95,WSW,245,3.5,3.5,75,0.00,BKN,,0.00,23.0,WeatherDisplay:10.37,2013-12-25 15:18:00,
2013-12-25 16:19:00,56.6,48.8,29.95,WSW,244,3.5,3.5,75,0.00,BKN,,0.00,23.0,WeatherDisplay:10.37,2013-12-25 15:19:00,
2013-12-25 16:21:00,56.5,48.7,29.95,WSW,244,2.3,2.3,75,0.00,BKN,,0.00,21.0,WeatherDisplay:10.37,2013-12-25 15:21:00,
2013-12-25 16:22:00,56.5,48.7,29.94,WSW,244,0.0,0.0,75,0.00,BKN,,0.00,21.0,WeatherDisplay:10.37,2013-12-25 15:22:00,
2013-12-25 16:23:00,56.5,48.7,29.94,WSW,244,0.0,0.0,75,0.00,BKN,,0.00,21.0,WeatherDisplay:10.37,2013-12-25 15:23:00,
2013-12-25 16:24:00,56.5,48.7,29.94,WSW,244,0.0,0.0,75,0.00,BKN,,0.00,21.0,WeatherDisplay:10.37,2013-12-25 15:24:00,
2013-12-25 16:26:00,56.4,48.6,29.94,SW,216,0.0,0.0,75,0.00,BKN,,0.00,16.0,WeatherDisplay:10.37,2013-12-25 15:26:00,
2013-12-25 16:27:00,56.4,48.6,29.94,WSW,238,5.0,5.0,75,0.00,BKN,,0.00,14.0,WeatherDisplay:10.37,2013-12-25 15:27:00,
2013-12-25 16:28:00,56.3,48.5,29.94,SW,236,4.6,4.6,75,0.00,BKN,,0.00,12.0,WeatherDisplay:10.37,2013-12-25 15:28:00,
2013-12-25 16:29:00,56.3,48.5,29.94,WSW,237,2.3,0.0,75,0.00,BKN,,0.00,11.0,WeatherDisplay:10.37,2013-12-25 15:29:00,
2013-12-25 16:30:00,56.3,48.5,29.94,WSW,237,2.3,0.0,75,0.00,BKN,,0.00,11.0,WeatherDisplay:10.37,2013-12-25 15:30:00,
2013-12-25 16:32:00,56.2,48.4,29.94,SSW,209,3.5,0.0,75,0.00,BKN,,0.00,7.0,WeatherDisplay:10.37,2013-12-25 15:32:00,
2013-12-25 16:34:00,56.2,48.4,29.94,SW,223,0.0,0.0,75,0.00,BKN,,0.00,5.0,WeatherDisplay:10.37,2013-12-25 15:34:00,
2013-12-25 16:35:00,56.1,48.3,29.94,SSW,205,3.5,3.5,75,0.00,BKN,,0.00,5.0,WeatherDisplay:10.37,2013-12-25 15:35:00,
2013-12-25 16:38:00,56.0,48.2,29.94,SSW,194,0.0,0.0,75,0.00,BKN,,0.00,0.0,WeatherDisplay:10.37,2013-12-25 15:38:00,
2013-12-25 16:39:00,56.0,48.2,29.94,SSW,194,0.0,0.0,75,0.00,BKN,,0.00,0.0,WeatherDisplay:10.37,2013-12-25 15:39:00,
2013-12-25 16:40:00,56.0,48.2,29.94,SSW,198,0.0,0.0,75,0.00,BKN,,0.00,0.0,WeatherDisplay:10.37,2013-12-25 15:40:00,
2013-12-25 16:41:00,55.9,48.1,29.93,SSW,198,0.0,0.0,75,0.00,BKN,,0.00,0.0,WeatherDisplay:10.37,2013-12-25 15:41:00,
2013-12-25 16:43:00,55.9,48.1,29.93,SSW,207,0.0,0.0,75,0.00,BKN,,0.00,0.0,WeatherDisplay:10.37,2013-12-25 15:43:00,
2013-12-25 16:44:00,55.8,48.0,29.93,SSW,207,0.0,0.0,75,0.00,BKN,,0.00,0.0,WeatherDisplay:10.37,2013-12-25 15:44:00,
2013-12-25 16:45:00,55.8,48.0,29.93,SSW,207,0.0,0.0,75,0.00,BKN,,0.00,0.0,WeatherDisplay:10.37,2013-12-25 15:45:00,
2013-12-25 16:47:00,55.7,47.9,29.93,SSW,207,0.0,0.0,75,0.00,BKN,,0.00,0.0,WeatherDisplay:10.37,2013-12-25 15:47:00,
2013-12-25 16:50:00,55.7,47.9,29.93,SSW,207,0.0,0.0,75,0.00,BKN,,0.00,0.0,WeatherDisplay:10.37,2013-12-25 15:50:00,
2013-12-25 16:51:00,55.6,47.8,29.93,SSW,207,0.0,0.0,75,0.00,BKN,,0.00,0.0,WeatherDisplay:10.37,2013-12-25 15:51:00,
2013-12-25 16:53:00,55.5,47.7,29.93,SSW,207,0.0,0.0,75,0.00,BKN,,0.00,0.0,WeatherDisplay:10.37,2013-12-25 15:53:00,
2013-12-25 16:55:00,55.4,47.6,29.93,SSW,207,0.0,0.0,75,0.00,BKN,,0.00,0.0,WeatherDisplay:10.37,2013-12-25 15:55:00,
2013-12-25 16:56:00,55.4,48.0,29.93,SSW,207,0.0,0.0,76,0.00,BKN,,0.00,0.0,WeatherDisplay:10.37,2013-12-25 15:56:00,
2013-12-25 16:57:00,55.4,48.0,29.93,SSW,207,0.0,0.0,76,0.00,BKN,,0.00,0.0,WeatherDisplay:10.37,2013-12-25 15:57:00,
2013-12-25 16:58:00,55.4,48.0,29.93,South,189,0.0,0.0,76,0.00,BKN,,0.00,0.0,WeatherDisplay:10.37,2013-12-25 15:58:00,
2013-12-25 17:00:00,55.3,47.9,29.93,South,188,0.0,0.0,76,0.00,BKN,,0.00,0.0,WeatherDisplay:10.37,2013-12-25 16:00:00,
2013-12-25 17:01:00,55.3,47.9,29.93,South,188,0.0,0.0,76,0.00,BKN,,0.00,0.0,WeatherDisplay:10.37,2013-12-25 16:01:00,
2013-12-25 17:03:00,55.2,47.8,29.93,South,188,0.0,0.0,76,0.00,BKN,,0.00,0.0,WeatherDisplay:10.37,2013-12-25 16:03:00,
2013-12-25 17:06:00,55.1,47.7,29.93,South,188,0.0,0.0,76,0.00,BKN,,0.00,0.0,WeatherDisplay:10.37,2013-12-25 16:06:00,
2013-12-25 17:07:00,55.1,47.7,29.93,South,188,0.0,0.0,76,0.00,BKN,,0.00,0.0,WeatherDisplay:10.37,2013-12-25 16:07:00,
2013-12-25 17:08:00,55.0,47.6,29.93,South,188,0.0,0.0,76,0.00,BKN,,0.00,0.0,WeatherDisplay:10.37,2013-12-25 16:08:00,
2013-12-25 17:11:00,54.9,47.5,29.93,South,173,0.0,0.0,76,0.00,BKN,,0.00,0.0,WeatherDisplay:10.37,2013-12-25 16:11:00,
2013-12-25 17:12:00,54.9,47.5,29.93,South,180,0.0,0.0,76,0.00,BKN,,0.00,0.0,WeatherDisplay:10.37,2013-12-25 16:12:00,
2013-12-25 17:13:00,54.9,47.5,29.93,South,180,0.0,0.0,76,0.00,BKN,,0.00,0.0,WeatherDisplay:10.37,2013-12-25 16:13:00,
2013-12-25 17:17:00,54.8,47.7,29.93,South,173,1.2,1.2,77,0.00,BKN,,0.00,0.0,WeatherDisplay:10.37,2013-12-25 16:17:00,
2013-12-25 17:18:00,54.8,47.7,29.93,South,173,2.3,2.3,77,0.00,BKN,,0.00,0.0,WeatherDisplay:10.37,2013-12-25 16:18:00,
2013-12-25 17:20:00,54.7,47.6,29.93,South,173,0.0,0.0,77,0.00,BKN,,0.00,0.0,WeatherDisplay:10.37,2013-12-25 16:20:00,
2013-12-25 17:23:00,54.6,47.5,29.92,South,173,0.0,0.0,77,0.00,BKN,,0.00,0.0,WeatherDisplay:10.37,2013-12-25 16:23:00,
2013-12-25 17:24:00,54.6,47.5,29.92,South,173,0.0,0.0,77,0.00,BKN,,0.00,0.0,WeatherDisplay:10.37,2013-12-25 16:24:00,
2013-12-25 17:25:00,54.5,47.4,29.92,South,191,2.3,2.3,77,0.00,BKN,,0.00,0.0,WeatherDisplay:10.37,2013-12-25 16:25:00,
2013-12-25 17:28:00,54.4,47.3,29.92,South,191,0.0,0.0,77,0.00,BKN,,0.00,0.0,WeatherDisplay:10.37,2013-12-25 16:28:00,
2013-12-25 17:29:00,54.4,47.3,29.92,South,191,0.0,0.0,77,0.00,BKN,,0.00,0.0,WeatherDisplay:10.37,2013-12-25 16:29:00,
2013-12-25 17:31:00,54.4,47.3,29.92,SSE,159,2.3,2.3,77,0.00,BKN,,0.00,0.0,WeatherDisplay:10.37,2013-12-25 16:31:00,
2013-12-25 17:34:00,54.3,47.2,29.92,South,178,3.5,3.5,77,0.00,BKN,,0.00,0.0,WeatherDisplay:10.37,2013-12-25 16:34:00,
2013-12-25 17:36:00,54.3,47.2,29.92,SE,138,3.5,3.5,77,0.00,BKN,,0.00,0.0,WeatherDisplay:10.37,2013-12-25 16:36:00,
2013-12-25 17:39:00,54.1,47.4,29.92,SSE,160,3.5,3.5,78,0.00,BKN,,0.00,0.0,WeatherDisplay:10.37,2013-12-25 16:39:00,
2013-12-25 17:40:00,54.1,47.4,29.92,SSE,158,4.6,4.6,78,0.00,BKN,,0.00,0.0,WeatherDisplay:10.37,2013-12-25 16:40:00,
2013-12-25 17:41:00,54.1,47.4,29.92,South,183,4.6,4.6,78,0.00,BKN,,0.00,0.0,WeatherDisplay:10.37,2013-12-25 16:41:00,
2013-12-25 17:44:00,54.1,47.4,29.92,SE,143,4.6,4.6,78,0.00,BKN,,0.00,0.0,WeatherDisplay:10.37,2013-12-25 16:44:00,
2013-12-25 17:45:00,54.1,47.4,29.92,SE,143,4.6,0.0,78,0.00,BKN,,0.00,0.0,WeatherDisplay:10.37,2013-12-25 16:45:00,
2013-12-25 17:46:00,54.0,47.3,29.92,SE,133,3.5,3.5,78,0.00,BKN,,0.00,0.0,WeatherDisplay:10.37,2013-12-25 16:46:00,
2013-12-25 17:49:00,54.0,47.3,29.91,SSE,157,5.8,5.8,78,0.00,BKN,,0.00,0.0,WeatherDisplay:10.37,2013-12-25 16:49:00,
2013-12-25 17:50:00,54.0,47.3,29.92,SSE,157,5.8,0.0,78,0.00,BKN,,0.00,0.0,WeatherDisplay:10.37,2013-12-25 16:50:00,
2013-12-25 17:51:00,53.9,47.2,29.92,SE,144,0.0,0.0,78,0.00,BKN,,0.00,0.0,WeatherDisplay:10.37,2013-12-25 16:51:00,
2013-12-25 17:55:00,53.8,47.1,29.91,SE,140,0.0,0.0,78,0.00,BKN,,0.00,0.0,WeatherDisplay:10.37,2013-12-25 16:55:00,
2013-12-25 17:56:00,53.8,47.1,29.92,SE,139,0.0,0.0,78,0.00,BKN,,0.00,0.0,WeatherDisplay:10.37,2013-12-25 16:56:00,
2013-12-25 17:57:00,53.8,47.1,29.92,SE,138,0.0,0.0,78,0.00,BKN,,0.00,0.0,WeatherDisplay:10.37,2013-12-25 16:57:00,
2013-12-25 18:00:00,53.7,47.0,29.91,SE,142,3.5,3.5,78,0.00,BKN,,0.00,0.0,WeatherDisplay:10.37,2013-12-25 17:00:00,
2013-12-25 18:01:00,53.7,47.0,29.91,SE,142,3.5,3.5,78,0.00,BKN,,0.00,0.0,WeatherDisplay:10.37,2013-12-25 17:01:00,
2013-12-25 18:02:00,53.6,46.9,29.91,SE,140,0.0,0.0,78,0.00,BKN,,0.00,0.0,WeatherDisplay:10.37,2013-12-25 17:02:00,
2013-12-25 18:05:00,53.5,46.8,29.91,ESE,116,2.3,2.3,78,0.00,BKN,,0.00,0.0,WeatherDisplay:10.37,2013-12-25 17:05:00,
2013-12-25 18:06:00,53.5,46.8,29.91,SE,142,6.0,6.0,78,0.00,BKN,,0.00,0.0,WeatherDisplay:10.37,2013-12-25 17:06:00,
2013-12-25 18:07:00,53.4,46.7,29.91,SE,138,5.8,0.0,78,0.00,BKN,,0.00,0.0,WeatherDisplay:10.37,2013-12-25 17:07:00,
2013-12-25 18:08:00,53.4,46.7,29.91,SE,138,0.0,0.0,78,0.00,BKN,,0.00,0.0,WeatherDisplay:10.37,2013-12-25 17:08:00,
2013-12-25 18:10:00,53.3,46.6,29.91,ESE,116,0.0,0.0,78,0.00,BKN,,0.00,0.0,WeatherDisplay:10.37,2013-12-25 17:10:00,
2013-12-25 18:11:00,53.3,46.6,29.91,ESE,116,0.0,0.0,78,0.00,BKN,,0.00,0.0,WeatherDisplay:10.37,2013-12-25 17:11:00,
2013-12-25 18:12:00,53.2,46.9,29.91,ESE,116,3.5,3.5,79,0.00,BKN,,0.00,0.0,WeatherDisplay:10.37,2013-12-25 17:12:00,
2013-12-25 18:13:00,53.2,46.9,29.91,ESE,116,1.2,0.0,79,0.00,BKN,,0.00,0.0,WeatherDisplay:10.37,2013-12-25 17:13:00,
2013-12-25 18:14:00,53.2,46.9,29.91,ESE,116,0.0,0.0,79,0.00,BKN,,0.00,0.0,WeatherDisplay:10.37,2013-12-25 17:14:00,
2013-12-25 18:15:00,53.2,46.9,29.91,ESE,111,0.0,0.0,79,0.00,BKN,,0.00,0.0,WeatherDisplay:10.37,2013-12-25 17:15:00,
2013-12-25 18:16:00,53.1,46.8,29.91,ESE,105,0.0,0.0,79,0.00,BKN,,0.00,0.0,WeatherDisplay:10.37,2013-12-25 17:16:00,
2013-12-25 18:17:00,53.1,46.8,29.91,East,84,3.5,3.5,79,0.00,BKN,,0.00,0.0,WeatherDisplay:10.37,2013-12-25 17:17:00,
2013-12-25 18:18:00,53.1,46.8,29.91,East,94,0.0,0.0,79,0.00,BKN,,0.00,0.0,WeatherDisplay:10.37,2013-12-25 17:18:00,
2013-12-25 18:20:00,53.1,46.8,29.91,East,94,0.0,0.0,79,0.00,BKN,,0.00,0.0,WeatherDisplay:10.37,2013-12-25 17:20:00,
2013-12-25 18:21:00,53.1,46.8,29.91,ESE,105,3.5,3.5,79,0.00,BKN,,0.00,0.0,WeatherDisplay:10.37,2013-12-25 17:21:00,
2013-12-25 18:22:00,53.0,46.7,29.91,ESE,120,3.5,3.5,79,0.00,BKN,,0.00,0.0,WeatherDisplay:10.37,2013-12-25 17:22:00,
2013-12-25 18:24:00,53.0,46.7,29.91,East,99,2.3,0.0,79,0.00,BKN,,0.00,0.0,WeatherDisplay:10.37,2013-12-25 17:24:00,
2013-12-25 18:25:00,53.0,47.0,29.90,East,99,0.0,0.0,80,0.00,BKN,,0.00,0.0,WeatherDisplay:10.37,2013-12-25 17:25:00,
2013-12-25 18:26:00,53.0,47.0,29.90,ESE,117,1.0,1.0,80,0.00,BKN,,0.00,0.0,WeatherDisplay:10.37,2013-12-25 17:26:00,
2013-12-25 18:27:00,53.0,46.7,29.90,ESE,121,3.5,3.5,79,0.00,BKN,,0.00,0.0,WeatherDisplay:10.37,2013-12-25 17:27:00,
2013-12-25 18:28:00,52.9,46.9,29.90,SE,124,0.0,0.0,80,0.00,BKN,,0.00,0.0,WeatherDisplay:10.37,2013-12-25 17:28:00,
2013-12-25 18:30:00,52.9,46.9,29.90,ESE,104,0.0,0.0,80,0.00,BKN,,0.00,0.0,WeatherDisplay:10.37,2013-12-25 17:30:00,
2013-12-25 18:31:00,52.9,46.9,29.90,ESE,121,0.0,0.0,80,0.00,BKN,,0.00,0.0,WeatherDisplay:10.37,2013-12-25 17:31:00,
2013-12-25 18:32:00,52.9,46.9,29.90,ESE,121,0.0,0.0,80,0.00,BKN,,0.00,0.0,WeatherDisplay:10.37,2013-12-25 17:32:00,
2013-12-25 18:33:00,52.9,46.9,29.90,ESE,121,2.0,2.0,80,0.00,BKN,,0.00,0.0,WeatherDisplay:10.37,2013-12-25 17:33:00,
2013-12-25 18:34:00,52.9,46.9,29.90,ESE,121,3.5,3.5,80,0.00,BKN,,0.00,0.0,WeatherDisplay:10.37,2013-12-25 17:34:00,
2013-12-25 18:35:00,52.9,46.9,29.90,ESE,111,3.5,0.0,80,0.00,BKN,,0.00,0.0,WeatherDisplay:10.37,2013-12-25 17:35:00,
2013-12-25 18:37:00,52.8,46.8,29.90,ESE,111,1.2,0.0,80,0.00,BKN,,0.00,0.0,WeatherDisplay:10.37,2013-12-25 17:37:00,
2013-12-25 18:38:00,52.8,46.8,29.90,ESE,111,0.0,0.0,80,0.00,BKN,,0.00,0.0,WeatherDisplay:10.37,2013-12-25 17:38:00,
2013-12-25 18:39:00,52.8,46.8,29.90,ESE,114,0.0,0.0,80,0.00,BKN,,0.00,0.0,WeatherDisplay:10.37,2013-12-25 17:39:00,
2013-12-25 18:41:00,52.7,46.7,29.90,ESE,114,0.0,0.0,80,0.00,BKN,,0.00,0.0,WeatherDisplay:10.37,2013-12-25 17:41:00,
2013-12-25 18:42:00,52.7,46.7,29.90,ESE,114,0.0,0.0,80,0.00,BKN,,0.00,0.0,WeatherDisplay:10.37,2013-12-25 17:42:00,
2013-12-25 18:43:00,52.7,46.7,29.90,ESE,114,0.0,0.0,80,0.00,BKN,,0.00,0.0,WeatherDisplay:10.37,2013-12-25 17:43:00,
2013-12-25 18:44:00,52.7,46.7,29.90,ESE,114,0.0,0.0,80,0.00,BKN,,0.00,0.0,WeatherDisplay:10.37,2013-12-25 17:44:00,
2013-12-25 18:46:00,52.7,46.7,29.90,ESE,113,0.0,0.0,80,0.00,BKN,,0.00,0.0,WeatherDisplay:10.37,2013-12-25 17:46:00,
2013-12-25 18:47:00,52.7,46.7,29.90,ESE,113,0.0,0.0,80,0.00,BKN,,0.00,0.0,WeatherDisplay:10.37,2013-12-25 17:47:00,
2013-12-25 18:49:00,52.7,46.7,29.90,ESE,108,0.0,0.0,80,0.00,BKN,,0.00,0.0,WeatherDisplay:10.37,2013-12-25 17:49:00,
2013-12-25 18:50:00,52.6,46.6,29.90,ESE,108,0.0,0.0,80,0.00,BKN,,0.00,0.0,WeatherDisplay:10.37,2013-12-25 17:50:00,
2013-12-25 18:52:00,52.6,46.6,29.90,ESE,108,0.0,0.0,80,0.00,BKN,,0.00,0.0,WeatherDisplay:10.37,2013-12-25 17:52:00,
2013-12-25 18:53:00,52.6,46.6,29.90,ESE,105,0.0,0.0,80,0.00,BKN,,0.00,0.0,WeatherDisplay:10.37,2013-12-25 17:53:00,
2013-12-25 18:54:00,52.5,46.5,29.90,ESE,105,0.0,0.0,80,0.00,BKN,,0.00,0.0,WeatherDisplay:10.37,2013-12-25 17:54:00,
2013-12-25 18:55:00,52.5,46.5,29.90,ESE,105,0.0,0.0,80,0.00,BKN,,0.00,0.0,WeatherDisplay:10.37,2013-12-25 17:55:00,
2013-12-25 18:58:00,52.4,46.4,29.90,ESE,105,0.0,0.0,80,0.00,BKN,,0.00,0.0,WeatherDisplay:10.37,2013-12-25 17:58:00,
2013-12-25 18:59:00,52.4,46.4,29.90,ESE,105,0.0,0.0,80,0.00,BKN,,0.00,0.0,WeatherDisplay:10.37,2013-12-25 17:59:00,
2013-12-25 19:00:00,52.4,46.4,29.90,ESE,105,0.0,0.0,80,0.00,BKN,,0.00,0.0,WeatherDisplay:10.37,2013-12-25 18:00:00,
2013-12-25 19:02:00,52.3,46.3,29.89,ESE,105,0.0,0.0,80,0.00,BKN,,0.00,0.0,WeatherDisplay:10.37,2013-12-25 18:02:00,
2013-12-25 19:03:00,52.3,46.3,29.89,ESE,105,0.0,0.0,80,0.00,BKN,,0.00,0.0,WeatherDisplay:10.37,2013-12-25 18:03:00,
2013-12-25 19:04:00,52.3,46.3,29.89,ESE,105,0.0,0.0,80,0.00,BKN,,0.00,0.0,WeatherDisplay:10.37,2013-12-25 18:04:00,
2013-12-25 19:05:00,52.2,46.2,29.89,ESE,105,0.0,0.0,80,0.00,BKN,,0.00,0.0,WeatherDisplay:10.37,2013-12-25 18:05:00,
2013-12-25 19:07:00,52.2,46.2,29.89,ESE,105,0.0,0.0,80,0.00,BKN,,0.00,0.0,WeatherDisplay:10.37,2013-12-25 18:07:00,
2013-12-25 19:08:00,52.1,46.1,29.89,ESE,105,0.0,0.0,80,0.00,BKN,,0.00,0.0,WeatherDisplay:10.37,2013-12-25 18:08:00,
2013-12-25 19:09:00,52.1,46.1,29.89,ESE,105,0.0,0.0,80,0.00,BKN,,0.00,0.0,WeatherDisplay:10.37,2013-12-25 18:09:00,
2013-12-25 19:10:00,52.1,46.1,29.89,ESE,105,0.0,0.0,80,0.00,BKN,,0.00,0.0,WeatherDisplay:10.37,2013-12-25 18:10:00,
2013-12-25 19:11:00,52.0,46.0,29.89,ESE,105,0.0,0.0,80,0.00,BKN,,0.00,0.0,WeatherDisplay:10.37,2013-12-25 18:11:00,
2013-12-25 19:12:00,52.0,46.0,29.89,ESE,105,0.0,0.0,80,0.00,BKN,,0.00,0.0,WeatherDisplay:10.37,2013-12-25 18:12:00,
2013-12-25 19:13:00,52.0,46.0,29.89,ESE,105,0.0,0.0,80,0.00,BKN,,0.00,0.0,WeatherDisplay:10.37,2013-12-25 18:13:00,
2013-12-25 19:14:00,52.0,46.0,29.89,ESE,105,0.0,0.0,80,0.00,BKN,,0.00,0.0,WeatherDisplay:10.37,2013-12-25 18:14:00,
2013-12-25 19:15:00,52.0,46.0,29.89,ESE,105,0.0,0.0,80,0.00,BKN,,0.00,0.0,WeatherDisplay:10.37,2013-12-25 18:15:00,
2013-12-25 19:16:00,51.9,45.9,29.89,ESE,105,0.0,0.0,80,0.00,BKN,,0.00,0.0,WeatherDisplay:10.37,2013-12-25 18:16:00,
2013-12-25 19:17:00,51.9,45.9,29.89,ESE,105,0.0,0.0,80,0.00,BKN,,0.00,0.0,WeatherDisplay:10.37,2013-12-25 18:17:00,
2013-12-25 19:18:00,51.9,45.9,29.88,ESE,105,0.0,0.0,80,0.00,BKN,,0.00,0.0,WeatherDisplay:10.37,2013-12-25 18:18:00,
2013-12-25 19:20:00,51.8,45.8,29.89,ESE,105,0.0,0.0,80,0.00,BKN,,0.00,0.0,WeatherDisplay:10.37,2013-12-25 18:20:00,
2013-12-25 19:21:00,51.8,46.2,29.89,ESE,105,2.0,2.0,81,0.00,BKN,,0.00,0.0,WeatherDisplay:10.37,2013-12-25 18:21:00,
2013-12-25 19:23:00,51.8,46.2,29.88,East,87,2.3,2.3,81,0.00,BKN,,0.00,0.0,WeatherDisplay:10.37,2013-12-25 18:23:00,
2013-12-25 19:25:00,51.7,45.7,29.88,East,86,3.5,3.5,80,0.00,BKN,,0.00,0.0,WeatherDisplay:10.37,2013-12-25 18:25:00,
2013-12-25 19:26:00,51.7,45.7,29.88,East,86,2.3,2.3,80,0.00,BKN,,0.00,0.0,WeatherDisplay:10.37,2013-12-25 18:26:00,
2013-12-25 19:27:00,51.6,46.0,29.88,East,86,2.3,2.3,81,0.00,BKN,,0.00,0.0,WeatherDisplay:10.37,2013-12-25 18:27:00,
2013-12-25 19:28:00,51.6,46.0,29.88,ENE,76,2.3,2.3,81,0.00,BKN,,0.00,0.0,WeatherDisplay:10.37,2013-12-25 18:28:00,
2013-12-25 19:29:00,51.6,46.0,29.88,ENE,76,3.5,3.5,81,0.00,BKN,,0.00,0.0,WeatherDisplay:10.37,2013-12-25 18:29:00,
2013-12-25 19:30:00,51.5,45.9,29.88,ENE,78,0.0,0.0,81,0.00,BKN,,0.00,0.0,WeatherDisplay:10.37,2013-12-25 18:30:00,
2013-12-25 19:31:00,51.5,45.9,29.88,ENE,73,0.0,0.9,81,0.00,BKN,,0.00,0.0,WeatherDisplay:10.37,2013-12-25 18:31:00,
2013-12-25 19:33:00,51.4,45.8,29.88,ENE,73,0.0,0.0,81,0.00,BKN,,0.00,0.0,WeatherDisplay:10.37,2013-12-25 18:33:00,
2013-12-25 19:34:00,51.4,45.8,29.88,ENE,73,0.0,0.0,81,0.00,BKN,,0.00,0.0,WeatherDisplay:10.37,2013-12-25 18:34:00,
2013-12-25 19:35:00,51.4,45.8,29.88,ENE,73,0.0,0.0,81,0.00,BKN,,0.00,0.0,WeatherDisplay:10.37,2013-12-25 18:35:00,
2013-12-25 19:37:00,51.3,45.7,29.88,ENE,73,0.0,0.0,81,0.00,BKN,,0.00,0.0,WeatherDisplay:10.37,2013-12-25 18:37:00,
2013-12-25 19:38:00,51.3,45.7,29.88,East,79,0.0,0.0,81,0.00,BKN,,0.00,0.0,WeatherDisplay:10.37,2013-12-25 18:38:00,
2013-12-25 19:39:00,51.3,45.7,29.88,East,79,0.0,0.0,81,0.00,BKN,,0.00,0.0,WeatherDisplay:10.37,2013-12-25 18:39:00,
2013-12-25 19:40:00,51.3,45.7,29.88,East,79,0.0,0.0,81,0.00,BKN,,0.00,0.0,WeatherDisplay:10.37,2013-12-25 18:40:00,
2013-12-25 19:42:00,51.2,45.6,29.88,East,79,0.0,0.0,81,0.00,BKN,,0.00,0.0,WeatherDisplay:10.37,2013-12-25 18:42:00,
2013-12-25 19:43:00,51.2,45.6,29.88,East,79,0.0,0.0,81,0.00,BKN,,0.00,0.0,WeatherDisplay:10.37,2013-12-25 18:43:00,
2013-12-25 19:44:00,51.1,45.5,29.88,East,79,0.0,0.0,81,0.00,BKN,,0.00,0.0,WeatherDisplay:10.37,2013-12-25 18:44:00,
2013-12-25 19:45:00,51.1,45.5,29.88,East,79,0.0,0.0,81,0.00,BKN,,0.00,0.0,WeatherDisplay:10.37,2013-12-25 18:45:00,
2013-12-25 19:47:00,51.1,45.5,29.88,East,79,3.5,3.5,81,0.00,BKN,,0.00,0.0,WeatherDisplay:10.37,2013-12-25 18:47:00,
2013-12-25 19:49:00,51.0,45.4,29.88,East,79,2.3,0.0,81,0.00,BKN,,0.00,0.0,WeatherDisplay:10.37,2013-12-25 18:49:00,
2013-12-25 19:50:00,51.0,45.4,29.88,East,79,2.3,0.0,81,0.00,BKN,,0.00,0.0,WeatherDisplay:10.37,2013-12-25 18:50:00,
2013-12-25 19:52:00,50.9,45.3,29.88,East,79,0.0,0.1,81,0.00,BKN,,0.00,0.0,WeatherDisplay:10.37,2013-12-25 18:52:00,
2013-12-25 19:55:00,50.9,45.3,29.88,East,79,0.0,0.0,81,0.00,BKN,,0.00,0.0,WeatherDisplay:10.37,2013-12-25 18:55:00,
2013-12-25 19:58:00,50.9,45.6,29.88,ENE,71,0.0,0.0,82,0.00,BKN,,0.00,0.0,WeatherDisplay:10.37,2013-12-25 18:58:00,
2013-12-25 20:00:00,50.8,45.5,29.88,ENE,71,3.5,3.5,82,0.00,BKN,,0.00,0.0,WeatherDisplay:10.37,2013-12-25 19:00:00,
2013-12-25 20:01:00,50.8,45.5,29.88,ENE,71,1.2,0.0,82,0.00,BKN,,0.00,0.0,WeatherDisplay:10.37,2013-12-25 19:01:00,
2013-12-25 20:04:00,50.7,45.4,29.88,ENE,71,0.0,0.0,82,0.00,BKN,,0.00,0.0,WeatherDisplay:10.37,2013-12-25 19:04:00,
2013-12-25 20:05:00,50.7,45.4,29.88,ENE,71,0.0,0.0,82,0.00,BKN,,0.00,0.0,WeatherDisplay:10.37,2013-12-25 19:05:00,
2013-12-25 20:06:00,50.7,45.4,29.88,ENE,71,0.0,0.0,82,0.00,BKN,,0.00,0.0,WeatherDisplay:10.37,2013-12-25 19:06:00,
2013-12-25 20:07:00,50.7,45.4,29.88,ENE,71,0.0,0.0,82,0.00,BKN,,0.00,0.0,WeatherDisplay:10.37,2013-12-25 19:07:00,
2013-12-25 20:09:00,50.6,45.3,29.87,ENE,71,0.0,0.0,82,0.00,BKN,,0.00,0.0,WeatherDisplay:10.37,2013-12-25 19:09:00,
2013-12-25 20:10:00,50.6,45.3,29.87,ENE,71,0.0,0.0,82,0.00,BKN,,0.00,0.0,WeatherDisplay:10.37,2013-12-25 19:10:00,
2013-12-25 20:11:00,50.6,45.3,29.87,ENE,71,0.0,0.0,82,0.00,BKN,,0.00,0.0,WeatherDisplay:10.37,2013-12-25 19:11:00,
2013-12-25 20:12:00,50.5,45.2,29.87,ENE,71,0.0,0.0,82,0.00,BKN,,0.00,0.0,WeatherDisplay:10.37,2013-12-25 19:12:00,
2013-12-25 20:14:00,50.5,45.2,29.87,ENE,71,0.0,0.0,82,0.00,BKN,,0.00,0.0,WeatherDisplay:10.37,2013-12-25 19:14:00,
2013-12-25 20:15:00,50.5,45.2,29.87,ENE,71,0.0,0.0,82,0.00,BKN,,0.00,0.0,WeatherDisplay:10.37,2013-12-25 19:15:00,
2013-12-25 20:17:00,50.4,45.1,29.87,ENE,71,0.0,0.0,82,0.00,BKN,,0.00,0.0,WeatherDisplay:10.37,2013-12-25 19:17:00,
2013-12-25 20:19:00,50.3,45.0,29.87,ENE,71,0.0,0.0,82,0.00,BKN,,0.00,0.0,WeatherDisplay:10.37,2013-12-25 19:19:00,
2013-12-25 20:21:00,50.3,45.0,29.86,ENE,71,0.0,0.0,82,0.00,BKN,,0.00,0.0,WeatherDisplay:10.37,2013-12-25 19:21:00,
2013-12-25 20:22:00,50.2,44.9,29.86,ENE,71,0.0,0.0,82,0.00,BKN,,0.00,0.0,WeatherDisplay:10.37,2013-12-25 19:22:00,
2013-12-25 20:23:00,50.2,44.9,29.86,ENE,71,0.0,0.0,82,0.00,BKN,,0.00,0.0,WeatherDisplay:10.37,2013-12-25 19:23:00,
2013-12-25 20:24:00,50.2,44.9,29.87,ENE,71,0.0,0.0,82,0.00,BKN,,0.00,0.0,WeatherDisplay:10.37,2013-12-25 19:24:00,
2013-12-25 20:26:00,50.1,44.8,29.86,ENE,71,0.0,0.0,82,0.00,BKN,,0.00,0.0,WeatherDisplay:10.37,2013-12-25 19:26:00,
2013-12-25 20:27:00,50.1,44.8,29.86,ENE,71,3.5,3.5,82,0.00,BKN,,0.00,0.0,WeatherDisplay:10.37,2013-12-25 19:27:00,
2013-12-25 20:28:00,50.1,44.8,29.86,ENE,71,2.3,2.3,82,0.00,BKN,,0.00,0.0,WeatherDisplay:10.37,2013-12-25 19:28:00,
2013-12-25 20:29:00,50.0,44.7,29.86,ENE,71,1.2,0.0,82,0.00,BKN,,0.00,0.0,WeatherDisplay:10.37,2013-12-25 19:29:00,
2013-12-25 20:31:00,50.0,44.7,29.86,ENE,71,0.0,0.0,82,0.00,BKN,,0.00,0.0,WeatherDisplay:10.37,2013-12-25 19:31:00,
2013-12-25 20:33:00,49.9,44.6,29.86,ENE,71,0.0,0.0,82,0.00,BKN,,0.00,0.0,WeatherDisplay:10.37,2013-12-25 19:33:00,
2013-12-25 20:35:00,49.8,44.5,29.86,ENE,71,0.0,0.0,82,0.00,BKN,,0.00,0.0,WeatherDisplay:10.37,2013-12-25 19:35:00,
2013-12-25 20:36:00,49.8,44.5,29.86,ENE,71,2.0,2.0,82,0.00,BKN,,0.00,0.0,WeatherDisplay:10.37,2013-12-25 19:36:00,
2013-12-25 20:38:00,49.7,44.4,29.86,ENE,71,0.0,0.0,82,0.00,BKN,,0.00,0.0,WeatherDisplay:10.37,2013-12-25 19:38:00,
2013-12-25 20:39:00,49.7,44.4,29.86,ENE,71,0.0,0.0,82,0.00,BKN,,0.00,0.0,WeatherDisplay:10.37,2013-12-25 19:39:00,
2013-12-25 20:41:00,49.6,44.3,29.86,East,80,3.5,3.5,82,0.00,BKN,,0.00,0.0,WeatherDisplay:10.37,2013-12-25 19:41:00,
2013-12-25 20:44:00,49.6,44.3,29.86,East,89,3.0,3.0,82,0.00,BKN,,0.00,0.0,WeatherDisplay:10.37,2013-12-25 19:44:00,
2013-12-25 20:46:00,49.6,44.3,29.85,ENE,73,3.5,3.5,82,0.00,BKN,,0.00,0.0,WeatherDisplay:10.37,2013-12-25 19:46:00,
2013-12-25 20:48:00,49.7,44.4,29.85,East,86,3.5,3.5,82,0.00,BKN,,0.00,0.0,WeatherDisplay:10.37,2013-12-25 19:48:00,
2013-12-25 20:49:00,49.8,44.8,29.85,East,86,3.5,3.5,83,0.00,BKN,,0.00,0.0,WeatherDisplay:10.37,2013-12-25 19:49:00,
2013-12-25 20:50:00,49.8,44.8,29.85,East,86,3.5,3.5,83,0.00,BKN,,0.00,0.0,WeatherDisplay:10.37,2013-12-25 19:50:00,
2013-12-25 20:51:00,49.8,44.8,29.85,East,86,3.5,3.5,83,0.00,BKN,,0.00,0.0,WeatherDisplay:10.37,2013-12-25 19:51:00,
2013-12-25 20:54:00,49.9,44.9,29.85,East,86,0.0,0.0,83,0.00,BKN,,0.00,0.0,WeatherDisplay:10.37,2013-12-25 19:54:00,
2013-12-25 20:55:00,49.9,44.6,29.85,East,86,0.0,0.0,82,0.00,BKN,,0.00,0.0,WeatherDisplay:10.37,2013-12-25 19:55:00,
2013-12-25 20:56:00,50.0,44.7,29.85,East,84,2.0,2.0,82,0.00,BKN,,0.00,0.0,WeatherDisplay:10.37,2013-12-25 19:56:00,
2013-12-25 20:57:00,50.0,44.7,29.85,East,86,3.5,3.5,82,0.00,BKN,,0.00,0.0,WeatherDisplay:10.37,2013-12-25 19:57:00,
2013-12-25 21:00:00,50.1,44.8,29.85,ENE,78,3.5,3.5,82,0.00,BKN,,0.00,0.0,WeatherDisplay:10.37,2013-12-25 20:00:00,
2013-12-25 21:02:00,50.1,44.8,29.85,ESE,103,0.0,0.0,82,0.00,BKN,,0.00,0.0,WeatherDisplay:10.37,2013-12-25 20:02:00,
2013-12-25 21:05:00,50.4,45.1,29.85,East,91,2.3,2.3,82,0.00,BKN,,0.00,0.0,WeatherDisplay:10.37,2013-12-25 20:05:00,
2013-12-25 21:06:00,50.4,45.1,29.85,East,91,1.2,0.0,82,0.00,BKN,,0.00,0.0,WeatherDisplay:10.37,2013-12-25 20:06:00,
2013-12-25 21:07:00,50.4,45.1,29.85,East,91,0.0,0.0,82,0.00,BKN,,0.00,0.0,WeatherDisplay:10.37,2013-12-25 20:07:00,
2013-12-25 21:10:00,50.5,45.2,29.85,East,91,0.0,0.0,82,0.00,BKN,,0.00,0.0,WeatherDisplay:10.37,2013-12-25 20:10:00,
2013-12-25 21:11:00,50.5,45.2,29.85,East,92,0.0,0.0,82,0.00,BKN,,0.00,0.0,WeatherDisplay:10.37,2013-12-25 20:11:00,
2013-12-25 21:12:00,50.5,45.2,29.84,East,91,0.0,0.0,82,0.00,BKN,,0.00,0.0,WeatherDisplay:10.37,2013-12-25 20:12:00,
2013-12-25 21:16:00,50.5,45.2,29.84,East,91,0.0,0.0,82,0.00,BKN,,0.00,0.0,WeatherDisplay:10.37,2013-12-25 20:16:00,
2013-12-25 21:17:00,50.5,45.2,29.84,East,91,0.0,0.0,82,0.00,BKN,,0.00,0.0,WeatherDisplay:10.37,2013-12-25 20:17:00,
2013-12-25 21:21:00,50.4,44.8,29.85,East,91,0.0,0.0,81,0.00,BKN,,0.00,0.0,WeatherDisplay:10.37,2013-12-25 20:21:00,
2013-12-25 21:22:00,50.4,44.8,29.85,East,91,0.0,0.0,81,0.00,BKN,,0.00,0.0,WeatherDisplay:10.37,2013-12-25 20:22:00,
2013-12-25 21:23:00,50.4,44.8,29.85,East,91,0.0,0.0,81,0.00,BKN,,0.00,0.0,WeatherDisplay:10.37,2013-12-25 20:23:00,
2013-12-25 21:26:00,50.3,44.7,29.84,East,91,0.0,0.0,81,0.00,BKN,,0.00,0.0,WeatherDisplay:10.37,2013-12-25 20:26:00,
2013-12-25 21:27:00,50.3,44.7,29.84,East,91,0.0,0.0,81,0.00,BKN,,0.00,0.0,WeatherDisplay:10.37,2013-12-25 20:27:00,
2013-12-25 21:28:00,50.2,44.9,29.84,East,91,0.0,0.0,82,0.00,BKN,,0.00,0.0,WeatherDisplay:10.37,2013-12-25 20:28:00,
2013-12-25 21:31:00,50.2,44.9,29.84,East,91,0.0,0.0,82,0.00,BKN,,0.00,0.0,WeatherDisplay:10.37,2013-12-25 20:31:00,
2013-12-25 21:32:00,50.2,44.9,29.84,East,91,0.0,0.0,82,0.00,BKN,,0.00,0.0,WeatherDisplay:10.37,2013-12-25 20:32:00,
2013-12-25 21:33:00,50.1,44.8,29.84,East,91,0.0,0.0,82,0.00,BKN,,0.00,0.0,WeatherDisplay:10.37,2013-12-25 20:33:00,
2013-12-25 21:34:00,50.2,44.9,29.84,East,91,0.0,0.0,82,0.00,BKN,,0.00,0.0,WeatherDisplay:10.37,2013-12-25 20:34:00,
2013-12-25 21:35:00,50.1,44.8,29.84,East,91,0.0,0.0,82,0.00,BKN,,0.00,0.0,WeatherDisplay:10.37,2013-12-25 20:35:00,
2013-12-25 21:37:00,50.1,44.8,29.84,East,91,0.0,0.0,82,0.00,BKN,,0.00,0.0,WeatherDisplay:10.37,2013-12-25 20:37:00,
2013-12-25 21:38:00,50.0,44.7,29.84,East,91,0.0,0.0,82,0.00,BKN,,0.00,0.0,WeatherDisplay:10.37,2013-12-25 20:38:00,
2013-12-25 21:40:00,50.0,44.7,29.84,East,91,0.0,0.0,82,0.00,BKN,,0.00,0.0,WeatherDisplay:10.37,2013-12-25 20:40:00,
2013-12-25 21:42:00,50.0,44.7,29.84,East,91,0.0,0.0,82,0.00,BKN,,0.00,0.0,WeatherDisplay:10.37,2013-12-25 20:42:00,
2013-12-25 21:43:00,49.9,44.6,29.84,East,91,1.0,1.0,82,0.00,BKN,,0.00,0.0,WeatherDisplay:10.37,2013-12-25 20:43:00,
2013-12-25 21:44:00,49.9,44.6,29.84,East,91,1.2,1.2,82,0.00,BKN,,0.00,0.0,WeatherDisplay:10.37,2013-12-25 20:44:00,
2013-12-25 21:45:00,49.9,44.6,29.84,East,91,2.3,2.3,82,0.00,BKN,,0.00,0.0,WeatherDisplay:10.37,2013-12-25 20:45:00,
2013-12-25 21:46:00,49.9,44.6,29.84,East,91,2.3,2.3,82,0.00,BKN,,0.00,0.0,WeatherDisplay:10.37,2013-12-25 20:46:00,
2013-12-25 21:47:00,49.8,44.5,29.84,East,91,1.2,0.0,82,0.00,BKN,,0.00,0.0,WeatherDisplay:10.37,2013-12-25 20:47:00,
2013-12-25 21:49:00,49.8,44.5,29.84,East,91,0.0,0.0,82,0.00,BKN,,0.00,0.0,WeatherDisplay:10.37,2013-12-25 20:49:00,
2013-12-25 21:50:00,49.7,44.1,29.84,East,91,0.0,0.0,81,0.00,BKN,,0.00,0.0,WeatherDisplay:10.37,2013-12-25 20:50:00,
2013-12-25 21:51:00,49.7,44.4,29.84,East,91,0.0,0.0,82,0.00,BKN,,0.00,0.0,WeatherDisplay:10.37,2013-12-25 20:51:00,
2013-12-25 21:52:00,49.6,44.3,29.84,East,91,0.0,0.0,82,0.00,BKN,,0.00,0.0,WeatherDisplay:10.37,2013-12-25 20:52:00,
2013-12-25 21:54:00,49.6,44.3,29.84,East,91,0.0,0.0,82,0.00,BKN,,0.00,0.0,WeatherDisplay:10.37,2013-12-25 20:54:00,
2013-12-25 21:56:00,49.5,43.9,29.83,East,91,0.0,0.0,81,0.00,BKN,,0.00,0.0,WeatherDisplay:10.37,2013-12-25 20:56:00,
2013-12-25 21:57:00,49.5,44.2,29.83,East,91,0.0,0.0,82,0.00,BKN,,0.00,0.0,WeatherDisplay:10.37,2013-12-25 20:57:00,
2013-12-25 21:59:00,49.4,44.1,29.83,East,91,0.0,0.0,82,0.00,BKN,,0.00,0.0,WeatherDisplay:10.37,2013-12-25 20:59:00,
2013-12-25 22:00:00,49.4,44.1,29.83,East,91,0.0,0.0,82,0.00,BKN,,0.00,0.0,WeatherDisplay:10.37,2013-12-25 21:00:00,
2013-12-25 22:02:00,49.3,44.0,29.83,East,91,0.0,0.0,82,0.00,BKN,,0.00,0.0,WeatherDisplay:10.37,2013-12-25 21:02:00,
2013-12-25 22:03:00,49.3,44.0,29.83,East,91,0.0,0.0,82,0.00,BKN,,0.00,0.0,WeatherDisplay:10.37,2013-12-25 21:03:00,
2013-12-25 22:04:00,49.2,43.9,29.83,East,91,0.0,0.0,82,0.00,BKN,,0.00,0.0,WeatherDisplay:10.37,2013-12-25 21:04:00,
2013-12-25 22:05:00,49.2,43.9,29.83,East,91,0.0,0.0,82,0.00,BKN,,0.00,0.0,WeatherDisplay:10.37,2013-12-25 21:05:00,
2013-12-25 22:06:00,49.2,43.9,29.83,East,91,0.0,0.0,82,0.00,BKN,,0.00,0.0,WeatherDisplay:10.37,2013-12-25 21:06:00,
2013-12-25 22:07:00,49.2,43.9,29.83,East,91,0.0,0.0,82,0.00,BKN,,0.00,0.0,WeatherDisplay:10.37,2013-12-25 21:07:00,
2013-12-25 22:08:00,49.1,43.8,29.83,East,91,0.0,0.0,82,0.00,BKN,,0.00,0.0,WeatherDisplay:10.37,2013-12-25 21:08:00,
2013-12-25 22:10:00,49.1,43.8,29.83,East,91,0.0,0.0,82,0.00,BKN,,0.00,0.0,WeatherDisplay:10.37,2013-12-25 21:10:00,
2013-12-25 22:12:00,49.1,43.8,29.83,East,91,0.0,0.0,82,0.00,BKN,,0.00,0.0,WeatherDisplay:10.37,2013-12-25 21:12:00,
2013-12-25 22:13:00,49.0,43.7,29.83,East,91,1.2,0.0,82,0.00,BKN,,0.00,0.0,WeatherDisplay:10.37,2013-12-25 21:13:00,
2013-12-25 22:14:00,49.0,43.7,29.83,East,91,0.0,0.0,82,0.00,BKN,,0.00,0.0,WeatherDisplay:10.37,2013-12-25 21:14:00,
2013-12-25 22:15:00,48.9,43.6,29.83,East,91,0.0,0.0,82,0.00,BKN,,0.00,0.0,WeatherDisplay:10.37,2013-12-25 21:15:00,
2013-12-25 22:17:00,48.9,43.6,29.83,East,91,0.0,0.0,82,0.00,BKN,,0.00,0.0,WeatherDisplay:10.37,2013-12-25 21:17:00,
2013-12-25 22:18:00,48.9,43.6,29.83,East,91,0.0,0.0,82,0.00,BKN,,0.00,0.0,WeatherDisplay:10.37,2013-12-25 21:18:00,
2013-12-25 22:19:00,48.8,43.5,29.83,East,91,0.0,0.0,82,0.00,BKN,,0.00,0.0,WeatherDisplay:10.37,2013-12-25 21:19:00,
2013-12-25 22:20:00,48.8,43.5,29.83,East,91,0.0,0.0,82,0.00,BKN,,0.00,0.0,WeatherDisplay:10.37,2013-12-25 21:20:00,
2013-12-25 22:23:00,48.7,43.8,29.83,East,91,0.0,0.0,83,0.00,BKN,,0.00,0.0,WeatherDisplay:10.37,2013-12-25 21:23:00,
2013-12-25 22:24:00,48.7,43.8,29.83,ENE,62,2.0,2.0,83,0.00,BKN,,0.00,0.0,WeatherDisplay:10.37,2013-12-25 21:24:00,
2013-12-25 22:25:00,48.7,43.8,29.83,ENE,62,2.3,2.3,83,0.00,BKN,,0.00,0.0,WeatherDisplay:10.37,2013-12-25 21:25:00,
2013-12-25 22:26:00,48.7,43.8,29.83,ENE,62,2.3,2.3,83,0.00,BKN,,0.00,0.0,WeatherDisplay:10.37,2013-12-25 21:26:00,
2013-12-25 22:28:00,48.6,43.7,29.83,ENE,62,0.0,0.0,83,0.00,BKN,,0.00,0.0,WeatherDisplay:10.37,2013-12-25 21:28:00,
2013-12-25 22:30:00,48.6,43.7,29.83,ENE,62,0.0,0.0,83,0.00,BKN,,0.00,0.0,WeatherDisplay:10.37,2013-12-25 21:30:00,
2013-12-25 22:31:00,48.5,43.6,29.83,ENE,62,0.0,0.0,83,0.00,BKN,,0.00,0.0,WeatherDisplay:10.37,2013-12-25 21:31:00,
2013-12-25 22:34:00,48.5,43.6,29.83,ENE,62,0.0,0.0,83,0.00,BKN,,0.00,0.0,WeatherDisplay:10.37,2013-12-25 21:34:00,
2013-12-25 22:36:00,48.4,43.5,29.83,ENE,62,0.0,0.0,83,0.00,BKN,,0.00,0.0,WeatherDisplay:10.37,2013-12-25 21:36:00,
2013-12-25 22:37:00,48.4,43.5,29.83,ENE,62,0.0,0.0,83,0.00,BKN,,0.00,0.0,WeatherDisplay:10.37,2013-12-25 21:37:00,
2013-12-25 22:39:00,48.3,43.4,29.83,ENE,62,0.0,0.0,83,0.00,BKN,,0.00,0.0,WeatherDisplay:10.37,2013-12-25 21:39:00,
2013-12-25 22:40:00,48.3,43.4,29.83,ENE,62,0.0,0.0,83,0.00,BKN,,0.00,0.0,WeatherDisplay:10.37,2013-12-25 21:40:00,
2013-12-25 22:41:00,48.3,43.4,29.83,ENE,62,0.0,0.0,83,0.00,BKN,,0.00,0.0,WeatherDisplay:10.37,2013-12-25 21:41:00,
2013-12-25 22:42:00,48.3,43.4,29.83,ENE,62,0.0,0.0,83,0.00,BKN,,0.00,0.0,WeatherDisplay:10.37,2013-12-25 21:42:00,
2013-12-25 22:45:00,48.3,43.4,29.83,ENE,62,0.0,0.0,83,0.00,BKN,,0.00,0.0,WeatherDisplay:10.37,2013-12-25 21:45:00,
2013-12-25 22:46:00,48.3,43.7,29.82,ENE,62,0.0,0.0,84,0.00,BKN,,0.00,0.0,WeatherDisplay:10.37,2013-12-25 21:46:00,
2013-12-25 22:47:00,48.3,43.7,29.82,ENE,62,0.0,0.0,84,0.00,BKN,,0.00,0.0,WeatherDisplay:10.37,2013-12-25 21:47:00,
2013-12-25 22:48:00,48.3,43.4,29.83,ENE,62,0.0,0.0,83,0.00,BKN,,0.00,0.0,WeatherDisplay:10.37,2013-12-25 21:48:00,
2013-12-25 22:50:00,48.3,43.4,29.82,ENE,62,0.0,0.0,83,0.00,BKN,,0.00,0.0,WeatherDisplay:10.37,2013-12-25 21:50:00,
2013-12-25 22:52:00,48.4,43.8,29.83,ENE,68,0.0,0.0,84,0.00,BKN,,0.00,0.0,WeatherDisplay:10.37,2013-12-25 21:52:00,
2013-12-25 22:53:00,48.4,43.8,29.82,ENE,68,3.5,3.5,84,0.00,BKN,,0.00,0.0,WeatherDisplay:10.37,2013-12-25 21:53:00,
2013-12-25 22:56:00,48.4,43.8,29.82,ENE,69,3.5,3.5,84,0.00,BKN,,0.00,0.0,WeatherDisplay:10.37,2013-12-25 21:56:00,
2013-12-25 22:57:00,48.4,43.8,29.82,ENE,69,3.5,3.5,84,0.00,BKN,,0.00,0.0,WeatherDisplay:10.37,2013-12-25 21:57:00,
2013-12-25 22:59:00,48.4,43.8,29.82,ENE,69,3.5,3.5,84,0.00,BKN,,0.00,0.0,WeatherDisplay:10.37,2013-12-25 21:59:00,
2013-12-25 23:01:00,48.4,43.8,29.81,ENE,69,2.3,2.3,84,0.00,BKN,,0.00,0.0,WeatherDisplay:10.37,2013-12-25 22:01:00,
2013-12-25 23:02:00,48.4,43.8,29.81,ENE,69,0.0,0.0,84,0.00,BKN,,0.00,0.0,WeatherDisplay:10.37,2013-12-25 22:02:00,
2013-12-25 23:03:00,48.4,43.8,29.81,ENE,69,0.0,0.0,84,0.00,BKN,,0.00,0.0,WeatherDisplay:10.37,2013-12-25 22:03:00,
2013-12-25 23:04:00,48.4,43.8,29.82,ENE,69,0.0,0.0,84,0.00,BKN,,0.00,0.0,WeatherDisplay:10.37,2013-12-25 22:04:00,
2013-12-25 23:08:00,48.3,43.7,29.82,ENE,69,0.0,0.0,84,0.00,BKN,,0.00,0.0,WeatherDisplay:10.37,2013-12-25 22:08:00,
2013-12-25 23:09:00,48.4,43.8,29.82,ENE,69,0.0,0.0,84,0.00,BKN,,0.00,0.0,WeatherDisplay:10.37,2013-12-25 22:09:00,
2013-12-25 23:10:00,48.4,43.8,29.82,ENE,69,0.0,0.0,84,0.00,BKN,,0.00,0.0,WeatherDisplay:10.37,2013-12-25 22:10:00,
2013-12-25 23:13:00,48.4,43.8,29.82,ENE,69,0.0,0.0,84,0.00,BKN,,0.00,0.0,WeatherDisplay:10.37,2013-12-25 22:13:00,
2013-12-25 23:14:00,48.4,43.8,29.82,ENE,69,0.0,0.0,84,0.00,BKN,,0.00,0.0,WeatherDisplay:10.37,2013-12-25 22:14:00,
2013-12-25 23:15:00,48.4,43.8,29.82,ENE,69,0.0,0.0,84,0.00,BKN,,0.00,0.0,WeatherDisplay:10.37,2013-12-25 22:15:00,
2013-12-25 23:18:00,48.3,43.7,29.82,ENE,69,0.0,0.0,84,0.00,BKN,,0.00,0.0,WeatherDisplay:10.37,2013-12-25 22:18:00,
2013-12-25 23:19:00,48.3,43.7,29.82,ENE,69,0.0,0.0,84,0.00,BKN,,0.00,0.0,WeatherDisplay:10.37,2013-12-25 22:19:00,
2013-12-25 23:20:00,48.3,43.7,29.81,ENE,69,0.0,0.0,84,0.00,BKN,,0.00,0.0,WeatherDisplay:10.37,2013-12-25 22:20:00,
2013-12-25 23:23:00,48.2,43.6,29.81,ENE,69,0.0,0.0,84,0.00,BKN,,0.00,0.0,WeatherDisplay:10.37,2013-12-25 22:23:00,
2013-12-25 23:24:00,48.2,43.6,29.81,ENE,69,0.0,0.0,84,0.00,BKN,,0.00,0.0,WeatherDisplay:10.37,2013-12-25 22:24:00,
2013-12-25 23:25:00,48.2,43.6,29.81,ENE,69,0.0,0.0,84,0.00,BKN,,0.00,0.0,WeatherDisplay:10.37,2013-12-25 22:25:00,
2013-12-25 23:26:00,48.2,43.6,29.81,ENE,69,0.0,0.0,84,0.00,BKN,,0.00,0.0,WeatherDisplay:10.37,2013-12-25 22:26:00,
2013-12-25 23:29:00,48.2,43.6,29.81,ENE,69,0.0,0.0,84,0.00,BKN,,0.00,0.0,WeatherDisplay:10.37,2013-12-25 22:29:00,
2013-12-25 23:30:00,48.3,43.7,29.81,ENE,69,0.0,0.0,84,0.00,BKN,,0.00,0.0,WeatherDisplay:10.37,2013-12-25 22:30:00,
2013-12-25 23:32:00,48.2,43.6,29.81,ENE,69,0.0,0.0,84,0.00,BKN,,0.00,0.0,WeatherDisplay:10.37,2013-12-25 22:32:00,
2013-12-25 23:34:00,48.3,43.7,29.81,ENE,69,1.0,0.0,84,0.00,BKN,,0.00,0.0,WeatherDisplay:10.37,2013-12-25 22:34:00,
2013-12-25 23:35:00,48.4,43.8,29.81,ENE,69,2.3,2.3,84,0.00,BKN,,0.00,0.0,WeatherDisplay:10.37,2013-12-25 22:35:00,
2013-12-25 23:36:00,48.4,43.8,29.81,ENE,69,2.3,2.3,84,0.00,BKN,,0.00,0.0,WeatherDisplay:10.37,2013-12-25 22:36:00,
2013-12-25 23:37:00,48.4,43.8,29.80,ENE,69,3.0,3.0,84,0.00,BKN,,0.00,0.0,WeatherDisplay:10.37,2013-12-25 22:37:00,
2013-12-25 23:38:00,48.4,43.8,29.80,ENE,69,3.5,3.5,84,0.00,BKN,,0.00,0.0,WeatherDisplay:10.37,2013-12-25 22:38:00,
2013-12-25 23:39:00,48.5,43.9,29.80,ENE,69,3.5,3.5,84,0.00,BKN,,0.00,0.0,WeatherDisplay:10.37,2013-12-25 22:39:00,
2013-12-25 23:40:00,48.5,43.9,29.80,ENE,69,3.5,3.5,84,0.00,BKN,,0.00,0.0,WeatherDisplay:10.37,2013-12-25 22:40:00,
2013-12-25 23:41:00,48.6,44.0,29.80,ENE,70,3.5,3.5,84,0.00,BKN,,0.00,0.0,WeatherDisplay:10.37,2013-12-25 22:41:00,
2013-12-25 23:42:00,48.7,44.1,29.80,ENE,70,3.0,3.0,84,0.00,BKN,,0.00,0.0,WeatherDisplay:10.37,2013-12-25 22:42:00,
2013-12-25 23:43:00,48.7,44.4,29.80,ENE,63,3.5,3.5,85,0.00,BKN,,0.00,0.0,WeatherDisplay:10.37,2013-12-25 22:43:00,
2013-12-25 23:44:00,48.8,44.5,29.80,ENE,63,3.5,3.5,85,0.00,BKN,,0.00,0.0,WeatherDisplay:10.37,2013-12-25 22:44:00,
2013-12-25 23:45:00,48.8,44.5,29.80,ENE,63,2.3,2.3,85,0.00,BKN,,0.00,0.0,WeatherDisplay:10.37,2013-12-25 22:45:00,
2013-12-25 23:46:00,48.9,44.3,29.79,ENE,63,0.0,0.0,84,0.00,BKN,,0.00,0.0,WeatherDisplay:10.37,2013-12-25 22:46:00,
2013-12-25 23:47:00,48.9,44.3,29.80,ENE,63,0.0,0.0,84,0.00,BKN,,0.00,0.0,WeatherDisplay:10.37,2013-12-25 22:47:00,
2013-12-25 23:48:00,48.9,44.3,29.80,ENE,63,0.0,0.0,84,0.00,BKN,,0.00,0.0,WeatherDisplay:10.37,2013-12-25 22:48:00,
2013-12-25 23:49:00,48.9,44.3,29.80,ENE,63,0.0,0.0,84,0.00,BKN,,0.00,0.0,WeatherDisplay:10.37,2013-12-25 22:49:00,
2013-12-25 23:50:00,48.9,44.3,29.80,ENE,63,0.0,0.0,84,0.00,BKN,,0.00,0.0,WeatherDisplay:10.37,2013-12-25 22:50:00,
2013-12-25 23:51:00,48.9,44.3,29.79,ENE,63,0.0,0.0,84,0.00,BKN,,0.00,0.0,WeatherDisplay:10.37,2013-12-25 22:51:00,
2013-12-25 23:52:00,48.9,44.3,29.79,ENE,63,2.0,2.0,84,0.00,BKN,,0.00,0.0,WeatherDisplay:10.37,2013-12-25 22:52:00,
2013-12-25 23:53:00,48.9,44.3,29.79,ENE,63,3.5,3.5,84,0.00,BKN,,0.00,0.0,WeatherDisplay:10.37,2013-12-25 22:53:00,
2013-12-25 23:55:00,48.9,44.3,29.79,ENE,63,3.5,3.5,84,0.00,BKN,,0.00,0.0,WeatherDisplay:10.37,2013-12-25 22:55:00,
2013-12-25 23:57:00,49.0,44.4,29.79,ENE,70,0.0,0.0,84,0.00,BKN,,0.00,0.0,WeatherDisplay:10.37,2013-12-25 22:57:00,
2013-12-25 23:59:00,49.0,44.4,29.78,ENE,70,0.0,0.0,84,0.00,BKN,,0.00,0.0,WeatherDisplay:10.37,2013-12-25 22:59:00,